<?xml version="1.0" encoding="UTF-8" standalone="no" ?>
<gpx xmlns="http://www.topografix.com/GPX/1/1" xmlns:xsi="http://www.w3.org/2001/XMLSchema-instance" xsi:schemaLocation="http://www.topografix.com/GPX/1/1 http://www.topografix.com/GPX/1/1/gpx.xsd" version="1.1" creator="VisuGPX - https://www.visugpx.com">
  <metadata>
    <name>Entre val d\'azun et val du berçons en passant par le col de liard</name>
    <desc><![CDATA[paysages et vues sur toute la chaine des Pyrénées. Que du bonheur]]></desc>
  </metadata>
  <wpt lat="43.00379" lon="-0.13423">
    <ele>945.5</ele>
    <name><![CDATA[Start]]></name>
    <desc><![CDATA[2009-08-18 07:47:35]]></desc>
  </wpt>
  <wpt lat="42.98093" lon="-0.162">
    <ele>840.9</ele>
    <name><![CDATA[Lap 1]]></name>
    <desc><![CDATA[7.71km, 70:22, 6.6kph]]></desc>
  </wpt>
  <wpt lat="43.00381" lon="-0.13424">
    <ele>945.7</ele>
    <name><![CDATA[Lap 2]]></name>
    <desc><![CDATA[7.51km, 66:49, 6.7kph]]></desc>
  </wpt>
  <trk>
    <name><![CDATA[2009-08-18-07-47-35]]></name>
    <desc><![CDATA[137:11 - 15.2km]]></desc>
    <trkseg>
      <trkpt lat="43.00379" lon="-0.13423">
        <ele>945.5</ele>
        <time>2009-08-18T07:47:34Z</time>
      </trkpt>
      <trkpt lat="43.0038" lon="-0.13425">
        <ele>945.9</ele>
        <time>2009-08-18T07:47:41Z</time>
      </trkpt>
      <trkpt lat="43.00381" lon="-0.1343">
        <ele>947.1</ele>
        <time>2009-08-18T07:47:49Z</time>
      </trkpt>
      <trkpt lat="43.00386" lon="-0.13433">
        <ele>948</ele>
        <time>2009-08-18T07:47:53Z</time>
      </trkpt>
      <trkpt lat="43.00398" lon="-0.13438">
        <ele>949.2</ele>
        <time>2009-08-18T07:48:00Z</time>
      </trkpt>
      <trkpt lat="43.00408" lon="-0.13439">
        <ele>949.7</ele>
        <time>2009-08-18T07:48:05Z</time>
      </trkpt>
      <trkpt lat="43.00418" lon="-0.1344">
        <ele>950.2</ele>
        <time>2009-08-18T07:48:11Z</time>
      </trkpt>
      <trkpt lat="43.00427" lon="-0.13441">
        <ele>950.6</ele>
        <time>2009-08-18T07:48:16Z</time>
      </trkpt>
      <trkpt lat="43.00438" lon="-0.13441">
        <ele>951.2</ele>
        <time>2009-08-18T07:48:21Z</time>
      </trkpt>
      <trkpt lat="43.00448" lon="-0.13443">
        <ele>952</ele>
        <time>2009-08-18T07:48:38Z</time>
      </trkpt>
      <trkpt lat="43.0046" lon="-0.13443">
        <ele>952.3</ele>
        <time>2009-08-18T07:48:42Z</time>
      </trkpt>
      <trkpt lat="43.00473" lon="-0.13445">
        <ele>953.3</ele>
        <time>2009-08-18T07:48:47Z</time>
      </trkpt>
      <trkpt lat="43.00487" lon="-0.13454">
        <ele>955.7</ele>
        <time>2009-08-18T07:48:52Z</time>
      </trkpt>
      <trkpt lat="43.00499" lon="-0.13464">
        <ele>958.3</ele>
        <time>2009-08-18T07:48:57Z</time>
      </trkpt>
      <trkpt lat="43.00511" lon="-0.13477">
        <ele>959.6</ele>
        <time>2009-08-18T07:49:02Z</time>
      </trkpt>
      <trkpt lat="43.00517" lon="-0.13484">
        <ele>959.9</ele>
        <time>2009-08-18T07:49:05Z</time>
      </trkpt>
      <trkpt lat="43.00524" lon="-0.13487">
        <ele>959.1</ele>
        <time>2009-08-18T07:49:12Z</time>
      </trkpt>
      <trkpt lat="43.00527" lon="-0.13495">
        <ele>959.5</ele>
        <time>2009-08-18T07:49:17Z</time>
      </trkpt>
      <trkpt lat="43.00521" lon="-0.13487">
        <ele>959.7</ele>
        <time>2009-08-18T07:49:25Z</time>
      </trkpt>
      <trkpt lat="43.00516" lon="-0.13482">
        <ele>959.9</ele>
        <time>2009-08-18T07:49:33Z</time>
      </trkpt>
      <trkpt lat="43.00517" lon="-0.13486">
        <ele>960.2</ele>
        <time>2009-08-18T07:49:36Z</time>
      </trkpt>
      <trkpt lat="43.00523" lon="-0.13496">
        <ele>960.3</ele>
        <time>2009-08-18T07:49:44Z</time>
      </trkpt>
      <trkpt lat="43.00529" lon="-0.13494">
        <ele>958.8</ele>
        <time>2009-08-18T07:49:51Z</time>
      </trkpt>
      <trkpt lat="43.00538" lon="-0.13496">
        <ele>957.2</ele>
        <time>2009-08-18T07:49:59Z</time>
      </trkpt>
      <trkpt lat="43.00551" lon="-0.13502">
        <ele>955</ele>
        <time>2009-08-18T07:50:04Z</time>
      </trkpt>
      <trkpt lat="43.00557" lon="-0.13507">
        <ele>954.8</ele>
        <time>2009-08-18T07:50:06Z</time>
      </trkpt>
      <trkpt lat="43.00572" lon="-0.1351">
        <ele>951.8</ele>
        <time>2009-08-18T07:50:12Z</time>
      </trkpt>
      <trkpt lat="43.00584" lon="-0.13519">
        <ele>950.9</ele>
        <time>2009-08-18T07:50:17Z</time>
      </trkpt>
      <trkpt lat="43.00596" lon="-0.1353">
        <ele>952.2</ele>
        <time>2009-08-18T07:50:21Z</time>
      </trkpt>
      <trkpt lat="43.00607" lon="-0.1354">
        <ele>952.9</ele>
        <time>2009-08-18T07:50:26Z</time>
      </trkpt>
      <trkpt lat="43.00616" lon="-0.13549">
        <ele>953</ele>
        <time>2009-08-18T07:50:31Z</time>
      </trkpt>
      <trkpt lat="43.00627" lon="-0.13558">
        <ele>952.4</ele>
        <time>2009-08-18T07:50:36Z</time>
      </trkpt>
      <trkpt lat="43.00637" lon="-0.13568">
        <ele>951.5</ele>
        <time>2009-08-18T07:50:41Z</time>
      </trkpt>
      <trkpt lat="43.00646" lon="-0.1358">
        <ele>950.4</ele>
        <time>2009-08-18T07:50:45Z</time>
      </trkpt>
      <trkpt lat="43.00656" lon="-0.13591">
        <ele>951.3</ele>
        <time>2009-08-18T07:50:50Z</time>
      </trkpt>
      <trkpt lat="43.00667" lon="-0.13599">
        <ele>952.1</ele>
        <time>2009-08-18T07:50:54Z</time>
      </trkpt>
      <trkpt lat="43.00678" lon="-0.13606">
        <ele>953.2</ele>
        <time>2009-08-18T07:51:00Z</time>
      </trkpt>
      <trkpt lat="43.00687" lon="-0.13613">
        <ele>954.5</ele>
        <time>2009-08-18T07:51:05Z</time>
      </trkpt>
      <trkpt lat="43.00697" lon="-0.13617">
        <ele>954.6</ele>
        <time>2009-08-18T07:51:10Z</time>
      </trkpt>
      <trkpt lat="43.00709" lon="-0.13622">
        <ele>954.5</ele>
        <time>2009-08-18T07:51:16Z</time>
      </trkpt>
      <trkpt lat="43.00719" lon="-0.13627">
        <ele>954.3</ele>
        <time>2009-08-18T07:51:21Z</time>
      </trkpt>
      <trkpt lat="43.00729" lon="-0.13629">
        <ele>953.4</ele>
        <time>2009-08-18T07:51:27Z</time>
      </trkpt>
      <trkpt lat="43.00737" lon="-0.1363">
        <ele>952.5</ele>
        <time>2009-08-18T07:51:33Z</time>
      </trkpt>
      <trkpt lat="43.00738" lon="-0.13632">
        <ele>952.7</ele>
        <time>2009-08-18T07:51:34Z</time>
      </trkpt>
      <trkpt lat="43.00746" lon="-0.13636">
        <ele>952.4</ele>
        <time>2009-08-18T07:51:42Z</time>
      </trkpt>
      <trkpt lat="43.00757" lon="-0.13636">
        <ele>951.5</ele>
        <time>2009-08-18T07:51:49Z</time>
      </trkpt>
      <trkpt lat="43.00768" lon="-0.13631">
        <ele>950.6</ele>
        <time>2009-08-18T07:51:55Z</time>
      </trkpt>
      <trkpt lat="43.00774" lon="-0.13628">
        <ele>950</ele>
        <time>2009-08-18T07:51:59Z</time>
      </trkpt>
      <trkpt lat="43.00782" lon="-0.1363">
        <ele>950.5</ele>
        <time>2009-08-18T07:52:03Z</time>
      </trkpt>
      <trkpt lat="43.00794" lon="-0.13628">
        <ele>950.2</ele>
        <time>2009-08-18T07:52:09Z</time>
      </trkpt>
      <trkpt lat="43.00807" lon="-0.13627">
        <ele>949.9</ele>
        <time>2009-08-18T07:52:14Z</time>
      </trkpt>
      <trkpt lat="43.00821" lon="-0.13623">
        <ele>949.5</ele>
        <time>2009-08-18T07:52:19Z</time>
      </trkpt>
      <trkpt lat="43.00834" lon="-0.1362">
        <ele>949.2</ele>
        <time>2009-08-18T07:52:24Z</time>
      </trkpt>
      <trkpt lat="43.00847" lon="-0.13619">
        <ele>948.4</ele>
        <time>2009-08-18T07:52:30Z</time>
      </trkpt>
      <trkpt lat="43.00858" lon="-0.13618">
        <ele>947.6</ele>
        <time>2009-08-18T07:52:35Z</time>
      </trkpt>
      <trkpt lat="43.00872" lon="-0.13616">
        <ele>946.5</ele>
        <time>2009-08-18T07:52:40Z</time>
      </trkpt>
      <trkpt lat="43.00886" lon="-0.13616">
        <ele>945.8</ele>
        <time>2009-08-18T07:52:45Z</time>
      </trkpt>
      <trkpt lat="43.00898" lon="-0.13616">
        <ele>945.2</ele>
        <time>2009-08-18T07:52:50Z</time>
      </trkpt>
      <trkpt lat="43.00912" lon="-0.13617">
        <ele>944.5</ele>
        <time>2009-08-18T07:52:55Z</time>
      </trkpt>
      <trkpt lat="43.00924" lon="-0.1362">
        <ele>943.3</ele>
        <time>2009-08-18T07:53:00Z</time>
      </trkpt>
      <trkpt lat="43.00936" lon="-0.13621">
        <ele>941.3</ele>
        <time>2009-08-18T07:53:05Z</time>
      </trkpt>
      <trkpt lat="43.00948" lon="-0.13624">
        <ele>939.7</ele>
        <time>2009-08-18T07:53:10Z</time>
      </trkpt>
      <trkpt lat="43.00959" lon="-0.1363">
        <ele>938.4</ele>
        <time>2009-08-18T07:53:15Z</time>
      </trkpt>
      <trkpt lat="43.00973" lon="-0.13642">
        <ele>937.4</ele>
        <time>2009-08-18T07:53:20Z</time>
      </trkpt>
      <trkpt lat="43.00985" lon="-0.13655">
        <ele>937</ele>
        <time>2009-08-18T07:53:24Z</time>
      </trkpt>
      <trkpt lat="43.00999" lon="-0.13665">
        <ele>936</ele>
        <time>2009-08-18T07:53:28Z</time>
      </trkpt>
      <trkpt lat="43.01013" lon="-0.1367">
        <ele>935</ele>
        <time>2009-08-18T07:53:32Z</time>
      </trkpt>
      <trkpt lat="43.01026" lon="-0.13675">
        <ele>934</ele>
        <time>2009-08-18T07:53:36Z</time>
      </trkpt>
      <trkpt lat="43.01038" lon="-0.1368">
        <ele>933.2</ele>
        <time>2009-08-18T07:53:41Z</time>
      </trkpt>
      <trkpt lat="43.0105" lon="-0.13685">
        <ele>932.5</ele>
        <time>2009-08-18T07:53:46Z</time>
      </trkpt>
      <trkpt lat="43.01061" lon="-0.13687">
        <ele>931.5</ele>
        <time>2009-08-18T07:53:51Z</time>
      </trkpt>
      <trkpt lat="43.01076" lon="-0.13685">
        <ele>930</ele>
        <time>2009-08-18T07:53:56Z</time>
      </trkpt>
      <trkpt lat="43.01083" lon="-0.13686">
        <ele>929.4</ele>
        <time>2009-08-18T07:53:58Z</time>
      </trkpt>
      <trkpt lat="43.01095" lon="-0.13695">
        <ele>929.4</ele>
        <time>2009-08-18T07:54:05Z</time>
      </trkpt>
      <trkpt lat="43.01102" lon="-0.13708">
        <ele>929.9</ele>
        <time>2009-08-18T07:54:10Z</time>
      </trkpt>
      <trkpt lat="43.01111" lon="-0.13722">
        <ele>930.3</ele>
        <time>2009-08-18T07:54:16Z</time>
      </trkpt>
      <trkpt lat="43.01121" lon="-0.13732">
        <ele>930.5</ele>
        <time>2009-08-18T07:54:20Z</time>
      </trkpt>
      <trkpt lat="43.0113" lon="-0.13739">
        <ele>930.4</ele>
        <time>2009-08-18T07:54:24Z</time>
      </trkpt>
      <trkpt lat="43.01137" lon="-0.13751">
        <ele>930.9</ele>
        <time>2009-08-18T07:54:31Z</time>
      </trkpt>
      <trkpt lat="43.01145" lon="-0.13766">
        <ele>932</ele>
        <time>2009-08-18T07:54:36Z</time>
      </trkpt>
      <trkpt lat="43.01149" lon="-0.13788">
        <ele>933.8</ele>
        <time>2009-08-18T07:54:41Z</time>
      </trkpt>
      <trkpt lat="43.01151" lon="-0.13797">
        <ele>934.4</ele>
        <time>2009-08-18T07:54:44Z</time>
      </trkpt>
      <trkpt lat="43.01157" lon="-0.13814">
        <ele>935</ele>
        <time>2009-08-18T07:54:49Z</time>
      </trkpt>
      <trkpt lat="43.01158" lon="-0.13819">
        <ele>935.4</ele>
        <time>2009-08-18T07:54:51Z</time>
      </trkpt>
      <trkpt lat="43.01159" lon="-0.13834">
        <ele>936.4</ele>
        <time>2009-08-18T07:54:57Z</time>
      </trkpt>
      <trkpt lat="43.01166" lon="-0.13848">
        <ele>937.1</ele>
        <time>2009-08-18T07:55:02Z</time>
      </trkpt>
      <trkpt lat="43.01177" lon="-0.13868">
        <ele>937.7</ele>
        <time>2009-08-18T07:55:07Z</time>
      </trkpt>
      <trkpt lat="43.01186" lon="-0.1388">
        <ele>937.6</ele>
        <time>2009-08-18T07:55:12Z</time>
      </trkpt>
      <trkpt lat="43.01189" lon="-0.13883">
        <ele>937.5</ele>
        <time>2009-08-18T07:55:13Z</time>
      </trkpt>
      <trkpt lat="43.01202" lon="-0.13901">
        <ele>937.6</ele>
        <time>2009-08-18T07:55:18Z</time>
      </trkpt>
      <trkpt lat="43.01215" lon="-0.13917">
        <ele>937.4</ele>
        <time>2009-08-18T07:55:24Z</time>
      </trkpt>
      <trkpt lat="43.01219" lon="-0.13921">
        <ele>937.3</ele>
        <time>2009-08-18T07:55:26Z</time>
      </trkpt>
      <trkpt lat="43.01223" lon="-0.1393">
        <ele>938.1</ele>
        <time>2009-08-18T07:55:31Z</time>
      </trkpt>
      <trkpt lat="43.01235" lon="-0.13943">
        <ele>937.8</ele>
        <time>2009-08-18T07:55:38Z</time>
      </trkpt>
      <trkpt lat="43.01242" lon="-0.13954">
        <ele>937.7</ele>
        <time>2009-08-18T07:55:45Z</time>
      </trkpt>
      <trkpt lat="43.01244" lon="-0.13958">
        <ele>937.8</ele>
        <time>2009-08-18T07:55:47Z</time>
      </trkpt>
      <trkpt lat="43.01249" lon="-0.13967">
        <ele>937.8</ele>
        <time>2009-08-18T07:55:51Z</time>
      </trkpt>
      <trkpt lat="43.01257" lon="-0.13979">
        <ele>937.8</ele>
        <time>2009-08-18T07:55:58Z</time>
      </trkpt>
      <trkpt lat="43.01262" lon="-0.13984">
        <ele>937.5</ele>
        <time>2009-08-18T07:56:01Z</time>
      </trkpt>
      <trkpt lat="43.01269" lon="-0.13997">
        <ele>937.7</ele>
        <time>2009-08-18T07:56:08Z</time>
      </trkpt>
      <trkpt lat="43.01273" lon="-0.14005">
        <ele>938</ele>
        <time>2009-08-18T07:56:16Z</time>
      </trkpt>
      <trkpt lat="43.01282" lon="-0.14016">
        <ele>937.4</ele>
        <time>2009-08-18T07:56:24Z</time>
      </trkpt>
      <trkpt lat="43.01288" lon="-0.14023">
        <ele>936.9</ele>
        <time>2009-08-18T07:56:29Z</time>
      </trkpt>
      <trkpt lat="43.01294" lon="-0.14037">
        <ele>937.1</ele>
        <time>2009-08-18T07:56:36Z</time>
      </trkpt>
      <trkpt lat="43.01297" lon="-0.14045">
        <ele>937.3</ele>
        <time>2009-08-18T07:56:40Z</time>
      </trkpt>
      <trkpt lat="43.01297" lon="-0.14059">
        <ele>938.8</ele>
        <time>2009-08-18T07:56:48Z</time>
      </trkpt>
      <trkpt lat="43.01298" lon="-0.14072">
        <ele>940</ele>
        <time>2009-08-18T07:56:54Z</time>
      </trkpt>
      <trkpt lat="43.01303" lon="-0.14089">
        <ele>940.2</ele>
        <time>2009-08-18T07:57:01Z</time>
      </trkpt>
      <trkpt lat="43.01304" lon="-0.14096">
        <ele>940.6</ele>
        <time>2009-08-18T07:57:04Z</time>
      </trkpt>
      <trkpt lat="43.01309" lon="-0.14116">
        <ele>940.9</ele>
        <time>2009-08-18T07:57:10Z</time>
      </trkpt>
      <trkpt lat="43.01314" lon="-0.14131">
        <ele>940.7</ele>
        <time>2009-08-18T07:57:15Z</time>
      </trkpt>
      <trkpt lat="43.01317" lon="-0.14137">
        <ele>940.3</ele>
        <time>2009-08-18T07:57:18Z</time>
      </trkpt>
      <trkpt lat="43.01321" lon="-0.14155">
        <ele>940.6</ele>
        <time>2009-08-18T07:57:26Z</time>
      </trkpt>
      <trkpt lat="43.01323" lon="-0.14167">
        <ele>941</ele>
        <time>2009-08-18T07:57:33Z</time>
      </trkpt>
      <trkpt lat="43.01323" lon="-0.1417">
        <ele>941.1</ele>
        <time>2009-08-18T07:57:35Z</time>
      </trkpt>
      <trkpt lat="43.01324" lon="-0.14181">
        <ele>941.2</ele>
        <time>2009-08-18T07:57:39Z</time>
      </trkpt>
      <trkpt lat="43.01325" lon="-0.14191">
        <ele>941.3</ele>
        <time>2009-08-18T07:57:43Z</time>
      </trkpt>
      <trkpt lat="43.01327" lon="-0.1421">
        <ele>941.4</ele>
        <time>2009-08-18T07:57:50Z</time>
      </trkpt>
      <trkpt lat="43.01324" lon="-0.14225">
        <ele>942.7</ele>
        <time>2009-08-18T07:57:57Z</time>
      </trkpt>
      <trkpt lat="43.01319" lon="-0.14243">
        <ele>944.5</ele>
        <time>2009-08-18T07:58:04Z</time>
      </trkpt>
      <trkpt lat="43.01311" lon="-0.14262">
        <ele>946</ele>
        <time>2009-08-18T07:58:12Z</time>
      </trkpt>
      <trkpt lat="43.01311" lon="-0.14267">
        <ele>945.9</ele>
        <time>2009-08-18T07:58:14Z</time>
      </trkpt>
      <trkpt lat="43.01307" lon="-0.14292">
        <ele>945.9</ele>
        <time>2009-08-18T07:58:21Z</time>
      </trkpt>
      <trkpt lat="43.01307" lon="-0.14297">
        <ele>945.9</ele>
        <time>2009-08-18T07:58:22Z</time>
      </trkpt>
      <trkpt lat="43.01306" lon="-0.14309">
        <ele>945.8</ele>
        <time>2009-08-18T07:58:25Z</time>
      </trkpt>
      <trkpt lat="43.01303" lon="-0.1433">
        <ele>945.8</ele>
        <time>2009-08-18T07:58:33Z</time>
      </trkpt>
      <trkpt lat="43.01303" lon="-0.14349">
        <ele>945.3</ele>
        <time>2009-08-18T07:58:40Z</time>
      </trkpt>
      <trkpt lat="43.01301" lon="-0.14359">
        <ele>945.6</ele>
        <time>2009-08-18T07:58:43Z</time>
      </trkpt>
      <trkpt lat="43.01295" lon="-0.1438">
        <ele>946.9</ele>
        <time>2009-08-18T07:58:51Z</time>
      </trkpt>
      <trkpt lat="43.01293" lon="-0.14387">
        <ele>947.3</ele>
        <time>2009-08-18T07:58:54Z</time>
      </trkpt>
      <trkpt lat="43.01296" lon="-0.14408">
        <ele>946</ele>
        <time>2009-08-18T07:59:02Z</time>
      </trkpt>
      <trkpt lat="43.01298" lon="-0.14426">
        <ele>944.8</ele>
        <time>2009-08-18T07:59:08Z</time>
      </trkpt>
      <trkpt lat="43.01295" lon="-0.14444">
        <ele>945.2</ele>
        <time>2009-08-18T07:59:15Z</time>
      </trkpt>
      <trkpt lat="43.01291" lon="-0.14459">
        <ele>946.3</ele>
        <time>2009-08-18T07:59:22Z</time>
      </trkpt>
      <trkpt lat="43.01288" lon="-0.14466">
        <ele>946.9</ele>
        <time>2009-08-18T07:59:25Z</time>
      </trkpt>
      <trkpt lat="43.01286" lon="-0.14472">
        <ele>947.4</ele>
        <time>2009-08-18T07:59:28Z</time>
      </trkpt>
      <trkpt lat="43.01284" lon="-0.14483">
        <ele>947.7</ele>
        <time>2009-08-18T07:59:33Z</time>
      </trkpt>
      <trkpt lat="43.01281" lon="-0.14496">
        <ele>948.4</ele>
        <time>2009-08-18T07:59:39Z</time>
      </trkpt>
      <trkpt lat="43.01279" lon="-0.14506">
        <ele>948.7</ele>
        <time>2009-08-18T07:59:44Z</time>
      </trkpt>
      <trkpt lat="43.01281" lon="-0.14518">
        <ele>947.4</ele>
        <time>2009-08-18T07:59:49Z</time>
      </trkpt>
      <trkpt lat="43.01283" lon="-0.14535">
        <ele>946.3</ele>
        <time>2009-08-18T07:59:56Z</time>
      </trkpt>
      <trkpt lat="43.01284" lon="-0.14544">
        <ele>945.5</ele>
        <time>2009-08-18T07:59:59Z</time>
      </trkpt>
      <trkpt lat="43.01284" lon="-0.14554">
        <ele>944.9</ele>
        <time>2009-08-18T08:00:02Z</time>
      </trkpt>
      <trkpt lat="43.0128" lon="-0.14574">
        <ele>945.3</ele>
        <time>2009-08-18T08:00:08Z</time>
      </trkpt>
      <trkpt lat="43.01279" lon="-0.14593">
        <ele>945.1</ele>
        <time>2009-08-18T08:00:15Z</time>
      </trkpt>
      <trkpt lat="43.01277" lon="-0.14602">
        <ele>945.7</ele>
        <time>2009-08-18T08:00:19Z</time>
      </trkpt>
      <trkpt lat="43.01275" lon="-0.14606">
        <ele>946.1</ele>
        <time>2009-08-18T08:00:21Z</time>
      </trkpt>
      <trkpt lat="43.01271" lon="-0.14624">
        <ele>947</ele>
        <time>2009-08-18T08:00:29Z</time>
      </trkpt>
      <trkpt lat="43.01267" lon="-0.14636">
        <ele>948</ele>
        <time>2009-08-18T08:00:35Z</time>
      </trkpt>
      <trkpt lat="43.01262" lon="-0.14658">
        <ele>948.8</ele>
        <time>2009-08-18T08:00:44Z</time>
      </trkpt>
      <trkpt lat="43.01258" lon="-0.1467">
        <ele>949.7</ele>
        <time>2009-08-18T08:00:52Z</time>
      </trkpt>
      <trkpt lat="43.01256" lon="-0.14674">
        <ele>950.1</ele>
        <time>2009-08-18T08:01:02Z</time>
      </trkpt>
      <trkpt lat="43.0125" lon="-0.14677">
        <ele>951.7</ele>
        <time>2009-08-18T08:01:10Z</time>
      </trkpt>
      <trkpt lat="43.01242" lon="-0.14687">
        <ele>953.6</ele>
        <time>2009-08-18T08:01:18Z</time>
      </trkpt>
      <trkpt lat="43.01243" lon="-0.14696">
        <ele>953</ele>
        <time>2009-08-18T08:01:24Z</time>
      </trkpt>
      <trkpt lat="43.01242" lon="-0.14708">
        <ele>953</ele>
        <time>2009-08-18T08:01:32Z</time>
      </trkpt>
      <trkpt lat="43.01239" lon="-0.14723">
        <ele>953.3</ele>
        <time>2009-08-18T08:01:41Z</time>
      </trkpt>
      <trkpt lat="43.01239" lon="-0.14736">
        <ele>952.9</ele>
        <time>2009-08-18T08:01:49Z</time>
      </trkpt>
      <trkpt lat="43.01236" lon="-0.14751">
        <ele>953.7</ele>
        <time>2009-08-18T08:01:59Z</time>
      </trkpt>
      <trkpt lat="43.01231" lon="-0.14767">
        <ele>955.3</ele>
        <time>2009-08-18T08:02:07Z</time>
      </trkpt>
      <trkpt lat="43.0123" lon="-0.14774">
        <ele>955.6</ele>
        <time>2009-08-18T08:02:11Z</time>
      </trkpt>
      <trkpt lat="43.0123" lon="-0.14779">
        <ele>955.5</ele>
        <time>2009-08-18T08:02:13Z</time>
      </trkpt>
      <trkpt lat="43.01229" lon="-0.14796">
        <ele>955.8</ele>
        <time>2009-08-18T08:02:21Z</time>
      </trkpt>
      <trkpt lat="43.0123" lon="-0.14808">
        <ele>955.8</ele>
        <time>2009-08-18T08:02:27Z</time>
      </trkpt>
      <trkpt lat="43.01224" lon="-0.14827">
        <ele>957.4</ele>
        <time>2009-08-18T08:02:36Z</time>
      </trkpt>
      <trkpt lat="43.01224" lon="-0.14843">
        <ele>957.3</ele>
        <time>2009-08-18T08:02:44Z</time>
      </trkpt>
      <trkpt lat="43.01223" lon="-0.14859">
        <ele>957.2</ele>
        <time>2009-08-18T08:02:52Z</time>
      </trkpt>
      <trkpt lat="43.0122" lon="-0.14872">
        <ele>957.9</ele>
        <time>2009-08-18T08:03:00Z</time>
      </trkpt>
      <trkpt lat="43.01212" lon="-0.14884">
        <ele>959.5</ele>
        <time>2009-08-18T08:03:08Z</time>
      </trkpt>
      <trkpt lat="43.01211" lon="-0.14885">
        <ele>959.7</ele>
        <time>2009-08-18T08:03:09Z</time>
      </trkpt>
      <trkpt lat="43.01205" lon="-0.14897">
        <ele>961</ele>
        <time>2009-08-18T08:03:17Z</time>
      </trkpt>
      <trkpt lat="43.01199" lon="-0.1491">
        <ele>961.9</ele>
        <time>2009-08-18T08:03:25Z</time>
      </trkpt>
      <trkpt lat="43.01192" lon="-0.14923">
        <ele>962.7</ele>
        <time>2009-08-18T08:03:35Z</time>
      </trkpt>
      <trkpt lat="43.01189" lon="-0.14932">
        <ele>962.4</ele>
        <time>2009-08-18T08:03:40Z</time>
      </trkpt>
      <trkpt lat="43.01179" lon="-0.14946">
        <ele>963.4</ele>
        <time>2009-08-18T08:03:48Z</time>
      </trkpt>
      <trkpt lat="43.01174" lon="-0.14957">
        <ele>963.5</ele>
        <time>2009-08-18T08:03:55Z</time>
      </trkpt>
      <trkpt lat="43.01172" lon="-0.14961">
        <ele>963.6</ele>
        <time>2009-08-18T08:03:58Z</time>
      </trkpt>
      <trkpt lat="43.01163" lon="-0.14976">
        <ele>964.4</ele>
        <time>2009-08-18T08:04:05Z</time>
      </trkpt>
      <trkpt lat="43.01156" lon="-0.14986">
        <ele>964.9</ele>
        <time>2009-08-18T08:04:10Z</time>
      </trkpt>
      <trkpt lat="43.01153" lon="-0.14995">
        <ele>964.7</ele>
        <time>2009-08-18T08:04:14Z</time>
      </trkpt>
      <trkpt lat="43.01144" lon="-0.15009">
        <ele>965.5</ele>
        <time>2009-08-18T08:04:22Z</time>
      </trkpt>
      <trkpt lat="43.01137" lon="-0.15022">
        <ele>965.8</ele>
        <time>2009-08-18T08:04:30Z</time>
      </trkpt>
      <trkpt lat="43.01129" lon="-0.15035">
        <ele>965.9</ele>
        <time>2009-08-18T08:04:36Z</time>
      </trkpt>
      <trkpt lat="43.01121" lon="-0.15051">
        <ele>965.7</ele>
        <time>2009-08-18T08:04:42Z</time>
      </trkpt>
      <trkpt lat="43.0112" lon="-0.15053">
        <ele>965.6</ele>
        <time>2009-08-18T08:04:43Z</time>
      </trkpt>
      <trkpt lat="43.0112" lon="-0.15057">
        <ele>965.2</ele>
        <time>2009-08-18T08:04:45Z</time>
      </trkpt>
      <trkpt lat="43.01115" lon="-0.15062">
        <ele>965.5</ele>
        <time>2009-08-18T08:04:49Z</time>
      </trkpt>
      <trkpt lat="43.01106" lon="-0.15069">
        <ele>966.3</ele>
        <time>2009-08-18T08:04:56Z</time>
      </trkpt>
      <trkpt lat="43.011" lon="-0.15074">
        <ele>966.5</ele>
        <time>2009-08-18T08:05:00Z</time>
      </trkpt>
      <trkpt lat="43.01088" lon="-0.15087">
        <ele>966.8</ele>
        <time>2009-08-18T08:05:07Z</time>
      </trkpt>
      <trkpt lat="43.01086" lon="-0.15093">
        <ele>966.6</ele>
        <time>2009-08-18T08:05:10Z</time>
      </trkpt>
      <trkpt lat="43.01078" lon="-0.15104">
        <ele>967.4</ele>
        <time>2009-08-18T08:05:16Z</time>
      </trkpt>
      <trkpt lat="43.01069" lon="-0.15108">
        <ele>969.4</ele>
        <time>2009-08-18T08:05:26Z</time>
      </trkpt>
      <trkpt lat="43.01064" lon="-0.1511">
        <ele>970.7</ele>
        <time>2009-08-18T08:05:34Z</time>
      </trkpt>
      <trkpt lat="43.01063" lon="-0.15115">
        <ele>970.5</ele>
        <time>2009-08-18T08:05:39Z</time>
      </trkpt>
      <trkpt lat="43.01057" lon="-0.15128">
        <ele>970.4</ele>
        <time>2009-08-18T08:05:48Z</time>
      </trkpt>
      <trkpt lat="43.01052" lon="-0.1514">
        <ele>970.5</ele>
        <time>2009-08-18T08:05:54Z</time>
      </trkpt>
      <trkpt lat="43.01045" lon="-0.15152">
        <ele>971</ele>
        <time>2009-08-18T08:06:00Z</time>
      </trkpt>
      <trkpt lat="43.01039" lon="-0.15159">
        <ele>971.6</ele>
        <time>2009-08-18T08:06:04Z</time>
      </trkpt>
      <trkpt lat="43.0103" lon="-0.15176">
        <ele>972.6</ele>
        <time>2009-08-18T08:06:11Z</time>
      </trkpt>
      <trkpt lat="43.01027" lon="-0.15182">
        <ele>973.1</ele>
        <time>2009-08-18T08:06:13Z</time>
      </trkpt>
      <trkpt lat="43.0102" lon="-0.15196">
        <ele>974</ele>
        <time>2009-08-18T08:06:19Z</time>
      </trkpt>
      <trkpt lat="43.01012" lon="-0.15206">
        <ele>975.2</ele>
        <time>2009-08-18T08:06:24Z</time>
      </trkpt>
      <trkpt lat="43.01006" lon="-0.15221">
        <ele>975.7</ele>
        <time>2009-08-18T08:06:29Z</time>
      </trkpt>
      <trkpt lat="43.01003" lon="-0.15238">
        <ele>975.2</ele>
        <time>2009-08-18T08:06:34Z</time>
      </trkpt>
      <trkpt lat="43.01001" lon="-0.15254">
        <ele>974.7</ele>
        <time>2009-08-18T08:06:39Z</time>
      </trkpt>
      <trkpt lat="43.00997" lon="-0.1527">
        <ele>975</ele>
        <time>2009-08-18T08:06:45Z</time>
      </trkpt>
      <trkpt lat="43.00991" lon="-0.15286">
        <ele>975.5</ele>
        <time>2009-08-18T08:06:50Z</time>
      </trkpt>
      <trkpt lat="43.0099" lon="-0.15301">
        <ele>975.3</ele>
        <time>2009-08-18T08:06:55Z</time>
      </trkpt>
      <trkpt lat="43.00988" lon="-0.15318">
        <ele>975.2</ele>
        <time>2009-08-18T08:07:00Z</time>
      </trkpt>
      <trkpt lat="43.00987" lon="-0.15334">
        <ele>974.9</ele>
        <time>2009-08-18T08:07:05Z</time>
      </trkpt>
      <trkpt lat="43.00987" lon="-0.15352">
        <ele>975.4</ele>
        <time>2009-08-18T08:07:10Z</time>
      </trkpt>
      <trkpt lat="43.00988" lon="-0.15372">
        <ele>975.7</ele>
        <time>2009-08-18T08:07:15Z</time>
      </trkpt>
      <trkpt lat="43.00985" lon="-0.15386">
        <ele>976.7</ele>
        <time>2009-08-18T08:07:20Z</time>
      </trkpt>
      <trkpt lat="43.00986" lon="-0.15404">
        <ele>977.1</ele>
        <time>2009-08-18T08:07:25Z</time>
      </trkpt>
      <trkpt lat="43.00982" lon="-0.15422">
        <ele>978.6</ele>
        <time>2009-08-18T08:07:30Z</time>
      </trkpt>
      <trkpt lat="43.00981" lon="-0.15426">
        <ele>979</ele>
        <time>2009-08-18T08:07:31Z</time>
      </trkpt>
      <trkpt lat="43.00982" lon="-0.15444">
        <ele>979.7</ele>
        <time>2009-08-18T08:07:37Z</time>
      </trkpt>
      <trkpt lat="43.00984" lon="-0.15462">
        <ele>980.2</ele>
        <time>2009-08-18T08:07:43Z</time>
      </trkpt>
      <trkpt lat="43.00986" lon="-0.15476">
        <ele>980.4</ele>
        <time>2009-08-18T08:07:48Z</time>
      </trkpt>
      <trkpt lat="43.00989" lon="-0.15489">
        <ele>980.2</ele>
        <time>2009-08-18T08:07:52Z</time>
      </trkpt>
      <trkpt lat="43.00992" lon="-0.15509">
        <ele>980.7</ele>
        <time>2009-08-18T08:07:58Z</time>
      </trkpt>
      <trkpt lat="43.00993" lon="-0.15525">
        <ele>981.6</ele>
        <time>2009-08-18T08:08:03Z</time>
      </trkpt>
      <trkpt lat="43.00996" lon="-0.15541">
        <ele>981.9</ele>
        <time>2009-08-18T08:08:08Z</time>
      </trkpt>
      <trkpt lat="43.00996" lon="-0.15557">
        <ele>983</ele>
        <time>2009-08-18T08:08:13Z</time>
      </trkpt>
      <trkpt lat="43.00998" lon="-0.15574">
        <ele>983.7</ele>
        <time>2009-08-18T08:08:18Z</time>
      </trkpt>
      <trkpt lat="43.00998" lon="-0.15586">
        <ele>984.6</ele>
        <time>2009-08-18T08:08:22Z</time>
      </trkpt>
      <trkpt lat="43.00999" lon="-0.15609">
        <ele>986.1</ele>
        <time>2009-08-18T08:08:28Z</time>
      </trkpt>
      <trkpt lat="43.00998" lon="-0.15626">
        <ele>987.5</ele>
        <time>2009-08-18T08:08:33Z</time>
      </trkpt>
      <trkpt lat="43.00998" lon="-0.15641">
        <ele>988.5</ele>
        <time>2009-08-18T08:08:38Z</time>
      </trkpt>
      <trkpt lat="43.00999" lon="-0.15656">
        <ele>989.5</ele>
        <time>2009-08-18T08:08:43Z</time>
      </trkpt>
      <trkpt lat="43.01" lon="-0.15671">
        <ele>990.1</ele>
        <time>2009-08-18T08:08:48Z</time>
      </trkpt>
      <trkpt lat="43.01" lon="-0.15686">
        <ele>990.5</ele>
        <time>2009-08-18T08:08:53Z</time>
      </trkpt>
      <trkpt lat="43.01002" lon="-0.15705">
        <ele>990.6</ele>
        <time>2009-08-18T08:08:59Z</time>
      </trkpt>
      <trkpt lat="43.01003" lon="-0.15722">
        <ele>990.6</ele>
        <time>2009-08-18T08:09:04Z</time>
      </trkpt>
      <trkpt lat="43.01006" lon="-0.15736">
        <ele>990.3</ele>
        <time>2009-08-18T08:09:09Z</time>
      </trkpt>
      <trkpt lat="43.01011" lon="-0.15749">
        <ele>989.7</ele>
        <time>2009-08-18T08:09:14Z</time>
      </trkpt>
      <trkpt lat="43.01012" lon="-0.15752">
        <ele>989.4</ele>
        <time>2009-08-18T08:09:15Z</time>
      </trkpt>
      <trkpt lat="43.01014" lon="-0.15771">
        <ele>988.9</ele>
        <time>2009-08-18T08:09:21Z</time>
      </trkpt>
      <trkpt lat="43.01013" lon="-0.15787">
        <ele>988.9</ele>
        <time>2009-08-18T08:09:26Z</time>
      </trkpt>
      <trkpt lat="43.01013" lon="-0.15795">
        <ele>988.7</ele>
        <time>2009-08-18T08:09:31Z</time>
      </trkpt>
      <trkpt lat="43.01011" lon="-0.15794">
        <ele>989.1</ele>
        <time>2009-08-18T08:09:34Z</time>
      </trkpt>
      <trkpt lat="43.01016" lon="-0.15781">
        <ele>988.5</ele>
        <time>2009-08-18T08:09:41Z</time>
      </trkpt>
      <trkpt lat="43.01016" lon="-0.15779">
        <ele>988.5</ele>
        <time>2009-08-18T08:09:42Z</time>
      </trkpt>
      <trkpt lat="43.01012" lon="-0.15776">
        <ele>989.1</ele>
        <time>2009-08-18T08:09:45Z</time>
      </trkpt>
      <trkpt lat="43.01014" lon="-0.15789">
        <ele>988.7</ele>
        <time>2009-08-18T08:09:51Z</time>
      </trkpt>
      <trkpt lat="43.01014" lon="-0.15806">
        <ele>988.5</ele>
        <time>2009-08-18T08:09:58Z</time>
      </trkpt>
      <trkpt lat="43.01014" lon="-0.15811">
        <ele>988.5</ele>
        <time>2009-08-18T08:10:01Z</time>
      </trkpt>
      <trkpt lat="43.01016" lon="-0.15827">
        <ele>988</ele>
        <time>2009-08-18T08:10:08Z</time>
      </trkpt>
      <trkpt lat="43.01018" lon="-0.15841">
        <ele>987.6</ele>
        <time>2009-08-18T08:10:13Z</time>
      </trkpt>
      <trkpt lat="43.01022" lon="-0.15861">
        <ele>987.1</ele>
        <time>2009-08-18T08:10:19Z</time>
      </trkpt>
      <trkpt lat="43.01025" lon="-0.15876">
        <ele>986.8</ele>
        <time>2009-08-18T08:10:24Z</time>
      </trkpt>
      <trkpt lat="43.01027" lon="-0.15893">
        <ele>986.7</ele>
        <time>2009-08-18T08:10:29Z</time>
      </trkpt>
      <trkpt lat="43.01025" lon="-0.15895">
        <ele>986.9</ele>
        <time>2009-08-18T08:10:36Z</time>
      </trkpt>
      <trkpt lat="43.01024" lon="-0.15893">
        <ele>986.9</ele>
        <time>2009-08-18T08:10:37Z</time>
      </trkpt>
      <trkpt lat="43.01024" lon="-0.15889">
        <ele>986.9</ele>
        <time>2009-08-18T08:10:39Z</time>
      </trkpt>
      <trkpt lat="43.01025" lon="-0.159">
        <ele>986.8</ele>
        <time>2009-08-18T08:10:45Z</time>
      </trkpt>
      <trkpt lat="43.01024" lon="-0.1592">
        <ele>986.9</ele>
        <time>2009-08-18T08:10:51Z</time>
      </trkpt>
      <trkpt lat="43.01022" lon="-0.15933">
        <ele>986.9</ele>
        <time>2009-08-18T08:10:56Z</time>
      </trkpt>
      <trkpt lat="43.01021" lon="-0.15936">
        <ele>986.9</ele>
        <time>2009-08-18T08:10:58Z</time>
      </trkpt>
      <trkpt lat="43.01019" lon="-0.15948">
        <ele>986.9</ele>
        <time>2009-08-18T08:11:02Z</time>
      </trkpt>
      <trkpt lat="43.01012" lon="-0.1595">
        <ele>987.5</ele>
        <time>2009-08-18T08:11:08Z</time>
      </trkpt>
      <trkpt lat="43.01005" lon="-0.15941">
        <ele>988.3</ele>
        <time>2009-08-18T08:11:16Z</time>
      </trkpt>
      <trkpt lat="43.01003" lon="-0.15933">
        <ele>988.6</ele>
        <time>2009-08-18T08:11:21Z</time>
      </trkpt>
      <trkpt lat="43.00998" lon="-0.15921">
        <ele>989.1</ele>
        <time>2009-08-18T08:11:29Z</time>
      </trkpt>
      <trkpt lat="43.00994" lon="-0.15911">
        <ele>989.7</ele>
        <time>2009-08-18T08:11:36Z</time>
      </trkpt>
      <trkpt lat="43.00988" lon="-0.15903">
        <ele>990.3</ele>
        <time>2009-08-18T08:11:43Z</time>
      </trkpt>
      <trkpt lat="43.00986" lon="-0.15891">
        <ele>990.8</ele>
        <time>2009-08-18T08:11:51Z</time>
      </trkpt>
      <trkpt lat="43.00981" lon="-0.1588">
        <ele>991.5</ele>
        <time>2009-08-18T08:11:59Z</time>
      </trkpt>
      <trkpt lat="43.00976" lon="-0.1587">
        <ele>992.2</ele>
        <time>2009-08-18T08:12:05Z</time>
      </trkpt>
      <trkpt lat="43.00973" lon="-0.15862">
        <ele>992.7</ele>
        <time>2009-08-18T08:12:11Z</time>
      </trkpt>
      <trkpt lat="43.00968" lon="-0.15851">
        <ele>993.5</ele>
        <time>2009-08-18T08:12:19Z</time>
      </trkpt>
      <trkpt lat="43.00963" lon="-0.15841">
        <ele>994.3</ele>
        <time>2009-08-18T08:12:26Z</time>
      </trkpt>
      <trkpt lat="43.00957" lon="-0.15831">
        <ele>995.3</ele>
        <time>2009-08-18T08:12:33Z</time>
      </trkpt>
      <trkpt lat="43.00952" lon="-0.15818">
        <ele>996.3</ele>
        <time>2009-08-18T08:12:39Z</time>
      </trkpt>
      <trkpt lat="43.00951" lon="-0.15816">
        <ele>996.5</ele>
        <time>2009-08-18T08:12:41Z</time>
      </trkpt>
      <trkpt lat="43.00944" lon="-0.15805">
        <ele>997.8</ele>
        <time>2009-08-18T08:12:48Z</time>
      </trkpt>
      <trkpt lat="43.00941" lon="-0.15794">
        <ele>998.7</ele>
        <time>2009-08-18T08:12:54Z</time>
      </trkpt>
      <trkpt lat="43.00939" lon="-0.15783">
        <ele>999.4</ele>
        <time>2009-08-18T08:13:00Z</time>
      </trkpt>
      <trkpt lat="43.00937" lon="-0.15772">
        <ele>1000.1</ele>
        <time>2009-08-18T08:13:06Z</time>
      </trkpt>
      <trkpt lat="43.00934" lon="-0.1576">
        <ele>1001.1</ele>
        <time>2009-08-18T08:13:13Z</time>
      </trkpt>
      <trkpt lat="43.00933" lon="-0.15758">
        <ele>1001.3</ele>
        <time>2009-08-18T08:13:14Z</time>
      </trkpt>
      <trkpt lat="43.00931" lon="-0.15745">
        <ele>1002</ele>
        <time>2009-08-18T08:13:21Z</time>
      </trkpt>
      <trkpt lat="43.00931" lon="-0.15743">
        <ele>1002.2</ele>
        <time>2009-08-18T08:13:22Z</time>
      </trkpt>
      <trkpt lat="43.00928" lon="-0.1573">
        <ele>1002.9</ele>
        <time>2009-08-18T08:13:29Z</time>
      </trkpt>
      <trkpt lat="43.00923" lon="-0.15719">
        <ele>1004</ele>
        <time>2009-08-18T08:13:35Z</time>
      </trkpt>
      <trkpt lat="43.00918" lon="-0.15708">
        <ele>1005.2</ele>
        <time>2009-08-18T08:13:41Z</time>
      </trkpt>
      <trkpt lat="43.00913" lon="-0.15698">
        <ele>1006.6</ele>
        <time>2009-08-18T08:13:47Z</time>
      </trkpt>
      <trkpt lat="43.00908" lon="-0.1569">
        <ele>1007.9</ele>
        <time>2009-08-18T08:13:53Z</time>
      </trkpt>
      <trkpt lat="43.00902" lon="-0.15679">
        <ele>1009.3</ele>
        <time>2009-08-18T08:13:59Z</time>
      </trkpt>
      <trkpt lat="43.00898" lon="-0.15671">
        <ele>1010.4</ele>
        <time>2009-08-18T08:14:04Z</time>
      </trkpt>
      <trkpt lat="43.00894" lon="-0.15659">
        <ele>1010.9</ele>
        <time>2009-08-18T08:14:11Z</time>
      </trkpt>
      <trkpt lat="43.00893" lon="-0.15655">
        <ele>1011</ele>
        <time>2009-08-18T08:14:13Z</time>
      </trkpt>
      <trkpt lat="43.00888" lon="-0.15646">
        <ele>1011.6</ele>
        <time>2009-08-18T08:14:20Z</time>
      </trkpt>
      <trkpt lat="43.00884" lon="-0.1564">
        <ele>1012.1</ele>
        <time>2009-08-18T08:14:26Z</time>
      </trkpt>
      <trkpt lat="43.00879" lon="-0.15632">
        <ele>1012.8</ele>
        <time>2009-08-18T08:14:31Z</time>
      </trkpt>
      <trkpt lat="43.00871" lon="-0.1562">
        <ele>1013.8</ele>
        <time>2009-08-18T08:14:38Z</time>
      </trkpt>
      <trkpt lat="43.00867" lon="-0.15608">
        <ele>1014.1</ele>
        <time>2009-08-18T08:14:44Z</time>
      </trkpt>
      <trkpt lat="43.00861" lon="-0.15599">
        <ele>1014.9</ele>
        <time>2009-08-18T08:14:50Z</time>
      </trkpt>
      <trkpt lat="43.00857" lon="-0.15589">
        <ele>1015.4</ele>
        <time>2009-08-18T08:14:56Z</time>
      </trkpt>
      <trkpt lat="43.0085" lon="-0.15579">
        <ele>1016.6</ele>
        <time>2009-08-18T08:15:02Z</time>
      </trkpt>
      <trkpt lat="43.00844" lon="-0.1557">
        <ele>1017.6</ele>
        <time>2009-08-18T08:15:08Z</time>
      </trkpt>
      <trkpt lat="43.00839" lon="-0.15562">
        <ele>1018.5</ele>
        <time>2009-08-18T08:15:14Z</time>
      </trkpt>
      <trkpt lat="43.00837" lon="-0.15551">
        <ele>1018.9</ele>
        <time>2009-08-18T08:15:20Z</time>
      </trkpt>
      <trkpt lat="43.0083" lon="-0.15543">
        <ele>1020.3</ele>
        <time>2009-08-18T08:15:26Z</time>
      </trkpt>
      <trkpt lat="43.00821" lon="-0.1554">
        <ele>1022.1</ele>
        <time>2009-08-18T08:15:31Z</time>
      </trkpt>
      <trkpt lat="43.00813" lon="-0.15547">
        <ele>1024</ele>
        <time>2009-08-18T08:15:38Z</time>
      </trkpt>
      <trkpt lat="43.00814" lon="-0.15558">
        <ele>1024</ele>
        <time>2009-08-18T08:15:47Z</time>
      </trkpt>
      <trkpt lat="43.00815" lon="-0.15561">
        <ele>1023.9</ele>
        <time>2009-08-18T08:15:49Z</time>
      </trkpt>
      <trkpt lat="43.00809" lon="-0.15575">
        <ele>1025.4</ele>
        <time>2009-08-18T08:15:57Z</time>
      </trkpt>
      <trkpt lat="43.00804" lon="-0.15587">
        <ele>1026.7</ele>
        <time>2009-08-18T08:16:04Z</time>
      </trkpt>
      <trkpt lat="43.00796" lon="-0.15595">
        <ele>1028.5</ele>
        <time>2009-08-18T08:16:11Z</time>
      </trkpt>
      <trkpt lat="43.00796" lon="-0.15606">
        <ele>1028.6</ele>
        <time>2009-08-18T08:16:19Z</time>
      </trkpt>
      <trkpt lat="43.00794" lon="-0.1561">
        <ele>1028.9</ele>
        <time>2009-08-18T08:16:22Z</time>
      </trkpt>
      <trkpt lat="43.00789" lon="-0.15623">
        <ele>1030.1</ele>
        <time>2009-08-18T08:16:31Z</time>
      </trkpt>
      <trkpt lat="43.00787" lon="-0.15629">
        <ele>1030.5</ele>
        <time>2009-08-18T08:16:35Z</time>
      </trkpt>
      <trkpt lat="43.00782" lon="-0.15637">
        <ele>1031.3</ele>
        <time>2009-08-18T08:16:40Z</time>
      </trkpt>
      <trkpt lat="43.00777" lon="-0.15648">
        <ele>1032.1</ele>
        <time>2009-08-18T08:16:48Z</time>
      </trkpt>
      <trkpt lat="43.00771" lon="-0.15659">
        <ele>1032.9</ele>
        <time>2009-08-18T08:16:55Z</time>
      </trkpt>
      <trkpt lat="43.0077" lon="-0.1566">
        <ele>1033.1</ele>
        <time>2009-08-18T08:16:56Z</time>
      </trkpt>
      <trkpt lat="43.00768" lon="-0.15668">
        <ele>1033.1</ele>
        <time>2009-08-18T08:17:00Z</time>
      </trkpt>
      <trkpt lat="43.00765" lon="-0.15673">
        <ele>1033.5</ele>
        <time>2009-08-18T08:17:03Z</time>
      </trkpt>
      <trkpt lat="43.00757" lon="-0.15684">
        <ele>1034.8</ele>
        <time>2009-08-18T08:17:11Z</time>
      </trkpt>
      <trkpt lat="43.00751" lon="-0.15694">
        <ele>1035.5</ele>
        <time>2009-08-18T08:17:18Z</time>
      </trkpt>
      <trkpt lat="43.00744" lon="-0.15707">
        <ele>1036.8</ele>
        <time>2009-08-18T08:17:26Z</time>
      </trkpt>
      <trkpt lat="43.00737" lon="-0.15717">
        <ele>1037.9</ele>
        <time>2009-08-18T08:17:34Z</time>
      </trkpt>
      <trkpt lat="43.0073" lon="-0.15727">
        <ele>1039</ele>
        <time>2009-08-18T08:17:41Z</time>
      </trkpt>
      <trkpt lat="43.00722" lon="-0.15736">
        <ele>1040.4</ele>
        <time>2009-08-18T08:17:48Z</time>
      </trkpt>
      <trkpt lat="43.0072" lon="-0.15738">
        <ele>1040.7</ele>
        <time>2009-08-18T08:17:50Z</time>
      </trkpt>
      <trkpt lat="43.00711" lon="-0.15748">
        <ele>1042.1</ele>
        <time>2009-08-18T08:17:58Z</time>
      </trkpt>
      <trkpt lat="43.00705" lon="-0.15755">
        <ele>1042.8</ele>
        <time>2009-08-18T08:18:05Z</time>
      </trkpt>
      <trkpt lat="43.00697" lon="-0.15765">
        <ele>1043.6</ele>
        <time>2009-08-18T08:18:12Z</time>
      </trkpt>
      <trkpt lat="43.00691" lon="-0.15774">
        <ele>1044.1</ele>
        <time>2009-08-18T08:18:18Z</time>
      </trkpt>
      <trkpt lat="43.00683" lon="-0.15786">
        <ele>1044.7</ele>
        <time>2009-08-18T08:18:25Z</time>
      </trkpt>
      <trkpt lat="43.00677" lon="-0.15796">
        <ele>1045</ele>
        <time>2009-08-18T08:18:31Z</time>
      </trkpt>
      <trkpt lat="43.0067" lon="-0.15807">
        <ele>1045.4</ele>
        <time>2009-08-18T08:18:37Z</time>
      </trkpt>
      <trkpt lat="43.00664" lon="-0.15819">
        <ele>1045.8</ele>
        <time>2009-08-18T08:18:43Z</time>
      </trkpt>
      <trkpt lat="43.00659" lon="-0.15828">
        <ele>1046.5</ele>
        <time>2009-08-18T08:18:49Z</time>
      </trkpt>
      <trkpt lat="43.00653" lon="-0.15837">
        <ele>1047.4</ele>
        <time>2009-08-18T08:18:55Z</time>
      </trkpt>
      <trkpt lat="43.0065" lon="-0.15838">
        <ele>1048.2</ele>
        <time>2009-08-18T08:18:58Z</time>
      </trkpt>
      <trkpt lat="43.00642" lon="-0.15846">
        <ele>1050</ele>
        <time>2009-08-18T08:19:06Z</time>
      </trkpt>
      <trkpt lat="43.00641" lon="-0.15847">
        <ele>1050.2</ele>
        <time>2009-08-18T08:19:07Z</time>
      </trkpt>
      <trkpt lat="43.00635" lon="-0.15858">
        <ele>1051.3</ele>
        <time>2009-08-18T08:19:14Z</time>
      </trkpt>
      <trkpt lat="43.0063" lon="-0.15868">
        <ele>1052.4</ele>
        <time>2009-08-18T08:19:21Z</time>
      </trkpt>
      <trkpt lat="43.00625" lon="-0.15877">
        <ele>1053.2</ele>
        <time>2009-08-18T08:19:27Z</time>
      </trkpt>
      <trkpt lat="43.00622" lon="-0.15887">
        <ele>1053.7</ele>
        <time>2009-08-18T08:19:33Z</time>
      </trkpt>
      <trkpt lat="43.0062" lon="-0.15898">
        <ele>1053.7</ele>
        <time>2009-08-18T08:19:39Z</time>
      </trkpt>
      <trkpt lat="43.00619" lon="-0.1591">
        <ele>1053.6</ele>
        <time>2009-08-18T08:19:45Z</time>
      </trkpt>
      <trkpt lat="43.00619" lon="-0.15922">
        <ele>1054</ele>
        <time>2009-08-18T08:19:51Z</time>
      </trkpt>
      <trkpt lat="43.00619" lon="-0.15935">
        <ele>1055.4</ele>
        <time>2009-08-18T08:19:57Z</time>
      </trkpt>
      <trkpt lat="43.0062" lon="-0.15947">
        <ele>1056.6</ele>
        <time>2009-08-18T08:20:03Z</time>
      </trkpt>
      <trkpt lat="43.00621" lon="-0.15959">
        <ele>1057.6</ele>
        <time>2009-08-18T08:20:09Z</time>
      </trkpt>
      <trkpt lat="43.00624" lon="-0.1597">
        <ele>1058.4</ele>
        <time>2009-08-18T08:20:15Z</time>
      </trkpt>
      <trkpt lat="43.00627" lon="-0.15981">
        <ele>1058.9</ele>
        <time>2009-08-18T08:20:21Z</time>
      </trkpt>
      <trkpt lat="43.00629" lon="-0.15992">
        <ele>1059.8</ele>
        <time>2009-08-18T08:20:27Z</time>
      </trkpt>
      <trkpt lat="43.0063" lon="-0.16003">
        <ele>1060.7</ele>
        <time>2009-08-18T08:20:33Z</time>
      </trkpt>
      <trkpt lat="43.00632" lon="-0.16014">
        <ele>1061.5</ele>
        <time>2009-08-18T08:20:39Z</time>
      </trkpt>
      <trkpt lat="43.00635" lon="-0.16025">
        <ele>1062.3</ele>
        <time>2009-08-18T08:20:45Z</time>
      </trkpt>
      <trkpt lat="43.00637" lon="-0.16036">
        <ele>1063</ele>
        <time>2009-08-18T08:20:51Z</time>
      </trkpt>
      <trkpt lat="43.00639" lon="-0.16048">
        <ele>1064</ele>
        <time>2009-08-18T08:20:58Z</time>
      </trkpt>
      <trkpt lat="43.0064" lon="-0.1606">
        <ele>1065.1</ele>
        <time>2009-08-18T08:21:04Z</time>
      </trkpt>
      <trkpt lat="43.0064" lon="-0.16073">
        <ele>1066.4</ele>
        <time>2009-08-18T08:21:11Z</time>
      </trkpt>
      <trkpt lat="43.00643" lon="-0.16084">
        <ele>1066.8</ele>
        <time>2009-08-18T08:21:17Z</time>
      </trkpt>
      <trkpt lat="43.00647" lon="-0.16094">
        <ele>1067.1</ele>
        <time>2009-08-18T08:21:23Z</time>
      </trkpt>
      <trkpt lat="43.00649" lon="-0.16106">
        <ele>1067.8</ele>
        <time>2009-08-18T08:21:29Z</time>
      </trkpt>
      <trkpt lat="43.0065" lon="-0.16117">
        <ele>1068.6</ele>
        <time>2009-08-18T08:21:35Z</time>
      </trkpt>
      <trkpt lat="43.00652" lon="-0.1613">
        <ele>1069.7</ele>
        <time>2009-08-18T08:21:42Z</time>
      </trkpt>
      <trkpt lat="43.00654" lon="-0.16142">
        <ele>1070.1</ele>
        <time>2009-08-18T08:21:49Z</time>
      </trkpt>
      <trkpt lat="43.00657" lon="-0.16154">
        <ele>1070.5</ele>
        <time>2009-08-18T08:21:55Z</time>
      </trkpt>
      <trkpt lat="43.0066" lon="-0.16164">
        <ele>1070.2</ele>
        <time>2009-08-18T08:22:01Z</time>
      </trkpt>
      <trkpt lat="43.00664" lon="-0.16175">
        <ele>1070.6</ele>
        <time>2009-08-18T08:22:07Z</time>
      </trkpt>
      <trkpt lat="43.00666" lon="-0.16188">
        <ele>1071.9</ele>
        <time>2009-08-18T08:22:14Z</time>
      </trkpt>
      <trkpt lat="43.00668" lon="-0.16199">
        <ele>1073.2</ele>
        <time>2009-08-18T08:22:20Z</time>
      </trkpt>
      <trkpt lat="43.0067" lon="-0.1621">
        <ele>1074.4</ele>
        <time>2009-08-18T08:22:26Z</time>
      </trkpt>
      <trkpt lat="43.00671" lon="-0.16213">
        <ele>1074.6</ele>
        <time>2009-08-18T08:22:28Z</time>
      </trkpt>
      <trkpt lat="43.00673" lon="-0.16221">
        <ele>1075.3</ele>
        <time>2009-08-18T08:22:32Z</time>
      </trkpt>
      <trkpt lat="43.00673" lon="-0.16224">
        <ele>1075.8</ele>
        <time>2009-08-18T08:22:34Z</time>
      </trkpt>
      <trkpt lat="43.00676" lon="-0.16237">
        <ele>1077.1</ele>
        <time>2009-08-18T08:22:42Z</time>
      </trkpt>
      <trkpt lat="43.00679" lon="-0.16249">
        <ele>1078.4</ele>
        <time>2009-08-18T08:22:49Z</time>
      </trkpt>
      <trkpt lat="43.00679" lon="-0.16255">
        <ele>1078.8</ele>
        <time>2009-08-18T08:22:52Z</time>
      </trkpt>
      <trkpt lat="43.00683" lon="-0.16268">
        <ele>1079</ele>
        <time>2009-08-18T08:22:59Z</time>
      </trkpt>
      <trkpt lat="43.00687" lon="-0.16281">
        <ele>1079.3</ele>
        <time>2009-08-18T08:23:06Z</time>
      </trkpt>
      <trkpt lat="43.00689" lon="-0.16294">
        <ele>1079.9</ele>
        <time>2009-08-18T08:23:13Z</time>
      </trkpt>
      <trkpt lat="43.0069" lon="-0.16305">
        <ele>1080.5</ele>
        <time>2009-08-18T08:23:19Z</time>
      </trkpt>
      <trkpt lat="43.00691" lon="-0.16318">
        <ele>1081.4</ele>
        <time>2009-08-18T08:23:26Z</time>
      </trkpt>
      <trkpt lat="43.00694" lon="-0.16328">
        <ele>1081.5</ele>
        <time>2009-08-18T08:23:32Z</time>
      </trkpt>
      <trkpt lat="43.00691" lon="-0.1634">
        <ele>1082.6</ele>
        <time>2009-08-18T08:23:37Z</time>
      </trkpt>
      <trkpt lat="43.0069" lon="-0.16359">
        <ele>1082.9</ele>
        <time>2009-08-18T08:23:45Z</time>
      </trkpt>
      <trkpt lat="43.00689" lon="-0.16371">
        <ele>1083.1</ele>
        <time>2009-08-18T08:23:52Z</time>
      </trkpt>
      <trkpt lat="43.00689" lon="-0.16386">
        <ele>1082.7</ele>
        <time>2009-08-18T08:23:58Z</time>
      </trkpt>
      <trkpt lat="43.00687" lon="-0.16399">
        <ele>1083.1</ele>
        <time>2009-08-18T08:24:04Z</time>
      </trkpt>
      <trkpt lat="43.00685" lon="-0.16412">
        <ele>1083.7</ele>
        <time>2009-08-18T08:24:10Z</time>
      </trkpt>
      <trkpt lat="43.00681" lon="-0.16423">
        <ele>1084.4</ele>
        <time>2009-08-18T08:24:17Z</time>
      </trkpt>
      <trkpt lat="43.00679" lon="-0.16428">
        <ele>1084.7</ele>
        <time>2009-08-18T08:24:20Z</time>
      </trkpt>
      <trkpt lat="43.0067" lon="-0.16439">
        <ele>1086.8</ele>
        <time>2009-08-18T08:24:28Z</time>
      </trkpt>
      <trkpt lat="43.00662" lon="-0.16448">
        <ele>1089</ele>
        <time>2009-08-18T08:24:35Z</time>
      </trkpt>
      <trkpt lat="43.00656" lon="-0.16456">
        <ele>1091.6</ele>
        <time>2009-08-18T08:24:41Z</time>
      </trkpt>
      <trkpt lat="43.00648" lon="-0.1646">
        <ele>1095</ele>
        <time>2009-08-18T08:24:47Z</time>
      </trkpt>
      <trkpt lat="43.00643" lon="-0.16462">
        <ele>1097</ele>
        <time>2009-08-18T08:24:50Z</time>
      </trkpt>
      <trkpt lat="43.00635" lon="-0.16468">
        <ele>1100.6</ele>
        <time>2009-08-18T08:24:57Z</time>
      </trkpt>
      <trkpt lat="43.0063" lon="-0.16478">
        <ele>1102.4</ele>
        <time>2009-08-18T08:25:04Z</time>
      </trkpt>
      <trkpt lat="43.00633" lon="-0.16491">
        <ele>1100.7</ele>
        <time>2009-08-18T08:25:10Z</time>
      </trkpt>
      <trkpt lat="43.00636" lon="-0.16501">
        <ele>1098.7</ele>
        <time>2009-08-18T08:25:16Z</time>
      </trkpt>
      <trkpt lat="43.00642" lon="-0.16514">
        <ele>1097.2</ele>
        <time>2009-08-18T08:25:22Z</time>
      </trkpt>
      <trkpt lat="43.00643" lon="-0.16516">
        <ele>1097.2</ele>
        <time>2009-08-18T08:25:23Z</time>
      </trkpt>
      <trkpt lat="43.00644" lon="-0.1653">
        <ele>1098.5</ele>
        <time>2009-08-18T08:25:30Z</time>
      </trkpt>
      <trkpt lat="43.00639" lon="-0.16547">
        <ele>1102.4</ele>
        <time>2009-08-18T08:25:37Z</time>
      </trkpt>
      <trkpt lat="43.00639" lon="-0.16561">
        <ele>1104</ele>
        <time>2009-08-18T08:25:44Z</time>
      </trkpt>
      <trkpt lat="43.00642" lon="-0.16574">
        <ele>1104.1</ele>
        <time>2009-08-18T08:25:50Z</time>
      </trkpt>
      <trkpt lat="43.00642" lon="-0.16587">
        <ele>1105.7</ele>
        <time>2009-08-18T08:25:56Z</time>
      </trkpt>
      <trkpt lat="43.00644" lon="-0.166">
        <ele>1107.5</ele>
        <time>2009-08-18T08:26:02Z</time>
      </trkpt>
      <trkpt lat="43.00647" lon="-0.16613">
        <ele>1109.3</ele>
        <time>2009-08-18T08:26:08Z</time>
      </trkpt>
      <trkpt lat="43.00649" lon="-0.16618">
        <ele>1109.3</ele>
        <time>2009-08-18T08:26:11Z</time>
      </trkpt>
      <trkpt lat="43.00653" lon="-0.16624">
        <ele>1109</ele>
        <time>2009-08-18T08:26:14Z</time>
      </trkpt>
      <trkpt lat="43.00657" lon="-0.16637">
        <ele>1109.9</ele>
        <time>2009-08-18T08:26:21Z</time>
      </trkpt>
      <trkpt lat="43.00658" lon="-0.16639">
        <ele>1109.8</ele>
        <time>2009-08-18T08:26:22Z</time>
      </trkpt>
      <trkpt lat="43.00665" lon="-0.16651">
        <ele>1109</ele>
        <time>2009-08-18T08:26:29Z</time>
      </trkpt>
      <trkpt lat="43.00667" lon="-0.16655">
        <ele>1108.4</ele>
        <time>2009-08-18T08:26:31Z</time>
      </trkpt>
      <trkpt lat="43.00679" lon="-0.16667">
        <ele>1105.3</ele>
        <time>2009-08-18T08:26:38Z</time>
      </trkpt>
      <trkpt lat="43.00686" lon="-0.16678">
        <ele>1103.8</ele>
        <time>2009-08-18T08:26:44Z</time>
      </trkpt>
      <trkpt lat="43.00688" lon="-0.16684">
        <ele>1104</ele>
        <time>2009-08-18T08:26:47Z</time>
      </trkpt>
      <trkpt lat="43.00693" lon="-0.16702">
        <ele>1104.2</ele>
        <time>2009-08-18T08:26:54Z</time>
      </trkpt>
      <trkpt lat="43.00697" lon="-0.16715">
        <ele>1104</ele>
        <time>2009-08-18T08:27:00Z</time>
      </trkpt>
      <trkpt lat="43.00698" lon="-0.16732">
        <ele>1106.6</ele>
        <time>2009-08-18T08:27:07Z</time>
      </trkpt>
      <trkpt lat="43.00698" lon="-0.16747">
        <ele>1108.8</ele>
        <time>2009-08-18T08:27:13Z</time>
      </trkpt>
      <trkpt lat="43.00696" lon="-0.16752">
        <ele>1110.3</ele>
        <time>2009-08-18T08:27:15Z</time>
      </trkpt>
      <trkpt lat="43.00692" lon="-0.16767">
        <ele>1112.8</ele>
        <time>2009-08-18T08:27:22Z</time>
      </trkpt>
      <trkpt lat="43.00692" lon="-0.1678">
        <ele>1112.9</ele>
        <time>2009-08-18T08:27:28Z</time>
      </trkpt>
      <trkpt lat="43.00689" lon="-0.16792">
        <ele>1114.4</ele>
        <time>2009-08-18T08:27:34Z</time>
      </trkpt>
      <trkpt lat="43.00684" lon="-0.16803">
        <ele>1117.3</ele>
        <time>2009-08-18T08:27:40Z</time>
      </trkpt>
      <trkpt lat="43.00682" lon="-0.16815">
        <ele>1118.7</ele>
        <time>2009-08-18T08:27:47Z</time>
      </trkpt>
      <trkpt lat="43.0068" lon="-0.16826">
        <ele>1119.8</ele>
        <time>2009-08-18T08:27:54Z</time>
      </trkpt>
      <trkpt lat="43.00678" lon="-0.16839">
        <ele>1119.8</ele>
        <time>2009-08-18T08:28:00Z</time>
      </trkpt>
      <trkpt lat="43.00678" lon="-0.16855">
        <ele>1118.1</ele>
        <time>2009-08-18T08:28:07Z</time>
      </trkpt>
      <trkpt lat="43.00678" lon="-0.16867">
        <ele>1116.6</ele>
        <time>2009-08-18T08:28:13Z</time>
      </trkpt>
      <trkpt lat="43.00676" lon="-0.16879">
        <ele>1115.9</ele>
        <time>2009-08-18T08:28:19Z</time>
      </trkpt>
      <trkpt lat="43.00671" lon="-0.1689">
        <ele>1116.8</ele>
        <time>2009-08-18T08:28:26Z</time>
      </trkpt>
      <trkpt lat="43.00663" lon="-0.16898">
        <ele>1119.5</ele>
        <time>2009-08-18T08:28:32Z</time>
      </trkpt>
      <trkpt lat="43.00654" lon="-0.169">
        <ele>1123.6</ele>
        <time>2009-08-18T08:28:38Z</time>
      </trkpt>
      <trkpt lat="43.00645" lon="-0.16897">
        <ele>1128.2</ele>
        <time>2009-08-18T08:28:44Z</time>
      </trkpt>
      <trkpt lat="43.00638" lon="-0.16897">
        <ele>1131.7</ele>
        <time>2009-08-18T08:28:51Z</time>
      </trkpt>
      <trkpt lat="43.00633" lon="-0.16901">
        <ele>1134</ele>
        <time>2009-08-18T08:28:55Z</time>
      </trkpt>
      <trkpt lat="43.00627" lon="-0.16913">
        <ele>1135.5</ele>
        <time>2009-08-18T08:29:02Z</time>
      </trkpt>
      <trkpt lat="43.00626" lon="-0.16917">
        <ele>1135.4</ele>
        <time>2009-08-18T08:29:04Z</time>
      </trkpt>
      <trkpt lat="43.00622" lon="-0.16932">
        <ele>1136.9</ele>
        <time>2009-08-18T08:29:11Z</time>
      </trkpt>
      <trkpt lat="43.00621" lon="-0.16936">
        <ele>1137.7</ele>
        <time>2009-08-18T08:29:13Z</time>
      </trkpt>
      <trkpt lat="43.00621" lon="-0.16951">
        <ele>1137.3</ele>
        <time>2009-08-18T08:29:20Z</time>
      </trkpt>
      <trkpt lat="43.0062" lon="-0.16961">
        <ele>1137.5</ele>
        <time>2009-08-18T08:29:25Z</time>
      </trkpt>
      <trkpt lat="43.00616" lon="-0.16974">
        <ele>1139.1</ele>
        <time>2009-08-18T08:29:32Z</time>
      </trkpt>
      <trkpt lat="43.00614" lon="-0.16985">
        <ele>1140</ele>
        <time>2009-08-18T08:29:38Z</time>
      </trkpt>
      <trkpt lat="43.00611" lon="-0.16992">
        <ele>1141.4</ele>
        <time>2009-08-18T08:29:42Z</time>
      </trkpt>
      <trkpt lat="43.00608" lon="-0.17005">
        <ele>1142.6</ele>
        <time>2009-08-18T08:29:49Z</time>
      </trkpt>
      <trkpt lat="43.00604" lon="-0.17017">
        <ele>1144.3</ele>
        <time>2009-08-18T08:29:56Z</time>
      </trkpt>
      <trkpt lat="43.00602" lon="-0.17028">
        <ele>1145</ele>
        <time>2009-08-18T08:30:02Z</time>
      </trkpt>
      <trkpt lat="43.00603" lon="-0.17041">
        <ele>1143.6</ele>
        <time>2009-08-18T08:30:08Z</time>
      </trkpt>
      <trkpt lat="43.00602" lon="-0.17053">
        <ele>1143.5</ele>
        <time>2009-08-18T08:30:14Z</time>
      </trkpt>
      <trkpt lat="43.00601" lon="-0.17064">
        <ele>1143.4</ele>
        <time>2009-08-18T08:30:20Z</time>
      </trkpt>
      <trkpt lat="43.00599" lon="-0.17076">
        <ele>1143.3</ele>
        <time>2009-08-18T08:30:26Z</time>
      </trkpt>
      <trkpt lat="43.00599" lon="-0.17089">
        <ele>1143.4</ele>
        <time>2009-08-18T08:30:32Z</time>
      </trkpt>
      <trkpt lat="43.00597" lon="-0.17101">
        <ele>1144.9</ele>
        <time>2009-08-18T08:30:38Z</time>
      </trkpt>
      <trkpt lat="43.00596" lon="-0.17113">
        <ele>1146.1</ele>
        <time>2009-08-18T08:30:44Z</time>
      </trkpt>
      <trkpt lat="43.00592" lon="-0.17125">
        <ele>1148.7</ele>
        <time>2009-08-18T08:30:50Z</time>
      </trkpt>
      <trkpt lat="43.00589" lon="-0.17136">
        <ele>1150.6</ele>
        <time>2009-08-18T08:30:56Z</time>
      </trkpt>
      <trkpt lat="43.00588" lon="-0.17145">
        <ele>1151.8</ele>
        <time>2009-08-18T08:31:01Z</time>
      </trkpt>
      <trkpt lat="43.0059" lon="-0.1716">
        <ele>1151.8</ele>
        <time>2009-08-18T08:31:08Z</time>
      </trkpt>
      <trkpt lat="43.00592" lon="-0.17172">
        <ele>1152.4</ele>
        <time>2009-08-18T08:31:14Z</time>
      </trkpt>
      <trkpt lat="43.00588" lon="-0.17183">
        <ele>1156</ele>
        <time>2009-08-18T08:31:21Z</time>
      </trkpt>
      <trkpt lat="43.00591" lon="-0.17193">
        <ele>1156.6</ele>
        <time>2009-08-18T08:31:28Z</time>
      </trkpt>
      <trkpt lat="43.0059" lon="-0.17203">
        <ele>1158.3</ele>
        <time>2009-08-18T08:31:34Z</time>
      </trkpt>
      <trkpt lat="43.00589" lon="-0.17212">
        <ele>1160.8</ele>
        <time>2009-08-18T08:31:40Z</time>
      </trkpt>
      <trkpt lat="43.00587" lon="-0.17214">
        <ele>1161.8</ele>
        <time>2009-08-18T08:31:42Z</time>
      </trkpt>
      <trkpt lat="43.00583" lon="-0.17212">
        <ele>1163.3</ele>
        <time>2009-08-18T08:31:48Z</time>
      </trkpt>
      <trkpt lat="43.00582" lon="-0.17211">
        <ele>1163.7</ele>
        <time>2009-08-18T08:31:50Z</time>
      </trkpt>
      <trkpt lat="43.00579" lon="-0.17205">
        <ele>1164.9</ele>
        <time>2009-08-18T08:31:55Z</time>
      </trkpt>
      <trkpt lat="43.00578" lon="-0.17188">
        <ele>1162.6</ele>
        <time>2009-08-18T08:32:02Z</time>
      </trkpt>
      <trkpt lat="43.00575" lon="-0.17176">
        <ele>1162.9</ele>
        <time>2009-08-18T08:32:08Z</time>
      </trkpt>
      <trkpt lat="43.00569" lon="-0.17169">
        <ele>1166.4</ele>
        <time>2009-08-18T08:32:14Z</time>
      </trkpt>
      <trkpt lat="43.00568" lon="-0.17159">
        <ele>1166.4</ele>
        <time>2009-08-18T08:32:20Z</time>
      </trkpt>
      <trkpt lat="43.00562" lon="-0.17147">
        <ele>1170.2</ele>
        <time>2009-08-18T08:32:26Z</time>
      </trkpt>
      <trkpt lat="43.00563" lon="-0.17136">
        <ele>1168.6</ele>
        <time>2009-08-18T08:32:32Z</time>
      </trkpt>
      <trkpt lat="43.00562" lon="-0.17126">
        <ele>1169.3</ele>
        <time>2009-08-18T08:32:38Z</time>
      </trkpt>
      <trkpt lat="43.00565" lon="-0.17115">
        <ele>1166.5</ele>
        <time>2009-08-18T08:32:44Z</time>
      </trkpt>
      <trkpt lat="43.00567" lon="-0.17102">
        <ele>1164.3</ele>
        <time>2009-08-18T08:32:51Z</time>
      </trkpt>
      <trkpt lat="43.00565" lon="-0.17088">
        <ele>1165.1</ele>
        <time>2009-08-18T08:32:58Z</time>
      </trkpt>
      <trkpt lat="43.00563" lon="-0.17075">
        <ele>1166.5</ele>
        <time>2009-08-18T08:33:04Z</time>
      </trkpt>
      <trkpt lat="43.0056" lon="-0.17062">
        <ele>1169.6</ele>
        <time>2009-08-18T08:33:10Z</time>
      </trkpt>
      <trkpt lat="43.00562" lon="-0.17048">
        <ele>1169.2</ele>
        <time>2009-08-18T08:33:16Z</time>
      </trkpt>
      <trkpt lat="43.00558" lon="-0.17035">
        <ele>1172.3</ele>
        <time>2009-08-18T08:33:22Z</time>
      </trkpt>
      <trkpt lat="43.00556" lon="-0.17022">
        <ele>1174.1</ele>
        <time>2009-08-18T08:33:28Z</time>
      </trkpt>
      <trkpt lat="43.00554" lon="-0.1701">
        <ele>1175.8</ele>
        <time>2009-08-18T08:33:34Z</time>
      </trkpt>
      <trkpt lat="43.00556" lon="-0.16995">
        <ele>1174.8</ele>
        <time>2009-08-18T08:33:41Z</time>
      </trkpt>
      <trkpt lat="43.00554" lon="-0.16982">
        <ele>1176</ele>
        <time>2009-08-18T08:33:47Z</time>
      </trkpt>
      <trkpt lat="43.00551" lon="-0.16972">
        <ele>1178.1</ele>
        <time>2009-08-18T08:33:53Z</time>
      </trkpt>
      <trkpt lat="43.00549" lon="-0.1696">
        <ele>1179</ele>
        <time>2009-08-18T08:33:59Z</time>
      </trkpt>
      <trkpt lat="43.00547" lon="-0.16948">
        <ele>1179.9</ele>
        <time>2009-08-18T08:34:05Z</time>
      </trkpt>
      <trkpt lat="43.00547" lon="-0.16934">
        <ele>1179.7</ele>
        <time>2009-08-18T08:34:11Z</time>
      </trkpt>
      <trkpt lat="43.00542" lon="-0.16921">
        <ele>1182.1</ele>
        <time>2009-08-18T08:34:17Z</time>
      </trkpt>
      <trkpt lat="43.00541" lon="-0.16912">
        <ele>1183.2</ele>
        <time>2009-08-18T08:34:21Z</time>
      </trkpt>
      <trkpt lat="43.00538" lon="-0.169">
        <ele>1185.4</ele>
        <time>2009-08-18T08:34:27Z</time>
      </trkpt>
      <trkpt lat="43.00536" lon="-0.16889">
        <ele>1186.5</ele>
        <time>2009-08-18T08:34:32Z</time>
      </trkpt>
      <trkpt lat="43.00533" lon="-0.16876">
        <ele>1188.6</ele>
        <time>2009-08-18T08:34:37Z</time>
      </trkpt>
      <trkpt lat="43.00531" lon="-0.16865">
        <ele>1190.1</ele>
        <time>2009-08-18T08:34:42Z</time>
      </trkpt>
      <trkpt lat="43.00529" lon="-0.16852">
        <ele>1191.4</ele>
        <time>2009-08-18T08:34:48Z</time>
      </trkpt>
      <trkpt lat="43.0053" lon="-0.16837">
        <ele>1191.5</ele>
        <time>2009-08-18T08:34:54Z</time>
      </trkpt>
      <trkpt lat="43.00531" lon="-0.16823">
        <ele>1190.6</ele>
        <time>2009-08-18T08:35:00Z</time>
      </trkpt>
      <trkpt lat="43.00529" lon="-0.16809">
        <ele>1190.7</ele>
        <time>2009-08-18T08:35:06Z</time>
      </trkpt>
      <trkpt lat="43.0053" lon="-0.16796">
        <ele>1189.4</ele>
        <time>2009-08-18T08:35:12Z</time>
      </trkpt>
      <trkpt lat="43.00531" lon="-0.16784">
        <ele>1188.6</ele>
        <time>2009-08-18T08:35:18Z</time>
      </trkpt>
      <trkpt lat="43.00532" lon="-0.16773">
        <ele>1187.5</ele>
        <time>2009-08-18T08:35:24Z</time>
      </trkpt>
      <trkpt lat="43.00535" lon="-0.1676">
        <ele>1185.7</ele>
        <time>2009-08-18T08:35:31Z</time>
      </trkpt>
      <trkpt lat="43.00539" lon="-0.16749">
        <ele>1183.3</ele>
        <time>2009-08-18T08:35:37Z</time>
      </trkpt>
      <trkpt lat="43.0054" lon="-0.16737">
        <ele>1180.8</ele>
        <time>2009-08-18T08:35:43Z</time>
      </trkpt>
      <trkpt lat="43.00538" lon="-0.16724">
        <ele>1179.3</ele>
        <time>2009-08-18T08:35:49Z</time>
      </trkpt>
      <trkpt lat="43.00535" lon="-0.16714">
        <ele>1178.5</ele>
        <time>2009-08-18T08:35:55Z</time>
      </trkpt>
      <trkpt lat="43.00527" lon="-0.16707">
        <ele>1179.7</ele>
        <time>2009-08-18T08:36:01Z</time>
      </trkpt>
      <trkpt lat="43.00517" lon="-0.16702">
        <ele>1182.4</ele>
        <time>2009-08-18T08:36:07Z</time>
      </trkpt>
      <trkpt lat="43.00509" lon="-0.16694">
        <ele>1183.4</ele>
        <time>2009-08-18T08:36:14Z</time>
      </trkpt>
      <trkpt lat="43.00501" lon="-0.1669">
        <ele>1185.1</ele>
        <time>2009-08-18T08:36:20Z</time>
      </trkpt>
      <trkpt lat="43.0049" lon="-0.16685">
        <ele>1188.5</ele>
        <time>2009-08-18T08:36:26Z</time>
      </trkpt>
      <trkpt lat="43.00483" lon="-0.1668">
        <ele>1190.3</ele>
        <time>2009-08-18T08:36:32Z</time>
      </trkpt>
      <trkpt lat="43.00473" lon="-0.16673">
        <ele>1192.5</ele>
        <time>2009-08-18T08:36:39Z</time>
      </trkpt>
      <trkpt lat="43.00465" lon="-0.16668">
        <ele>1194.6</ele>
        <time>2009-08-18T08:36:45Z</time>
      </trkpt>
      <trkpt lat="43.00454" lon="-0.16662">
        <ele>1197.4</ele>
        <time>2009-08-18T08:36:51Z</time>
      </trkpt>
      <trkpt lat="43.00447" lon="-0.16655">
        <ele>1198.5</ele>
        <time>2009-08-18T08:36:59Z</time>
      </trkpt>
      <trkpt lat="43.00436" lon="-0.1665">
        <ele>1201.6</ele>
        <time>2009-08-18T08:37:06Z</time>
      </trkpt>
      <trkpt lat="43.00429" lon="-0.16645">
        <ele>1203</ele>
        <time>2009-08-18T08:37:12Z</time>
      </trkpt>
      <trkpt lat="43.00424" lon="-0.16639">
        <ele>1203.3</ele>
        <time>2009-08-18T08:37:16Z</time>
      </trkpt>
      <trkpt lat="43.00416" lon="-0.16629">
        <ele>1203.3</ele>
        <time>2009-08-18T08:37:23Z</time>
      </trkpt>
      <trkpt lat="43.00407" lon="-0.16621">
        <ele>1203.7</ele>
        <time>2009-08-18T08:37:29Z</time>
      </trkpt>
      <trkpt lat="43.00405" lon="-0.1662">
        <ele>1203.9</ele>
        <time>2009-08-18T08:37:30Z</time>
      </trkpt>
      <trkpt lat="43.00392" lon="-0.16613">
        <ele>1205.8</ele>
        <time>2009-08-18T08:37:37Z</time>
      </trkpt>
      <trkpt lat="43.0038" lon="-0.16608">
        <ele>1208.2</ele>
        <time>2009-08-18T08:37:43Z</time>
      </trkpt>
      <trkpt lat="43.00372" lon="-0.16603">
        <ele>1209.4</ele>
        <time>2009-08-18T08:37:49Z</time>
      </trkpt>
      <trkpt lat="43.00367" lon="-0.16597">
        <ele>1209.7</ele>
        <time>2009-08-18T08:37:56Z</time>
      </trkpt>
      <trkpt lat="43.00355" lon="-0.16593">
        <ele>1212.7</ele>
        <time>2009-08-18T08:38:02Z</time>
      </trkpt>
      <trkpt lat="43.00344" lon="-0.16589">
        <ele>1215.3</ele>
        <time>2009-08-18T08:38:08Z</time>
      </trkpt>
      <trkpt lat="43.00337" lon="-0.1658">
        <ele>1216.5</ele>
        <time>2009-08-18T08:38:14Z</time>
      </trkpt>
      <trkpt lat="43.00335" lon="-0.16569">
        <ele>1216.3</ele>
        <time>2009-08-18T08:38:19Z</time>
      </trkpt>
      <trkpt lat="43.00332" lon="-0.16557">
        <ele>1216.2</ele>
        <time>2009-08-18T08:38:24Z</time>
      </trkpt>
      <trkpt lat="43.00325" lon="-0.16542">
        <ele>1217.7</ele>
        <time>2009-08-18T08:38:31Z</time>
      </trkpt>
      <trkpt lat="43.00326" lon="-0.16529">
        <ele>1216.6</ele>
        <time>2009-08-18T08:38:37Z</time>
      </trkpt>
      <trkpt lat="43.0032" lon="-0.16516">
        <ele>1217.9</ele>
        <time>2009-08-18T08:38:43Z</time>
      </trkpt>
      <trkpt lat="43.00321" lon="-0.16503">
        <ele>1216.5</ele>
        <time>2009-08-18T08:38:49Z</time>
      </trkpt>
      <trkpt lat="43.00325" lon="-0.16492">
        <ele>1213.8</ele>
        <time>2009-08-18T08:38:55Z</time>
      </trkpt>
      <trkpt lat="43.00327" lon="-0.1648">
        <ele>1212</ele>
        <time>2009-08-18T08:39:01Z</time>
      </trkpt>
      <trkpt lat="43.00327" lon="-0.16478">
        <ele>1212</ele>
        <time>2009-08-18T08:39:02Z</time>
      </trkpt>
      <trkpt lat="43.00332" lon="-0.16463">
        <ele>1208.8</ele>
        <time>2009-08-18T08:39:09Z</time>
      </trkpt>
      <trkpt lat="43.00332" lon="-0.16461">
        <ele>1208.6</ele>
        <time>2009-08-18T08:39:10Z</time>
      </trkpt>
      <trkpt lat="43.00331" lon="-0.16453">
        <ele>1208.5</ele>
        <time>2009-08-18T08:39:14Z</time>
      </trkpt>
      <trkpt lat="43.00326" lon="-0.1644">
        <ele>1209.1</ele>
        <time>2009-08-18T08:39:21Z</time>
      </trkpt>
      <trkpt lat="43.00324" lon="-0.16439">
        <ele>1209.5</ele>
        <time>2009-08-18T08:39:22Z</time>
      </trkpt>
      <trkpt lat="43.00312" lon="-0.16434">
        <ele>1212.9</ele>
        <time>2009-08-18T08:39:29Z</time>
      </trkpt>
      <trkpt lat="43.00302" lon="-0.16433">
        <ele>1215.9</ele>
        <time>2009-08-18T08:39:35Z</time>
      </trkpt>
      <trkpt lat="43.00292" lon="-0.16433">
        <ele>1218.8</ele>
        <time>2009-08-18T08:39:41Z</time>
      </trkpt>
      <trkpt lat="43.00282" lon="-0.16434">
        <ele>1222</ele>
        <time>2009-08-18T08:39:47Z</time>
      </trkpt>
      <trkpt lat="43.00272" lon="-0.16434">
        <ele>1224.9</ele>
        <time>2009-08-18T08:39:53Z</time>
      </trkpt>
      <trkpt lat="43.00261" lon="-0.16432">
        <ele>1227.9</ele>
        <time>2009-08-18T08:39:59Z</time>
      </trkpt>
      <trkpt lat="43.00252" lon="-0.16431">
        <ele>1230.4</ele>
        <time>2009-08-18T08:40:05Z</time>
      </trkpt>
      <trkpt lat="43.00244" lon="-0.16427">
        <ele>1233.1</ele>
        <time>2009-08-18T08:40:11Z</time>
      </trkpt>
      <trkpt lat="43.00236" lon="-0.16422">
        <ele>1235.4</ele>
        <time>2009-08-18T08:40:17Z</time>
      </trkpt>
      <trkpt lat="43.00229" lon="-0.16416">
        <ele>1237.3</ele>
        <time>2009-08-18T08:40:23Z</time>
      </trkpt>
      <trkpt lat="43.00225" lon="-0.16403">
        <ele>1238.8</ele>
        <time>2009-08-18T08:40:30Z</time>
      </trkpt>
      <trkpt lat="43.00222" lon="-0.16391">
        <ele>1240.2</ele>
        <time>2009-08-18T08:40:36Z</time>
      </trkpt>
      <trkpt lat="43.00225" lon="-0.16378">
        <ele>1238.8</ele>
        <time>2009-08-18T08:40:42Z</time>
      </trkpt>
      <trkpt lat="43.00226" lon="-0.16373">
        <ele>1238.4</ele>
        <time>2009-08-18T08:40:45Z</time>
      </trkpt>
      <trkpt lat="43.0023" lon="-0.16366">
        <ele>1236.8</ele>
        <time>2009-08-18T08:40:49Z</time>
      </trkpt>
      <trkpt lat="43.00229" lon="-0.16359">
        <ele>1237</ele>
        <time>2009-08-18T08:40:53Z</time>
      </trkpt>
      <trkpt lat="43.00228" lon="-0.16347">
        <ele>1237.5</ele>
        <time>2009-08-18T08:40:59Z</time>
      </trkpt>
      <trkpt lat="43.00227" lon="-0.16339">
        <ele>1237.9</ele>
        <time>2009-08-18T08:41:03Z</time>
      </trkpt>
      <trkpt lat="43.00228" lon="-0.16324">
        <ele>1238.5</ele>
        <time>2009-08-18T08:41:10Z</time>
      </trkpt>
      <trkpt lat="43.00227" lon="-0.16314">
        <ele>1239.8</ele>
        <time>2009-08-18T08:41:15Z</time>
      </trkpt>
      <trkpt lat="43.00227" lon="-0.163">
        <ele>1240.9</ele>
        <time>2009-08-18T08:41:22Z</time>
      </trkpt>
      <trkpt lat="43.00231" lon="-0.16288">
        <ele>1240.5</ele>
        <time>2009-08-18T08:41:28Z</time>
      </trkpt>
      <trkpt lat="43.00232" lon="-0.16277">
        <ele>1241.1</ele>
        <time>2009-08-18T08:41:34Z</time>
      </trkpt>
      <trkpt lat="43.00234" lon="-0.16265">
        <ele>1241.3</ele>
        <time>2009-08-18T08:41:40Z</time>
      </trkpt>
      <trkpt lat="43.00233" lon="-0.16252">
        <ele>1242.9</ele>
        <time>2009-08-18T08:41:46Z</time>
      </trkpt>
      <trkpt lat="43.00233" lon="-0.16239">
        <ele>1242.9</ele>
        <time>2009-08-18T08:41:52Z</time>
      </trkpt>
      <trkpt lat="43.00232" lon="-0.16226">
        <ele>1242.8</ele>
        <time>2009-08-18T08:41:58Z</time>
      </trkpt>
      <trkpt lat="43.00232" lon="-0.16224">
        <ele>1242.7</ele>
        <time>2009-08-18T08:41:59Z</time>
      </trkpt>
      <trkpt lat="43.00234" lon="-0.16215">
        <ele>1242</ele>
        <time>2009-08-18T08:42:03Z</time>
      </trkpt>
      <trkpt lat="43.00237" lon="-0.162">
        <ele>1240.5</ele>
        <time>2009-08-18T08:42:10Z</time>
      </trkpt>
      <trkpt lat="43.00241" lon="-0.16187">
        <ele>1238.9</ele>
        <time>2009-08-18T08:42:16Z</time>
      </trkpt>
      <trkpt lat="43.00243" lon="-0.16174">
        <ele>1238.1</ele>
        <time>2009-08-18T08:42:22Z</time>
      </trkpt>
      <trkpt lat="43.00244" lon="-0.16162">
        <ele>1237</ele>
        <time>2009-08-18T08:42:28Z</time>
      </trkpt>
      <trkpt lat="43.00241" lon="-0.1615">
        <ele>1235.7</ele>
        <time>2009-08-18T08:42:34Z</time>
      </trkpt>
      <trkpt lat="43.00235" lon="-0.16139">
        <ele>1235.3</ele>
        <time>2009-08-18T08:42:40Z</time>
      </trkpt>
      <trkpt lat="43.00227" lon="-0.16129">
        <ele>1235.7</ele>
        <time>2009-08-18T08:42:46Z</time>
      </trkpt>
      <trkpt lat="43.00216" lon="-0.16123">
        <ele>1237.7</ele>
        <time>2009-08-18T08:42:52Z</time>
      </trkpt>
      <trkpt lat="43.00205" lon="-0.16122">
        <ele>1240.7</ele>
        <time>2009-08-18T08:42:58Z</time>
      </trkpt>
      <trkpt lat="43.00194" lon="-0.16119">
        <ele>1243</ele>
        <time>2009-08-18T08:43:04Z</time>
      </trkpt>
      <trkpt lat="43.00184" lon="-0.16118">
        <ele>1245.3</ele>
        <time>2009-08-18T08:43:10Z</time>
      </trkpt>
      <trkpt lat="43.00174" lon="-0.16117">
        <ele>1248.1</ele>
        <time>2009-08-18T08:43:16Z</time>
      </trkpt>
      <trkpt lat="43.00163" lon="-0.16117">
        <ele>1251.4</ele>
        <time>2009-08-18T08:43:22Z</time>
      </trkpt>
      <trkpt lat="43.00152" lon="-0.16115">
        <ele>1255.1</ele>
        <time>2009-08-18T08:43:28Z</time>
      </trkpt>
      <trkpt lat="43.00143" lon="-0.16113">
        <ele>1258.2</ele>
        <time>2009-08-18T08:43:34Z</time>
      </trkpt>
      <trkpt lat="43.00133" lon="-0.16107">
        <ele>1260.8</ele>
        <time>2009-08-18T08:43:40Z</time>
      </trkpt>
      <trkpt lat="43.0013" lon="-0.16099">
        <ele>1260.3</ele>
        <time>2009-08-18T08:43:47Z</time>
      </trkpt>
      <trkpt lat="43.00122" lon="-0.16092">
        <ele>1262</ele>
        <time>2009-08-18T08:43:52Z</time>
      </trkpt>
      <trkpt lat="43.00112" lon="-0.16082">
        <ele>1264.3</ele>
        <time>2009-08-18T08:43:58Z</time>
      </trkpt>
      <trkpt lat="43.00105" lon="-0.16075">
        <ele>1265.6</ele>
        <time>2009-08-18T08:44:04Z</time>
      </trkpt>
      <trkpt lat="43.00098" lon="-0.16066">
        <ele>1267.1</ele>
        <time>2009-08-18T08:44:09Z</time>
      </trkpt>
      <trkpt lat="43.00099" lon="-0.16061">
        <ele>1265.8</ele>
        <time>2009-08-18T08:44:12Z</time>
      </trkpt>
      <trkpt lat="43.00092" lon="-0.16049">
        <ele>1266.6</ele>
        <time>2009-08-18T08:44:18Z</time>
      </trkpt>
      <trkpt lat="43.0009" lon="-0.16038">
        <ele>1265.9</ele>
        <time>2009-08-18T08:44:23Z</time>
      </trkpt>
      <trkpt lat="43.0009" lon="-0.16034">
        <ele>1265.1</ele>
        <time>2009-08-18T08:44:25Z</time>
      </trkpt>
      <trkpt lat="43.00091" lon="-0.16026">
        <ele>1263.3</ele>
        <time>2009-08-18T08:44:29Z</time>
      </trkpt>
      <trkpt lat="43.00084" lon="-0.16013">
        <ele>1264.8</ele>
        <time>2009-08-18T08:44:35Z</time>
      </trkpt>
      <trkpt lat="43.00079" lon="-0.16">
        <ele>1265.6</ele>
        <time>2009-08-18T08:44:40Z</time>
      </trkpt>
      <trkpt lat="43.00075" lon="-0.15988">
        <ele>1267.1</ele>
        <time>2009-08-18T08:44:45Z</time>
      </trkpt>
      <trkpt lat="43.00072" lon="-0.15976">
        <ele>1267.9</ele>
        <time>2009-08-18T08:44:50Z</time>
      </trkpt>
      <trkpt lat="43.00073" lon="-0.15964">
        <ele>1266.5</ele>
        <time>2009-08-18T08:44:55Z</time>
      </trkpt>
      <trkpt lat="43.00071" lon="-0.15951">
        <ele>1267.2</ele>
        <time>2009-08-18T08:45:00Z</time>
      </trkpt>
      <trkpt lat="43.00062" lon="-0.15938">
        <ele>1270.9</ele>
        <time>2009-08-18T08:45:05Z</time>
      </trkpt>
      <trkpt lat="43.00061" lon="-0.15935">
        <ele>1271.7</ele>
        <time>2009-08-18T08:45:06Z</time>
      </trkpt>
      <trkpt lat="43.00058" lon="-0.15921">
        <ele>1272.4</ele>
        <time>2009-08-18T08:45:12Z</time>
      </trkpt>
      <trkpt lat="43.00056" lon="-0.1591">
        <ele>1272.4</ele>
        <time>2009-08-18T08:45:17Z</time>
      </trkpt>
      <trkpt lat="43.00057" lon="-0.15896">
        <ele>1271.3</ele>
        <time>2009-08-18T08:45:23Z</time>
      </trkpt>
      <trkpt lat="43.00056" lon="-0.15885">
        <ele>1270.9</ele>
        <time>2009-08-18T08:45:28Z</time>
      </trkpt>
      <trkpt lat="43.00055" lon="-0.15874">
        <ele>1270.5</ele>
        <time>2009-08-18T08:45:33Z</time>
      </trkpt>
      <trkpt lat="43.00054" lon="-0.15863">
        <ele>1270.6</ele>
        <time>2009-08-18T08:45:38Z</time>
      </trkpt>
      <trkpt lat="43.00048" lon="-0.15851">
        <ele>1272.6</ele>
        <time>2009-08-18T08:45:43Z</time>
      </trkpt>
      <trkpt lat="43.00049" lon="-0.15841">
        <ele>1271.5</ele>
        <time>2009-08-18T08:45:48Z</time>
      </trkpt>
      <trkpt lat="43.00046" lon="-0.15828">
        <ele>1271.8</ele>
        <time>2009-08-18T08:45:54Z</time>
      </trkpt>
      <trkpt lat="43.00041" lon="-0.15817">
        <ele>1273.5</ele>
        <time>2009-08-18T08:45:59Z</time>
      </trkpt>
      <trkpt lat="43.00038" lon="-0.15806">
        <ele>1273.8</ele>
        <time>2009-08-18T08:46:04Z</time>
      </trkpt>
      <trkpt lat="43.0003" lon="-0.15792">
        <ele>1276.2</ele>
        <time>2009-08-18T08:46:10Z</time>
      </trkpt>
      <trkpt lat="43.00019" lon="-0.15779">
        <ele>1279.9</ele>
        <time>2009-08-18T08:46:15Z</time>
      </trkpt>
      <trkpt lat="43.00011" lon="-0.15766">
        <ele>1282.4</ele>
        <time>2009-08-18T08:46:20Z</time>
      </trkpt>
      <trkpt lat="43.00008" lon="-0.15754">
        <ele>1282.8</ele>
        <time>2009-08-18T08:46:25Z</time>
      </trkpt>
      <trkpt lat="43.00003" lon="-0.15739">
        <ele>1284.5</ele>
        <time>2009-08-18T08:46:30Z</time>
      </trkpt>
      <trkpt lat="42.99999" lon="-0.15725">
        <ele>1286.3</ele>
        <time>2009-08-18T08:46:35Z</time>
      </trkpt>
      <trkpt lat="42.99997" lon="-0.15714">
        <ele>1286.9</ele>
        <time>2009-08-18T08:46:40Z</time>
      </trkpt>
      <trkpt lat="42.99995" lon="-0.15701">
        <ele>1288.2</ele>
        <time>2009-08-18T08:46:45Z</time>
      </trkpt>
      <trkpt lat="42.99991" lon="-0.15689">
        <ele>1290.1</ele>
        <time>2009-08-18T08:46:50Z</time>
      </trkpt>
      <trkpt lat="42.9999" lon="-0.15679">
        <ele>1290.6</ele>
        <time>2009-08-18T08:46:55Z</time>
      </trkpt>
      <trkpt lat="42.99989" lon="-0.15668">
        <ele>1291</ele>
        <time>2009-08-18T08:47:00Z</time>
      </trkpt>
      <trkpt lat="42.9999" lon="-0.15654">
        <ele>1291.8</ele>
        <time>2009-08-18T08:47:06Z</time>
      </trkpt>
      <trkpt lat="42.99988" lon="-0.15642">
        <ele>1294.2</ele>
        <time>2009-08-18T08:47:11Z</time>
      </trkpt>
      <trkpt lat="42.99987" lon="-0.15628">
        <ele>1295.8</ele>
        <time>2009-08-18T08:47:17Z</time>
      </trkpt>
      <trkpt lat="42.99988" lon="-0.15614">
        <ele>1296.3</ele>
        <time>2009-08-18T08:47:23Z</time>
      </trkpt>
      <trkpt lat="42.99995" lon="-0.15603">
        <ele>1293.3</ele>
        <time>2009-08-18T08:47:29Z</time>
      </trkpt>
      <trkpt lat="42.99998" lon="-0.15603">
        <ele>1291.3</ele>
        <time>2009-08-18T08:47:31Z</time>
      </trkpt>
      <trkpt lat="43.00002" lon="-0.15614">
        <ele>1288.4</ele>
        <time>2009-08-18T08:47:39Z</time>
      </trkpt>
      <trkpt lat="42.99997" lon="-0.15617">
        <ele>1291.2</ele>
        <time>2009-08-18T08:47:42Z</time>
      </trkpt>
      <trkpt lat="43.00001" lon="-0.15609">
        <ele>1289.3</ele>
        <time>2009-08-18T08:47:47Z</time>
      </trkpt>
      <trkpt lat="43.00003" lon="-0.15598">
        <ele>1289.4</ele>
        <time>2009-08-18T08:47:52Z</time>
      </trkpt>
      <trkpt lat="43.00005" lon="-0.15581">
        <ele>1290</ele>
        <time>2009-08-18T08:47:59Z</time>
      </trkpt>
      <trkpt lat="43.00007" lon="-0.15568">
        <ele>1290.1</ele>
        <time>2009-08-18T08:48:05Z</time>
      </trkpt>
      <trkpt lat="43.00013" lon="-0.15554">
        <ele>1288.5</ele>
        <time>2009-08-18T08:48:11Z</time>
      </trkpt>
      <trkpt lat="43.00014" lon="-0.15541">
        <ele>1288.7</ele>
        <time>2009-08-18T08:48:16Z</time>
      </trkpt>
      <trkpt lat="43.00017" lon="-0.1553">
        <ele>1288.6</ele>
        <time>2009-08-18T08:48:21Z</time>
      </trkpt>
      <trkpt lat="43.00014" lon="-0.15512">
        <ele>1291.1</ele>
        <time>2009-08-18T08:48:28Z</time>
      </trkpt>
      <trkpt lat="43.00014" lon="-0.1551">
        <ele>1291.5</ele>
        <time>2009-08-18T08:48:29Z</time>
      </trkpt>
      <trkpt lat="43.00012" lon="-0.15493">
        <ele>1293.9</ele>
        <time>2009-08-18T08:48:35Z</time>
      </trkpt>
      <trkpt lat="43.00015" lon="-0.15481">
        <ele>1293.3</ele>
        <time>2009-08-18T08:48:40Z</time>
      </trkpt>
      <trkpt lat="43.00015" lon="-0.15468">
        <ele>1294.3</ele>
        <time>2009-08-18T08:48:45Z</time>
      </trkpt>
      <trkpt lat="43.00017" lon="-0.15455">
        <ele>1294.1</ele>
        <time>2009-08-18T08:48:50Z</time>
      </trkpt>
      <trkpt lat="43.00016" lon="-0.15442">
        <ele>1295.7</ele>
        <time>2009-08-18T08:48:55Z</time>
      </trkpt>
      <trkpt lat="43.00016" lon="-0.1543">
        <ele>1296.8</ele>
        <time>2009-08-18T08:49:00Z</time>
      </trkpt>
      <trkpt lat="43.00016" lon="-0.15415">
        <ele>1297.6</ele>
        <time>2009-08-18T08:49:06Z</time>
      </trkpt>
      <trkpt lat="43.00018" lon="-0.15402">
        <ele>1296.9</ele>
        <time>2009-08-18T08:49:12Z</time>
      </trkpt>
      <trkpt lat="43.00017" lon="-0.15393">
        <ele>1297.6</ele>
        <time>2009-08-18T08:49:18Z</time>
      </trkpt>
      <trkpt lat="43.00016" lon="-0.1539">
        <ele>1298.3</ele>
        <time>2009-08-18T08:49:19Z</time>
      </trkpt>
      <trkpt lat="43.00015" lon="-0.15384">
        <ele>1298.9</ele>
        <time>2009-08-18T08:49:23Z</time>
      </trkpt>
      <trkpt lat="43.00012" lon="-0.1537">
        <ele>1300.7</ele>
        <time>2009-08-18T08:49:30Z</time>
      </trkpt>
      <trkpt lat="43.00009" lon="-0.15359">
        <ele>1302</ele>
        <time>2009-08-18T08:49:36Z</time>
      </trkpt>
      <trkpt lat="43.00012" lon="-0.15347">
        <ele>1300.9</ele>
        <time>2009-08-18T08:49:42Z</time>
      </trkpt>
      <trkpt lat="43.00015" lon="-0.15336">
        <ele>1299.8</ele>
        <time>2009-08-18T08:49:48Z</time>
      </trkpt>
      <trkpt lat="43.00018" lon="-0.15324">
        <ele>1299.1</ele>
        <time>2009-08-18T08:49:54Z</time>
      </trkpt>
      <trkpt lat="43.00018" lon="-0.15322">
        <ele>1299.3</ele>
        <time>2009-08-18T08:49:55Z</time>
      </trkpt>
      <trkpt lat="43.00015" lon="-0.15313">
        <ele>1301.2</ele>
        <time>2009-08-18T08:49:59Z</time>
      </trkpt>
      <trkpt lat="43.00012" lon="-0.15299">
        <ele>1303.8</ele>
        <time>2009-08-18T08:50:06Z</time>
      </trkpt>
      <trkpt lat="43.00013" lon="-0.15288">
        <ele>1304.7</ele>
        <time>2009-08-18T08:50:12Z</time>
      </trkpt>
      <trkpt lat="43.00017" lon="-0.15276">
        <ele>1303.5</ele>
        <time>2009-08-18T08:50:18Z</time>
      </trkpt>
      <trkpt lat="43.00014" lon="-0.15263">
        <ele>1306.1</ele>
        <time>2009-08-18T08:50:24Z</time>
      </trkpt>
      <trkpt lat="43.00014" lon="-0.1525">
        <ele>1307.4</ele>
        <time>2009-08-18T08:50:30Z</time>
      </trkpt>
      <trkpt lat="43.00015" lon="-0.15239">
        <ele>1307.8</ele>
        <time>2009-08-18T08:50:36Z</time>
      </trkpt>
      <trkpt lat="43.00015" lon="-0.1523">
        <ele>1309</ele>
        <time>2009-08-18T08:50:42Z</time>
      </trkpt>
      <trkpt lat="43.00006" lon="-0.15238">
        <ele>1312.3</ele>
        <time>2009-08-18T08:50:49Z</time>
      </trkpt>
      <trkpt lat="43.00003" lon="-0.15239">
        <ele>1313.7</ele>
        <time>2009-08-18T08:50:50Z</time>
      </trkpt>
      <trkpt lat="42.99994" lon="-0.15252">
        <ele>1317.9</ele>
        <time>2009-08-18T08:50:57Z</time>
      </trkpt>
      <trkpt lat="43.00001" lon="-0.1527">
        <ele>1312</ele>
        <time>2009-08-18T08:51:03Z</time>
      </trkpt>
      <trkpt lat="43.00007" lon="-0.15285">
        <ele>1307.6</ele>
        <time>2009-08-18T08:51:08Z</time>
      </trkpt>
      <trkpt lat="43.00009" lon="-0.15299">
        <ele>1305.5</ele>
        <time>2009-08-18T08:51:14Z</time>
      </trkpt>
      <trkpt lat="43.00008" lon="-0.15312">
        <ele>1305.1</ele>
        <time>2009-08-18T08:51:20Z</time>
      </trkpt>
      <trkpt lat="43.00006" lon="-0.15326">
        <ele>1304.5</ele>
        <time>2009-08-18T08:51:26Z</time>
      </trkpt>
      <trkpt lat="43" lon="-0.15337">
        <ele>1307.2</ele>
        <time>2009-08-18T08:51:32Z</time>
      </trkpt>
      <trkpt lat="42.99987" lon="-0.15346">
        <ele>1317</ele>
        <time>2009-08-18T08:51:38Z</time>
      </trkpt>
      <trkpt lat="42.99977" lon="-0.15356">
        <ele>1324</ele>
        <time>2009-08-18T08:51:44Z</time>
      </trkpt>
      <trkpt lat="42.99968" lon="-0.15364">
        <ele>1330.6</ele>
        <time>2009-08-18T08:51:49Z</time>
      </trkpt>
      <trkpt lat="42.99957" lon="-0.1537">
        <ele>1338.2</ele>
        <time>2009-08-18T08:51:54Z</time>
      </trkpt>
      <trkpt lat="42.9995" lon="-0.1538">
        <ele>1343.2</ele>
        <time>2009-08-18T08:52:00Z</time>
      </trkpt>
      <trkpt lat="42.99947" lon="-0.15388">
        <ele>1344.6</ele>
        <time>2009-08-18T08:52:04Z</time>
      </trkpt>
      <trkpt lat="42.99948" lon="-0.15402">
        <ele>1343.6</ele>
        <time>2009-08-18T08:52:11Z</time>
      </trkpt>
      <trkpt lat="42.99945" lon="-0.15414">
        <ele>1345</ele>
        <time>2009-08-18T08:52:17Z</time>
      </trkpt>
      <trkpt lat="42.99939" lon="-0.15424">
        <ele>1348.2</ele>
        <time>2009-08-18T08:52:23Z</time>
      </trkpt>
      <trkpt lat="42.99937" lon="-0.15437">
        <ele>1348.1</ele>
        <time>2009-08-18T08:52:29Z</time>
      </trkpt>
      <trkpt lat="42.99938" lon="-0.15452">
        <ele>1345.2</ele>
        <time>2009-08-18T08:52:35Z</time>
      </trkpt>
      <trkpt lat="42.99936" lon="-0.15467">
        <ele>1345.2</ele>
        <time>2009-08-18T08:52:41Z</time>
      </trkpt>
      <trkpt lat="42.99936" lon="-0.15482">
        <ele>1342.8</ele>
        <time>2009-08-18T08:52:47Z</time>
      </trkpt>
      <trkpt lat="42.99936" lon="-0.15497">
        <ele>1341</ele>
        <time>2009-08-18T08:52:53Z</time>
      </trkpt>
      <trkpt lat="42.99934" lon="-0.15511">
        <ele>1340.5</ele>
        <time>2009-08-18T08:52:59Z</time>
      </trkpt>
      <trkpt lat="42.99944" lon="-0.1553">
        <ele>1332.5</ele>
        <time>2009-08-18T08:53:05Z</time>
      </trkpt>
      <trkpt lat="42.99938" lon="-0.15542">
        <ele>1335.1</ele>
        <time>2009-08-18T08:53:11Z</time>
      </trkpt>
      <trkpt lat="42.99932" lon="-0.15552">
        <ele>1337.7</ele>
        <time>2009-08-18T08:53:17Z</time>
      </trkpt>
      <trkpt lat="42.9993" lon="-0.15564">
        <ele>1337.8</ele>
        <time>2009-08-18T08:53:23Z</time>
      </trkpt>
      <trkpt lat="42.99925" lon="-0.15576">
        <ele>1339.6</ele>
        <time>2009-08-18T08:53:29Z</time>
      </trkpt>
      <trkpt lat="42.99924" lon="-0.15588">
        <ele>1339.1</ele>
        <time>2009-08-18T08:53:35Z</time>
      </trkpt>
      <trkpt lat="42.99924" lon="-0.156">
        <ele>1337</ele>
        <time>2009-08-18T08:53:41Z</time>
      </trkpt>
      <trkpt lat="42.99925" lon="-0.15614">
        <ele>1334</ele>
        <time>2009-08-18T08:53:47Z</time>
      </trkpt>
      <trkpt lat="42.99918" lon="-0.15624">
        <ele>1336.9</ele>
        <time>2009-08-18T08:53:53Z</time>
      </trkpt>
      <trkpt lat="42.9991" lon="-0.15634">
        <ele>1339.3</ele>
        <time>2009-08-18T08:53:59Z</time>
      </trkpt>
      <trkpt lat="42.99905" lon="-0.15645">
        <ele>1339.9</ele>
        <time>2009-08-18T08:54:05Z</time>
      </trkpt>
      <trkpt lat="42.999" lon="-0.15655">
        <ele>1340.9</ele>
        <time>2009-08-18T08:54:11Z</time>
      </trkpt>
      <trkpt lat="42.9989" lon="-0.1566">
        <ele>1344.9</ele>
        <time>2009-08-18T08:54:15Z</time>
      </trkpt>
      <trkpt lat="42.99885" lon="-0.15668">
        <ele>1345.9</ele>
        <time>2009-08-18T08:54:20Z</time>
      </trkpt>
      <trkpt lat="42.99881" lon="-0.15681">
        <ele>1346.4</ele>
        <time>2009-08-18T08:54:27Z</time>
      </trkpt>
      <trkpt lat="42.99878" lon="-0.15692">
        <ele>1346.2</ele>
        <time>2009-08-18T08:54:33Z</time>
      </trkpt>
      <trkpt lat="42.99874" lon="-0.15704">
        <ele>1346.3</ele>
        <time>2009-08-18T08:54:39Z</time>
      </trkpt>
      <trkpt lat="42.99868" lon="-0.15715">
        <ele>1347.4</ele>
        <time>2009-08-18T08:54:45Z</time>
      </trkpt>
      <trkpt lat="42.99863" lon="-0.15728">
        <ele>1347.3</ele>
        <time>2009-08-18T08:54:51Z</time>
      </trkpt>
      <trkpt lat="42.99858" lon="-0.1574">
        <ele>1347.2</ele>
        <time>2009-08-18T08:54:57Z</time>
      </trkpt>
      <trkpt lat="42.99855" lon="-0.15752">
        <ele>1346.5</ele>
        <time>2009-08-18T08:55:03Z</time>
      </trkpt>
      <trkpt lat="42.99852" lon="-0.15765">
        <ele>1347.2</ele>
        <time>2009-08-18T08:55:09Z</time>
      </trkpt>
      <trkpt lat="42.99848" lon="-0.15778">
        <ele>1348</ele>
        <time>2009-08-18T08:55:15Z</time>
      </trkpt>
      <trkpt lat="42.99844" lon="-0.1579">
        <ele>1348.9</ele>
        <time>2009-08-18T08:55:21Z</time>
      </trkpt>
      <trkpt lat="42.99839" lon="-0.15802">
        <ele>1349.8</ele>
        <time>2009-08-18T08:55:27Z</time>
      </trkpt>
      <trkpt lat="42.99832" lon="-0.15812">
        <ele>1350.6</ele>
        <time>2009-08-18T08:55:33Z</time>
      </trkpt>
      <trkpt lat="42.99825" lon="-0.15822">
        <ele>1349.3</ele>
        <time>2009-08-18T08:55:39Z</time>
      </trkpt>
      <trkpt lat="42.99818" lon="-0.1583">
        <ele>1347.8</ele>
        <time>2009-08-18T08:55:44Z</time>
      </trkpt>
      <trkpt lat="42.99812" lon="-0.15838">
        <ele>1347.1</ele>
        <time>2009-08-18T08:55:49Z</time>
      </trkpt>
      <trkpt lat="42.99804" lon="-0.15847">
        <ele>1346.8</ele>
        <time>2009-08-18T08:55:55Z</time>
      </trkpt>
      <trkpt lat="42.99798" lon="-0.15849">
        <ele>1346</ele>
        <time>2009-08-18T08:56:01Z</time>
      </trkpt>
      <trkpt lat="42.99798" lon="-0.15856">
        <ele>1346.8</ele>
        <time>2009-08-18T08:56:05Z</time>
      </trkpt>
      <trkpt lat="42.99803" lon="-0.1587">
        <ele>1348.9</ele>
        <time>2009-08-18T08:56:12Z</time>
      </trkpt>
      <trkpt lat="42.99805" lon="-0.15883">
        <ele>1350.5</ele>
        <time>2009-08-18T08:56:18Z</time>
      </trkpt>
      <trkpt lat="42.99806" lon="-0.15887">
        <ele>1351.1</ele>
        <time>2009-08-18T08:56:20Z</time>
      </trkpt>
      <trkpt lat="42.99806" lon="-0.15891">
        <ele>1351.5</ele>
        <time>2009-08-18T08:56:22Z</time>
      </trkpt>
      <trkpt lat="42.99811" lon="-0.15897">
        <ele>1352.8</ele>
        <time>2009-08-18T08:56:31Z</time>
      </trkpt>
      <trkpt lat="42.99814" lon="-0.15897">
        <ele>1353.3</ele>
        <time>2009-08-18T08:57:56Z</time>
      </trkpt>
      <trkpt lat="42.9981" lon="-0.15895">
        <ele>1352.4</ele>
        <time>2009-08-18T09:10:58Z</time>
      </trkpt>
      <trkpt lat="42.99804" lon="-0.15896">
        <ele>1351.7</ele>
        <time>2009-08-18T09:11:10Z</time>
      </trkpt>
      <trkpt lat="42.99797" lon="-0.15896">
        <ele>1350.7</ele>
        <time>2009-08-18T09:11:15Z</time>
      </trkpt>
      <trkpt lat="42.99786" lon="-0.15899">
        <ele>1349.4</ele>
        <time>2009-08-18T09:11:22Z</time>
      </trkpt>
      <trkpt lat="42.99782" lon="-0.15903">
        <ele>1349.2</ele>
        <time>2009-08-18T09:11:26Z</time>
      </trkpt>
      <trkpt lat="42.99776" lon="-0.15911">
        <ele>1349.2</ele>
        <time>2009-08-18T09:11:34Z</time>
      </trkpt>
      <trkpt lat="42.99768" lon="-0.15915">
        <ele>1348.3</ele>
        <time>2009-08-18T09:11:40Z</time>
      </trkpt>
      <trkpt lat="42.99759" lon="-0.15917">
        <ele>1347.5</ele>
        <time>2009-08-18T09:11:46Z</time>
      </trkpt>
      <trkpt lat="42.99758" lon="-0.15917">
        <ele>1347.3</ele>
        <time>2009-08-18T09:11:47Z</time>
      </trkpt>
      <trkpt lat="42.99747" lon="-0.15921">
        <ele>1346.1</ele>
        <time>2009-08-18T09:11:54Z</time>
      </trkpt>
      <trkpt lat="42.99738" lon="-0.15922">
        <ele>1342.8</ele>
        <time>2009-08-18T09:12:01Z</time>
      </trkpt>
      <trkpt lat="42.99729" lon="-0.15923">
        <ele>1339.6</ele>
        <time>2009-08-18T09:12:07Z</time>
      </trkpt>
      <trkpt lat="42.99719" lon="-0.1592">
        <ele>1335.4</ele>
        <time>2009-08-18T09:12:13Z</time>
      </trkpt>
      <trkpt lat="42.99711" lon="-0.1592">
        <ele>1332.1</ele>
        <time>2009-08-18T09:12:19Z</time>
      </trkpt>
      <trkpt lat="42.99708" lon="-0.1592">
        <ele>1331.3</ele>
        <time>2009-08-18T09:12:37Z</time>
      </trkpt>
      <trkpt lat="42.99701" lon="-0.15922">
        <ele>1329</ele>
        <time>2009-08-18T09:14:13Z</time>
      </trkpt>
      <trkpt lat="42.99696" lon="-0.15921">
        <ele>1326.9</ele>
        <time>2009-08-18T09:14:16Z</time>
      </trkpt>
      <trkpt lat="42.99691" lon="-0.1592">
        <ele>1324.7</ele>
        <time>2009-08-18T09:14:25Z</time>
      </trkpt>
      <trkpt lat="42.99692" lon="-0.15917">
        <ele>1324.3</ele>
        <time>2009-08-18T09:14:37Z</time>
      </trkpt>
      <trkpt lat="42.99693" lon="-0.1591">
        <ele>1323.7</ele>
        <time>2009-08-18T09:14:42Z</time>
      </trkpt>
      <trkpt lat="42.99697" lon="-0.15899">
        <ele>1323.7</ele>
        <time>2009-08-18T09:14:49Z</time>
      </trkpt>
      <trkpt lat="42.99706" lon="-0.15887">
        <ele>1325.7</ele>
        <time>2009-08-18T09:14:56Z</time>
      </trkpt>
      <trkpt lat="42.99711" lon="-0.15877">
        <ele>1326</ele>
        <time>2009-08-18T09:15:02Z</time>
      </trkpt>
      <trkpt lat="42.9971" lon="-0.15865">
        <ele>1324</ele>
        <time>2009-08-18T09:15:08Z</time>
      </trkpt>
      <trkpt lat="42.99708" lon="-0.15858">
        <ele>1322</ele>
        <time>2009-08-18T09:15:34Z</time>
      </trkpt>
      <trkpt lat="42.99708" lon="-0.15855">
        <ele>1321.7</ele>
        <time>2009-08-18T09:15:40Z</time>
      </trkpt>
      <trkpt lat="42.99708" lon="-0.15851">
        <ele>1321.1</ele>
        <time>2009-08-18T09:15:43Z</time>
      </trkpt>
      <trkpt lat="42.997" lon="-0.15842">
        <ele>1316.8</ele>
        <time>2009-08-18T09:15:51Z</time>
      </trkpt>
      <trkpt lat="42.99699" lon="-0.15841">
        <ele>1316</ele>
        <time>2009-08-18T09:15:52Z</time>
      </trkpt>
      <trkpt lat="42.99692" lon="-0.15838">
        <ele>1312.4</ele>
        <time>2009-08-18T09:15:58Z</time>
      </trkpt>
      <trkpt lat="42.99686" lon="-0.15833">
        <ele>1309.2</ele>
        <time>2009-08-18T09:16:03Z</time>
      </trkpt>
      <trkpt lat="42.99677" lon="-0.15823">
        <ele>1307.3</ele>
        <time>2009-08-18T09:16:10Z</time>
      </trkpt>
      <trkpt lat="42.99668" lon="-0.15817">
        <ele>1304.8</ele>
        <time>2009-08-18T09:16:16Z</time>
      </trkpt>
      <trkpt lat="42.99662" lon="-0.15809">
        <ele>1303.3</ele>
        <time>2009-08-18T09:16:22Z</time>
      </trkpt>
      <trkpt lat="42.99654" lon="-0.15802">
        <ele>1300.7</ele>
        <time>2009-08-18T09:16:28Z</time>
      </trkpt>
      <trkpt lat="42.99647" lon="-0.15797">
        <ele>1298.3</ele>
        <time>2009-08-18T09:16:34Z</time>
      </trkpt>
      <trkpt lat="42.99639" lon="-0.15791">
        <ele>1295.8</ele>
        <time>2009-08-18T09:16:40Z</time>
      </trkpt>
      <trkpt lat="42.99638" lon="-0.1579">
        <ele>1295.2</ele>
        <time>2009-08-18T09:16:41Z</time>
      </trkpt>
      <trkpt lat="42.99632" lon="-0.15783">
        <ele>1293.3</ele>
        <time>2009-08-18T09:16:46Z</time>
      </trkpt>
      <trkpt lat="42.99627" lon="-0.15781">
        <ele>1291.1</ele>
        <time>2009-08-18T09:16:50Z</time>
      </trkpt>
      <trkpt lat="42.99624" lon="-0.15791">
        <ele>1288.2</ele>
        <time>2009-08-18T09:16:57Z</time>
      </trkpt>
      <trkpt lat="42.99623" lon="-0.15802">
        <ele>1286</ele>
        <time>2009-08-18T09:17:03Z</time>
      </trkpt>
      <trkpt lat="42.99623" lon="-0.15805">
        <ele>1286</ele>
        <time>2009-08-18T09:17:04Z</time>
      </trkpt>
      <trkpt lat="42.99624" lon="-0.15809">
        <ele>1285.6</ele>
        <time>2009-08-18T09:17:06Z</time>
      </trkpt>
      <trkpt lat="42.99619" lon="-0.15823">
        <ele>1281.1</ele>
        <time>2009-08-18T09:17:13Z</time>
      </trkpt>
      <trkpt lat="42.99614" lon="-0.15834">
        <ele>1277.5</ele>
        <time>2009-08-18T09:17:18Z</time>
      </trkpt>
      <trkpt lat="42.99607" lon="-0.15845">
        <ele>1276.1</ele>
        <time>2009-08-18T09:17:23Z</time>
      </trkpt>
      <trkpt lat="42.99604" lon="-0.15849">
        <ele>1275.7</ele>
        <time>2009-08-18T09:17:32Z</time>
      </trkpt>
      <trkpt lat="42.99599" lon="-0.1586">
        <ele>1275</ele>
        <time>2009-08-18T09:18:13Z</time>
      </trkpt>
      <trkpt lat="42.99596" lon="-0.1587">
        <ele>1274.8</ele>
        <time>2009-08-18T09:18:18Z</time>
      </trkpt>
      <trkpt lat="42.99589" lon="-0.15876">
        <ele>1272.7</ele>
        <time>2009-08-18T09:18:24Z</time>
      </trkpt>
      <trkpt lat="42.9958" lon="-0.15879">
        <ele>1268.7</ele>
        <time>2009-08-18T09:18:30Z</time>
      </trkpt>
      <trkpt lat="42.9957" lon="-0.15884">
        <ele>1264.5</ele>
        <time>2009-08-18T09:18:35Z</time>
      </trkpt>
      <trkpt lat="42.99565" lon="-0.1589">
        <ele>1262.6</ele>
        <time>2009-08-18T09:18:39Z</time>
      </trkpt>
      <trkpt lat="42.99558" lon="-0.15896">
        <ele>1259.6</ele>
        <time>2009-08-18T09:19:00Z</time>
      </trkpt>
      <trkpt lat="42.99553" lon="-0.15901">
        <ele>1258.1</ele>
        <time>2009-08-18T09:19:06Z</time>
      </trkpt>
      <trkpt lat="42.99547" lon="-0.15912">
        <ele>1256.3</ele>
        <time>2009-08-18T09:19:12Z</time>
      </trkpt>
      <trkpt lat="42.99541" lon="-0.15924">
        <ele>1255</ele>
        <time>2009-08-18T09:19:17Z</time>
      </trkpt>
      <trkpt lat="42.99539" lon="-0.15931">
        <ele>1254.8</ele>
        <time>2009-08-18T09:19:24Z</time>
      </trkpt>
      <trkpt lat="42.99538" lon="-0.15933">
        <ele>1254.6</ele>
        <time>2009-08-18T09:20:30Z</time>
      </trkpt>
      <trkpt lat="42.99535" lon="-0.1594">
        <ele>1253.8</ele>
        <time>2009-08-18T09:20:34Z</time>
      </trkpt>
      <trkpt lat="42.99528" lon="-0.15957">
        <ele>1252.3</ele>
        <time>2009-08-18T09:20:40Z</time>
      </trkpt>
      <trkpt lat="42.99523" lon="-0.15969">
        <ele>1251.3</ele>
        <time>2009-08-18T09:20:45Z</time>
      </trkpt>
      <trkpt lat="42.99519" lon="-0.15982">
        <ele>1251</ele>
        <time>2009-08-18T09:20:51Z</time>
      </trkpt>
      <trkpt lat="42.99516" lon="-0.15993">
        <ele>1250.4</ele>
        <time>2009-08-18T09:20:56Z</time>
      </trkpt>
      <trkpt lat="42.9951" lon="-0.16002">
        <ele>1248.6</ele>
        <time>2009-08-18T09:21:02Z</time>
      </trkpt>
      <trkpt lat="42.99506" lon="-0.16014">
        <ele>1248.1</ele>
        <time>2009-08-18T09:21:07Z</time>
      </trkpt>
      <trkpt lat="42.99503" lon="-0.16028">
        <ele>1248.6</ele>
        <time>2009-08-18T09:21:12Z</time>
      </trkpt>
      <trkpt lat="42.99497" lon="-0.16044">
        <ele>1247.8</ele>
        <time>2009-08-18T09:21:16Z</time>
      </trkpt>
      <trkpt lat="42.99487" lon="-0.16054">
        <ele>1245.5</ele>
        <time>2009-08-18T09:21:21Z</time>
      </trkpt>
      <trkpt lat="42.99481" lon="-0.1606">
        <ele>1243.9</ele>
        <time>2009-08-18T09:21:27Z</time>
      </trkpt>
      <trkpt lat="42.99479" lon="-0.16064">
        <ele>1243.3</ele>
        <time>2009-08-18T09:21:36Z</time>
      </trkpt>
      <trkpt lat="42.99474" lon="-0.16064">
        <ele>1241.6</ele>
        <time>2009-08-18T09:21:43Z</time>
      </trkpt>
      <trkpt lat="42.99466" lon="-0.16065">
        <ele>1238.4</ele>
        <time>2009-08-18T09:21:50Z</time>
      </trkpt>
      <trkpt lat="42.99457" lon="-0.16065">
        <ele>1234.9</ele>
        <time>2009-08-18T09:21:56Z</time>
      </trkpt>
      <trkpt lat="42.9945" lon="-0.16067">
        <ele>1232.1</ele>
        <time>2009-08-18T09:22:02Z</time>
      </trkpt>
      <trkpt lat="42.99446" lon="-0.16068">
        <ele>1230.7</ele>
        <time>2009-08-18T09:22:20Z</time>
      </trkpt>
      <trkpt lat="42.99446" lon="-0.16069">
        <ele>1230.7</ele>
        <time>2009-08-18T09:22:22Z</time>
      </trkpt>
      <trkpt lat="42.99437" lon="-0.16073">
        <ele>1228.2</ele>
        <time>2009-08-18T09:22:29Z</time>
      </trkpt>
      <trkpt lat="42.99435" lon="-0.16074">
        <ele>1227.4</ele>
        <time>2009-08-18T09:22:31Z</time>
      </trkpt>
      <trkpt lat="42.9943" lon="-0.16079">
        <ele>1226.2</ele>
        <time>2009-08-18T09:22:41Z</time>
      </trkpt>
      <trkpt lat="42.99428" lon="-0.1608">
        <ele>1225.7</ele>
        <time>2009-08-18T09:22:47Z</time>
      </trkpt>
      <trkpt lat="42.99422" lon="-0.16086">
        <ele>1225.4</ele>
        <time>2009-08-18T09:22:55Z</time>
      </trkpt>
      <trkpt lat="42.99418" lon="-0.1609">
        <ele>1225.4</ele>
        <time>2009-08-18T09:23:09Z</time>
      </trkpt>
      <trkpt lat="42.99416" lon="-0.1609">
        <ele>1224.7</ele>
        <time>2009-08-18T09:23:12Z</time>
      </trkpt>
      <trkpt lat="42.99407" lon="-0.16088">
        <ele>1222.3</ele>
        <time>2009-08-18T09:23:19Z</time>
      </trkpt>
      <trkpt lat="42.99403" lon="-0.16087">
        <ele>1221.4</ele>
        <time>2009-08-18T09:23:22Z</time>
      </trkpt>
      <trkpt lat="42.99396" lon="-0.16078">
        <ele>1217.5</ele>
        <time>2009-08-18T09:23:29Z</time>
      </trkpt>
      <trkpt lat="42.99395" lon="-0.16077">
        <ele>1217.2</ele>
        <time>2009-08-18T09:23:33Z</time>
      </trkpt>
      <trkpt lat="42.9939" lon="-0.1607">
        <ele>1214.5</ele>
        <time>2009-08-18T09:23:41Z</time>
      </trkpt>
      <trkpt lat="42.9938" lon="-0.16066">
        <ele>1211.7</ele>
        <time>2009-08-18T09:23:48Z</time>
      </trkpt>
      <trkpt lat="42.99378" lon="-0.16066">
        <ele>1211.4</ele>
        <time>2009-08-18T09:23:49Z</time>
      </trkpt>
      <trkpt lat="42.99375" lon="-0.16065">
        <ele>1210.6</ele>
        <time>2009-08-18T09:23:51Z</time>
      </trkpt>
      <trkpt lat="42.99367" lon="-0.16057">
        <ele>1207</ele>
        <time>2009-08-18T09:23:58Z</time>
      </trkpt>
      <trkpt lat="42.99357" lon="-0.1605">
        <ele>1203.2</ele>
        <time>2009-08-18T09:24:05Z</time>
      </trkpt>
      <trkpt lat="42.99348" lon="-0.16046">
        <ele>1200.1</ele>
        <time>2009-08-18T09:24:10Z</time>
      </trkpt>
      <trkpt lat="42.99337" lon="-0.16042">
        <ele>1196.9</ele>
        <time>2009-08-18T09:24:16Z</time>
      </trkpt>
      <trkpt lat="42.99328" lon="-0.16039">
        <ele>1194.4</ele>
        <time>2009-08-18T09:24:21Z</time>
      </trkpt>
      <trkpt lat="42.99327" lon="-0.16038">
        <ele>1193.9</ele>
        <time>2009-08-18T09:24:22Z</time>
      </trkpt>
      <trkpt lat="42.99315" lon="-0.16034">
        <ele>1190.8</ele>
        <time>2009-08-18T09:24:29Z</time>
      </trkpt>
      <trkpt lat="42.99306" lon="-0.16032">
        <ele>1188.9</ele>
        <time>2009-08-18T09:24:35Z</time>
      </trkpt>
      <trkpt lat="42.99303" lon="-0.16031">
        <ele>1188</ele>
        <time>2009-08-18T09:25:05Z</time>
      </trkpt>
      <trkpt lat="42.99294" lon="-0.1603">
        <ele>1186.3</ele>
        <time>2009-08-18T09:25:12Z</time>
      </trkpt>
      <trkpt lat="42.99285" lon="-0.16026">
        <ele>1183.8</ele>
        <time>2009-08-18T09:25:18Z</time>
      </trkpt>
      <trkpt lat="42.99276" lon="-0.16027">
        <ele>1182.8</ele>
        <time>2009-08-18T09:25:23Z</time>
      </trkpt>
      <trkpt lat="42.99267" lon="-0.16025">
        <ele>1180.7</ele>
        <time>2009-08-18T09:25:28Z</time>
      </trkpt>
      <trkpt lat="42.99255" lon="-0.16024">
        <ele>1178.6</ele>
        <time>2009-08-18T09:25:35Z</time>
      </trkpt>
      <trkpt lat="42.99247" lon="-0.16022">
        <ele>1176.5</ele>
        <time>2009-08-18T09:25:41Z</time>
      </trkpt>
      <trkpt lat="42.99238" lon="-0.16021">
        <ele>1174.4</ele>
        <time>2009-08-18T09:25:47Z</time>
      </trkpt>
      <trkpt lat="42.99232" lon="-0.16022">
        <ele>1173.5</ele>
        <time>2009-08-18T09:25:55Z</time>
      </trkpt>
      <trkpt lat="42.99225" lon="-0.16023">
        <ele>1172.5</ele>
        <time>2009-08-18T09:26:02Z</time>
      </trkpt>
      <trkpt lat="42.99224" lon="-0.16022">
        <ele>1172.1</ele>
        <time>2009-08-18T09:26:03Z</time>
      </trkpt>
      <trkpt lat="42.99221" lon="-0.16019">
        <ele>1170.4</ele>
        <time>2009-08-18T09:26:12Z</time>
      </trkpt>
      <trkpt lat="42.99221" lon="-0.16007">
        <ele>1166.6</ele>
        <time>2009-08-18T09:26:20Z</time>
      </trkpt>
      <trkpt lat="42.99224" lon="-0.15997">
        <ele>1164</ele>
        <time>2009-08-18T09:26:27Z</time>
      </trkpt>
      <trkpt lat="42.99224" lon="-0.15984">
        <ele>1161.4</ele>
        <time>2009-08-18T09:26:32Z</time>
      </trkpt>
      <trkpt lat="42.99226" lon="-0.1597">
        <ele>1159</ele>
        <time>2009-08-18T09:26:38Z</time>
      </trkpt>
      <trkpt lat="42.99225" lon="-0.15957">
        <ele>1156.3</ele>
        <time>2009-08-18T09:26:44Z</time>
      </trkpt>
      <trkpt lat="42.99222" lon="-0.15942">
        <ele>1152.8</ele>
        <time>2009-08-18T09:26:50Z</time>
      </trkpt>
      <trkpt lat="42.99213" lon="-0.15932">
        <ele>1148.9</ele>
        <time>2009-08-18T09:26:57Z</time>
      </trkpt>
      <trkpt lat="42.99211" lon="-0.15923">
        <ele>1146.8</ele>
        <time>2009-08-18T09:27:01Z</time>
      </trkpt>
      <trkpt lat="42.99205" lon="-0.1592">
        <ele>1144.9</ele>
        <time>2009-08-18T09:27:06Z</time>
      </trkpt>
      <trkpt lat="42.99194" lon="-0.15919">
        <ele>1142.6</ele>
        <time>2009-08-18T09:27:13Z</time>
      </trkpt>
      <trkpt lat="42.99184" lon="-0.15916">
        <ele>1140.1</ele>
        <time>2009-08-18T09:27:33Z</time>
      </trkpt>
      <trkpt lat="42.99178" lon="-0.15912">
        <ele>1137.5</ele>
        <time>2009-08-18T09:27:37Z</time>
      </trkpt>
      <trkpt lat="42.99167" lon="-0.15902">
        <ele>1132.5</ele>
        <time>2009-08-18T09:27:44Z</time>
      </trkpt>
      <trkpt lat="42.99163" lon="-0.15899">
        <ele>1130.9</ele>
        <time>2009-08-18T09:27:46Z</time>
      </trkpt>
      <trkpt lat="42.99153" lon="-0.15894">
        <ele>1126.8</ele>
        <time>2009-08-18T09:27:53Z</time>
      </trkpt>
      <trkpt lat="42.99144" lon="-0.15888">
        <ele>1123.5</ele>
        <time>2009-08-18T09:27:59Z</time>
      </trkpt>
      <trkpt lat="42.99135" lon="-0.15879">
        <ele>1119.4</ele>
        <time>2009-08-18T09:28:04Z</time>
      </trkpt>
      <trkpt lat="42.99124" lon="-0.15872">
        <ele>1115.7</ele>
        <time>2009-08-18T09:28:08Z</time>
      </trkpt>
      <trkpt lat="42.9912" lon="-0.1587">
        <ele>1114.7</ele>
        <time>2009-08-18T09:28:17Z</time>
      </trkpt>
      <trkpt lat="42.99111" lon="-0.15866">
        <ele>1112.2</ele>
        <time>2009-08-18T09:32:05Z</time>
      </trkpt>
      <trkpt lat="42.99108" lon="-0.15866">
        <ele>1111.7</ele>
        <time>2009-08-18T09:32:07Z</time>
      </trkpt>
      <trkpt lat="42.99102" lon="-0.15868">
        <ele>1111</ele>
        <time>2009-08-18T09:32:11Z</time>
      </trkpt>
      <trkpt lat="42.99094" lon="-0.15859">
        <ele>1108.4</ele>
        <time>2009-08-18T09:32:17Z</time>
      </trkpt>
      <trkpt lat="42.99086" lon="-0.15853">
        <ele>1106.5</ele>
        <time>2009-08-18T09:32:23Z</time>
      </trkpt>
      <trkpt lat="42.99076" lon="-0.15852">
        <ele>1103.8</ele>
        <time>2009-08-18T09:32:28Z</time>
      </trkpt>
      <trkpt lat="42.99068" lon="-0.1585">
        <ele>1100.9</ele>
        <time>2009-08-18T09:32:34Z</time>
      </trkpt>
      <trkpt lat="42.99066" lon="-0.15861">
        <ele>1101.6</ele>
        <time>2009-08-18T09:32:41Z</time>
      </trkpt>
      <trkpt lat="42.99067" lon="-0.15866">
        <ele>1102.6</ele>
        <time>2009-08-18T09:32:44Z</time>
      </trkpt>
      <trkpt lat="42.99065" lon="-0.15875">
        <ele>1102.7</ele>
        <time>2009-08-18T09:32:54Z</time>
      </trkpt>
      <trkpt lat="42.99064" lon="-0.15881">
        <ele>1103.3</ele>
        <time>2009-08-18T09:33:03Z</time>
      </trkpt>
      <trkpt lat="42.99063" lon="-0.15897">
        <ele>1104.7</ele>
        <time>2009-08-18T09:33:13Z</time>
      </trkpt>
      <trkpt lat="42.99061" lon="-0.15911">
        <ele>1105.3</ele>
        <time>2009-08-18T09:33:17Z</time>
      </trkpt>
      <trkpt lat="42.9906" lon="-0.15915">
        <ele>1105.5</ele>
        <time>2009-08-18T09:33:19Z</time>
      </trkpt>
      <trkpt lat="42.99051" lon="-0.1592">
        <ele>1103.9</ele>
        <time>2009-08-18T09:33:27Z</time>
      </trkpt>
      <trkpt lat="42.99048" lon="-0.15922">
        <ele>1103.4</ele>
        <time>2009-08-18T09:33:30Z</time>
      </trkpt>
      <trkpt lat="42.99045" lon="-0.15926">
        <ele>1103.3</ele>
        <time>2009-08-18T09:33:33Z</time>
      </trkpt>
      <trkpt lat="42.99036" lon="-0.1593">
        <ele>1101.5</ele>
        <time>2009-08-18T09:33:38Z</time>
      </trkpt>
      <trkpt lat="42.99023" lon="-0.15932">
        <ele>1098.2</ele>
        <time>2009-08-18T09:33:46Z</time>
      </trkpt>
      <trkpt lat="42.99014" lon="-0.1593">
        <ele>1095</ele>
        <time>2009-08-18T09:33:59Z</time>
      </trkpt>
      <trkpt lat="42.99009" lon="-0.1593">
        <ele>1093.3</ele>
        <time>2009-08-18T09:34:05Z</time>
      </trkpt>
      <trkpt lat="42.98997" lon="-0.15936">
        <ele>1091.3</ele>
        <time>2009-08-18T09:34:12Z</time>
      </trkpt>
      <trkpt lat="42.98996" lon="-0.15936">
        <ele>1091.1</ele>
        <time>2009-08-18T09:34:13Z</time>
      </trkpt>
      <trkpt lat="42.98983" lon="-0.15937">
        <ele>1087.6</ele>
        <time>2009-08-18T09:34:19Z</time>
      </trkpt>
      <trkpt lat="42.98979" lon="-0.15937">
        <ele>1086.6</ele>
        <time>2009-08-18T09:34:21Z</time>
      </trkpt>
      <trkpt lat="42.98967" lon="-0.15939">
        <ele>1083.6</ele>
        <time>2009-08-18T09:34:27Z</time>
      </trkpt>
      <trkpt lat="42.98965" lon="-0.15939">
        <ele>1083</ele>
        <time>2009-08-18T09:34:28Z</time>
      </trkpt>
      <trkpt lat="42.98957" lon="-0.15946">
        <ele>1082.5</ele>
        <time>2009-08-18T09:34:33Z</time>
      </trkpt>
      <trkpt lat="42.98948" lon="-0.15949">
        <ele>1080.5</ele>
        <time>2009-08-18T09:34:43Z</time>
      </trkpt>
      <trkpt lat="42.98941" lon="-0.15952">
        <ele>1079.4</ele>
        <time>2009-08-18T09:34:56Z</time>
      </trkpt>
      <trkpt lat="42.98935" lon="-0.15959">
        <ele>1079.4</ele>
        <time>2009-08-18T09:35:00Z</time>
      </trkpt>
      <trkpt lat="42.98922" lon="-0.15959">
        <ele>1075.7</ele>
        <time>2009-08-18T09:35:06Z</time>
      </trkpt>
      <trkpt lat="42.98908" lon="-0.15952">
        <ele>1069.9</ele>
        <time>2009-08-18T09:35:13Z</time>
      </trkpt>
      <trkpt lat="42.98893" lon="-0.15949">
        <ele>1064.6</ele>
        <time>2009-08-18T09:35:18Z</time>
      </trkpt>
      <trkpt lat="42.98885" lon="-0.15945">
        <ele>1061.6</ele>
        <time>2009-08-18T09:35:20Z</time>
      </trkpt>
      <trkpt lat="42.98869" lon="-0.1594">
        <ele>1055.9</ele>
        <time>2009-08-18T09:35:27Z</time>
      </trkpt>
      <trkpt lat="42.98856" lon="-0.1594">
        <ele>1052.4</ele>
        <time>2009-08-18T09:35:32Z</time>
      </trkpt>
      <trkpt lat="42.98853" lon="-0.15942">
        <ele>1051.8</ele>
        <time>2009-08-18T09:35:34Z</time>
      </trkpt>
      <trkpt lat="42.98844" lon="-0.15932">
        <ele>1048.1</ele>
        <time>2009-08-18T09:35:40Z</time>
      </trkpt>
      <trkpt lat="42.98837" lon="-0.15924">
        <ele>1045.5</ele>
        <time>2009-08-18T09:35:47Z</time>
      </trkpt>
      <trkpt lat="42.98834" lon="-0.15924">
        <ele>1044.7</ele>
        <time>2009-08-18T09:36:42Z</time>
      </trkpt>
      <trkpt lat="42.9883" lon="-0.15929">
        <ele>1043.6</ele>
        <time>2009-08-18T09:37:34Z</time>
      </trkpt>
      <trkpt lat="42.98831" lon="-0.15928">
        <ele>1043.9</ele>
        <time>2009-08-18T09:37:59Z</time>
      </trkpt>
      <trkpt lat="42.98825" lon="-0.15945">
        <ele>1042.8</ele>
        <time>2009-08-18T09:38:04Z</time>
      </trkpt>
      <trkpt lat="42.98818" lon="-0.1596">
        <ele>1041.2</ele>
        <time>2009-08-18T09:38:07Z</time>
      </trkpt>
      <trkpt lat="42.98804" lon="-0.15982">
        <ele>1036.6</ele>
        <time>2009-08-18T09:38:12Z</time>
      </trkpt>
      <trkpt lat="42.98789" lon="-0.16003">
        <ele>1031.3</ele>
        <time>2009-08-18T09:38:17Z</time>
      </trkpt>
      <trkpt lat="42.9878" lon="-0.1602">
        <ele>1028.2</ele>
        <time>2009-08-18T09:38:21Z</time>
      </trkpt>
      <trkpt lat="42.98774" lon="-0.16035">
        <ele>1025.9</ele>
        <time>2009-08-18T09:38:24Z</time>
      </trkpt>
      <trkpt lat="42.98772" lon="-0.16065">
        <ele>1026.4</ele>
        <time>2009-08-18T09:38:29Z</time>
      </trkpt>
      <trkpt lat="42.98777" lon="-0.16081">
        <ele>1029.1</ele>
        <time>2009-08-18T09:38:33Z</time>
      </trkpt>
      <trkpt lat="42.98768" lon="-0.16085">
        <ele>1025</ele>
        <time>2009-08-18T09:38:38Z</time>
      </trkpt>
      <trkpt lat="42.98763" lon="-0.16069">
        <ele>1021.8</ele>
        <time>2009-08-18T09:38:42Z</time>
      </trkpt>
      <trkpt lat="42.98759" lon="-0.16048">
        <ele>1019.5</ele>
        <time>2009-08-18T09:38:46Z</time>
      </trkpt>
      <trkpt lat="42.98759" lon="-0.16033">
        <ele>1018.8</ele>
        <time>2009-08-18T09:38:50Z</time>
      </trkpt>
      <trkpt lat="42.98753" lon="-0.16038">
        <ele>1016.2</ele>
        <time>2009-08-18T09:38:54Z</time>
      </trkpt>
      <trkpt lat="42.98751" lon="-0.16057">
        <ele>1015.7</ele>
        <time>2009-08-18T09:38:58Z</time>
      </trkpt>
      <trkpt lat="42.9875" lon="-0.16085">
        <ele>1015.8</ele>
        <time>2009-08-18T09:39:03Z</time>
      </trkpt>
      <trkpt lat="42.98747" lon="-0.16102">
        <ele>1015.2</ele>
        <time>2009-08-18T09:39:06Z</time>
      </trkpt>
      <trkpt lat="42.98745" lon="-0.16115">
        <ele>1014.9</ele>
        <time>2009-08-18T09:39:08Z</time>
      </trkpt>
      <trkpt lat="42.98749" lon="-0.16141">
        <ele>1017.5</ele>
        <time>2009-08-18T09:39:13Z</time>
      </trkpt>
      <trkpt lat="42.98743" lon="-0.16158">
        <ele>1015.6</ele>
        <time>2009-08-18T09:39:17Z</time>
      </trkpt>
      <trkpt lat="42.98737" lon="-0.16164">
        <ele>1013.5</ele>
        <time>2009-08-18T09:39:19Z</time>
      </trkpt>
      <trkpt lat="42.98721" lon="-0.1618">
        <ele>1006.9</ele>
        <time>2009-08-18T09:39:24Z</time>
      </trkpt>
      <trkpt lat="42.98708" lon="-0.1619">
        <ele>1001.7</ele>
        <time>2009-08-18T09:39:28Z</time>
      </trkpt>
      <trkpt lat="42.98701" lon="-0.16211">
        <ele>998.2</ele>
        <time>2009-08-18T09:39:33Z</time>
      </trkpt>
      <trkpt lat="42.98708" lon="-0.1623">
        <ele>1001.2</ele>
        <time>2009-08-18T09:39:37Z</time>
      </trkpt>
      <trkpt lat="42.98711" lon="-0.1626">
        <ele>1001.2</ele>
        <time>2009-08-18T09:39:43Z</time>
      </trkpt>
      <trkpt lat="42.9871" lon="-0.16267">
        <ele>1000.5</ele>
        <time>2009-08-18T09:39:45Z</time>
      </trkpt>
      <trkpt lat="42.98699" lon="-0.16273">
        <ele>994.7</ele>
        <time>2009-08-18T09:39:51Z</time>
      </trkpt>
      <trkpt lat="42.98688" lon="-0.16269">
        <ele>989.9</ele>
        <time>2009-08-18T09:39:55Z</time>
      </trkpt>
      <trkpt lat="42.98677" lon="-0.16262">
        <ele>985.6</ele>
        <time>2009-08-18T09:39:59Z</time>
      </trkpt>
      <trkpt lat="42.9867" lon="-0.1625">
        <ele>983.7</ele>
        <time>2009-08-18T09:40:03Z</time>
      </trkpt>
      <trkpt lat="42.98671" lon="-0.16236">
        <ele>984.5</ele>
        <time>2009-08-18T09:40:06Z</time>
      </trkpt>
      <trkpt lat="42.98674" lon="-0.16226">
        <ele>985.9</ele>
        <time>2009-08-18T09:40:08Z</time>
      </trkpt>
      <trkpt lat="42.98673" lon="-0.16201">
        <ele>986.5</ele>
        <time>2009-08-18T09:40:12Z</time>
      </trkpt>
      <trkpt lat="42.98665" lon="-0.16182">
        <ele>983.8</ele>
        <time>2009-08-18T09:40:17Z</time>
      </trkpt>
      <trkpt lat="42.98654" lon="-0.16182">
        <ele>980</ele>
        <time>2009-08-18T09:40:21Z</time>
      </trkpt>
      <trkpt lat="42.98649" lon="-0.16196">
        <ele>977.6</ele>
        <time>2009-08-18T09:40:27Z</time>
      </trkpt>
      <trkpt lat="42.98648" lon="-0.162">
        <ele>977.2</ele>
        <time>2009-08-18T09:40:29Z</time>
      </trkpt>
      <trkpt lat="42.98648" lon="-0.16207">
        <ele>976.9</ele>
        <time>2009-08-18T09:40:33Z</time>
      </trkpt>
      <trkpt lat="42.98648" lon="-0.16216">
        <ele>976.8</ele>
        <time>2009-08-18T09:40:37Z</time>
      </trkpt>
      <trkpt lat="42.98647" lon="-0.1623">
        <ele>975.9</ele>
        <time>2009-08-18T09:40:43Z</time>
      </trkpt>
      <trkpt lat="42.98644" lon="-0.16236">
        <ele>974.9</ele>
        <time>2009-08-18T09:40:47Z</time>
      </trkpt>
      <trkpt lat="42.9864" lon="-0.16249">
        <ele>972.9</ele>
        <time>2009-08-18T09:40:54Z</time>
      </trkpt>
      <trkpt lat="42.98631" lon="-0.16262">
        <ele>969</ele>
        <time>2009-08-18T09:40:59Z</time>
      </trkpt>
      <trkpt lat="42.98623" lon="-0.16279">
        <ele>965.1</ele>
        <time>2009-08-18T09:41:04Z</time>
      </trkpt>
      <trkpt lat="42.98621" lon="-0.16298">
        <ele>962.9</ele>
        <time>2009-08-18T09:41:08Z</time>
      </trkpt>
      <trkpt lat="42.9862" lon="-0.16315">
        <ele>961.3</ele>
        <time>2009-08-18T09:41:12Z</time>
      </trkpt>
      <trkpt lat="42.98625" lon="-0.16331">
        <ele>961.8</ele>
        <time>2009-08-18T09:41:17Z</time>
      </trkpt>
      <trkpt lat="42.98628" lon="-0.16336">
        <ele>962.4</ele>
        <time>2009-08-18T09:41:19Z</time>
      </trkpt>
      <trkpt lat="42.98619" lon="-0.16337">
        <ele>959.5</ele>
        <time>2009-08-18T09:41:26Z</time>
      </trkpt>
      <trkpt lat="42.98609" lon="-0.16318">
        <ele>957.4</ele>
        <time>2009-08-18T09:41:31Z</time>
      </trkpt>
      <trkpt lat="42.98601" lon="-0.163">
        <ele>956.2</ele>
        <time>2009-08-18T09:41:36Z</time>
      </trkpt>
      <trkpt lat="42.986" lon="-0.16296">
        <ele>956.2</ele>
        <time>2009-08-18T09:41:37Z</time>
      </trkpt>
      <trkpt lat="42.9859" lon="-0.16297">
        <ele>952.8</ele>
        <time>2009-08-18T09:41:43Z</time>
      </trkpt>
      <trkpt lat="42.9859" lon="-0.16302">
        <ele>952.4</ele>
        <time>2009-08-18T09:41:44Z</time>
      </trkpt>
      <trkpt lat="42.9859" lon="-0.16324">
        <ele>950.8</ele>
        <time>2009-08-18T09:41:48Z</time>
      </trkpt>
      <trkpt lat="42.98577" lon="-0.16323">
        <ele>947.4</ele>
        <time>2009-08-18T09:41:54Z</time>
      </trkpt>
      <trkpt lat="42.98576" lon="-0.16319">
        <ele>947.3</ele>
        <time>2009-08-18T09:41:55Z</time>
      </trkpt>
      <trkpt lat="42.98567" lon="-0.16305">
        <ele>945.8</ele>
        <time>2009-08-18T09:42:00Z</time>
      </trkpt>
      <trkpt lat="42.98551" lon="-0.16307">
        <ele>941.8</ele>
        <time>2009-08-18T09:42:06Z</time>
      </trkpt>
      <trkpt lat="42.98539" lon="-0.16312">
        <ele>938.6</ele>
        <time>2009-08-18T09:42:11Z</time>
      </trkpt>
      <trkpt lat="42.98526" lon="-0.16308">
        <ele>935.4</ele>
        <time>2009-08-18T09:42:15Z</time>
      </trkpt>
      <trkpt lat="42.98514" lon="-0.16304">
        <ele>932.1</ele>
        <time>2009-08-18T09:42:19Z</time>
      </trkpt>
      <trkpt lat="42.98502" lon="-0.16297">
        <ele>928.8</ele>
        <time>2009-08-18T09:42:23Z</time>
      </trkpt>
      <trkpt lat="42.98487" lon="-0.16293">
        <ele>925.2</ele>
        <time>2009-08-18T09:42:28Z</time>
      </trkpt>
      <trkpt lat="42.9848" lon="-0.16291">
        <ele>923.5</ele>
        <time>2009-08-18T09:42:34Z</time>
      </trkpt>
      <trkpt lat="42.98472" lon="-0.16288">
        <ele>921.3</ele>
        <time>2009-08-18T09:42:55Z</time>
      </trkpt>
      <trkpt lat="42.98457" lon="-0.16284">
        <ele>917.6</ele>
        <time>2009-08-18T09:42:59Z</time>
      </trkpt>
      <trkpt lat="42.98445" lon="-0.16276">
        <ele>914</ele>
        <time>2009-08-18T09:43:03Z</time>
      </trkpt>
      <trkpt lat="42.9843" lon="-0.16267">
        <ele>909.3</ele>
        <time>2009-08-18T09:43:07Z</time>
      </trkpt>
      <trkpt lat="42.98419" lon="-0.16264">
        <ele>906.4</ele>
        <time>2009-08-18T09:43:10Z</time>
      </trkpt>
      <trkpt lat="42.98413" lon="-0.16248">
        <ele>903.4</ele>
        <time>2009-08-18T09:43:14Z</time>
      </trkpt>
      <trkpt lat="42.98407" lon="-0.16216">
        <ele>899.8</ele>
        <time>2009-08-18T09:43:20Z</time>
      </trkpt>
      <trkpt lat="42.98399" lon="-0.16208">
        <ele>897.9</ele>
        <time>2009-08-18T09:43:22Z</time>
      </trkpt>
      <trkpt lat="42.98388" lon="-0.16198">
        <ele>895.5</ele>
        <time>2009-08-18T09:43:28Z</time>
      </trkpt>
      <trkpt lat="42.98382" lon="-0.16193">
        <ele>894.3</ele>
        <time>2009-08-18T09:43:34Z</time>
      </trkpt>
      <trkpt lat="42.98376" lon="-0.16195">
        <ele>893.5</ele>
        <time>2009-08-18T09:43:41Z</time>
      </trkpt>
      <trkpt lat="42.98378" lon="-0.16192">
        <ele>893.6</ele>
        <time>2009-08-18T09:43:44Z</time>
      </trkpt>
      <trkpt lat="42.98388" lon="-0.162">
        <ele>895.6</ele>
        <time>2009-08-18T09:43:51Z</time>
      </trkpt>
      <trkpt lat="42.98389" lon="-0.16197">
        <ele>895.5</ele>
        <time>2009-08-18T09:43:54Z</time>
      </trkpt>
      <trkpt lat="42.98379" lon="-0.16192">
        <ele>893.7</ele>
        <time>2009-08-18T09:44:00Z</time>
      </trkpt>
      <trkpt lat="42.98371" lon="-0.16184">
        <ele>891.9</ele>
        <time>2009-08-18T09:44:04Z</time>
      </trkpt>
      <trkpt lat="42.98369" lon="-0.16178">
        <ele>891</ele>
        <time>2009-08-18T09:44:09Z</time>
      </trkpt>
      <trkpt lat="42.98361" lon="-0.16176">
        <ele>889.7</ele>
        <time>2009-08-18T09:44:13Z</time>
      </trkpt>
      <trkpt lat="42.98351" lon="-0.16166">
        <ele>887.6</ele>
        <time>2009-08-18T09:44:19Z</time>
      </trkpt>
      <trkpt lat="42.98351" lon="-0.16166">
        <ele>887.5</ele>
        <time>2009-08-18T09:44:20Z</time>
      </trkpt>
      <trkpt lat="42.98353" lon="-0.16153">
        <ele>886.8</ele>
        <time>2009-08-18T09:44:25Z</time>
      </trkpt>
      <trkpt lat="42.9836" lon="-0.1612">
        <ele>885.4</ele>
        <time>2009-08-18T09:44:31Z</time>
      </trkpt>
      <trkpt lat="42.98364" lon="-0.16107">
        <ele>885.2</ele>
        <time>2009-08-18T09:44:36Z</time>
      </trkpt>
      <trkpt lat="42.98364" lon="-0.1609">
        <ele>883.9</ele>
        <time>2009-08-18T09:44:41Z</time>
      </trkpt>
      <trkpt lat="42.9835" lon="-0.16088">
        <ele>881.4</ele>
        <time>2009-08-18T09:44:47Z</time>
      </trkpt>
      <trkpt lat="42.98347" lon="-0.16091">
        <ele>881.1</ele>
        <time>2009-08-18T09:44:48Z</time>
      </trkpt>
      <trkpt lat="42.98333" lon="-0.1611">
        <ele>880.2</ele>
        <time>2009-08-18T09:44:53Z</time>
      </trkpt>
      <trkpt lat="42.98324" lon="-0.16123">
        <ele>879.7</ele>
        <time>2009-08-18T09:44:57Z</time>
      </trkpt>
      <trkpt lat="42.98318" lon="-0.16129">
        <ele>879</ele>
        <time>2009-08-18T09:44:59Z</time>
      </trkpt>
      <trkpt lat="42.98306" lon="-0.16119">
        <ele>876</ele>
        <time>2009-08-18T09:45:04Z</time>
      </trkpt>
      <trkpt lat="42.98309" lon="-0.161">
        <ele>875.1</ele>
        <time>2009-08-18T09:45:08Z</time>
      </trkpt>
      <trkpt lat="42.98315" lon="-0.16079">
        <ele>874.6</ele>
        <time>2009-08-18T09:45:12Z</time>
      </trkpt>
      <trkpt lat="42.9831" lon="-0.16058">
        <ele>872</ele>
        <time>2009-08-18T09:45:16Z</time>
      </trkpt>
      <trkpt lat="42.98295" lon="-0.16046">
        <ele>868.6</ele>
        <time>2009-08-18T09:45:20Z</time>
      </trkpt>
      <trkpt lat="42.98287" lon="-0.16029">
        <ele>865.9</ele>
        <time>2009-08-18T09:45:24Z</time>
      </trkpt>
      <trkpt lat="42.9829" lon="-0.16014">
        <ele>865.3</ele>
        <time>2009-08-18T09:45:27Z</time>
      </trkpt>
      <trkpt lat="42.98295" lon="-0.15998">
        <ele>864.8</ele>
        <time>2009-08-18T09:45:30Z</time>
      </trkpt>
      <trkpt lat="42.98307" lon="-0.15976">
        <ele>864.6</ele>
        <time>2009-08-18T09:45:35Z</time>
      </trkpt>
      <trkpt lat="42.98315" lon="-0.15964">
        <ele>864.6</ele>
        <time>2009-08-18T09:45:40Z</time>
      </trkpt>
      <trkpt lat="42.98324" lon="-0.15957">
        <ele>865</ele>
        <time>2009-08-18T09:45:45Z</time>
      </trkpt>
      <trkpt lat="42.9833" lon="-0.1595">
        <ele>865.2</ele>
        <time>2009-08-18T09:45:51Z</time>
      </trkpt>
      <trkpt lat="42.98335" lon="-0.15946">
        <ele>865.4</ele>
        <time>2009-08-18T09:45:57Z</time>
      </trkpt>
      <trkpt lat="42.98337" lon="-0.15953">
        <ele>866.6</ele>
        <time>2009-08-18T09:46:05Z</time>
      </trkpt>
      <trkpt lat="42.98329" lon="-0.15948">
        <ele>864.8</ele>
        <time>2009-08-18T09:46:12Z</time>
      </trkpt>
      <trkpt lat="42.98329" lon="-0.15947">
        <ele>864.7</ele>
        <time>2009-08-18T09:46:14Z</time>
      </trkpt>
      <trkpt lat="42.98322" lon="-0.15963">
        <ele>865.3</ele>
        <time>2009-08-18T09:46:20Z</time>
      </trkpt>
      <trkpt lat="42.98315" lon="-0.15971">
        <ele>865.2</ele>
        <time>2009-08-18T09:46:23Z</time>
      </trkpt>
      <trkpt lat="42.98303" lon="-0.15987">
        <ele>865</ele>
        <time>2009-08-18T09:46:28Z</time>
      </trkpt>
      <trkpt lat="42.98291" lon="-0.15995">
        <ele>863.9</ele>
        <time>2009-08-18T09:46:32Z</time>
      </trkpt>
      <trkpt lat="42.98276" lon="-0.16001">
        <ele>862.1</ele>
        <time>2009-08-18T09:46:36Z</time>
      </trkpt>
      <trkpt lat="42.98263" lon="-0.16003">
        <ele>860.3</ele>
        <time>2009-08-18T09:46:40Z</time>
      </trkpt>
      <trkpt lat="42.98249" lon="-0.16005">
        <ele>858.2</ele>
        <time>2009-08-18T09:46:45Z</time>
      </trkpt>
      <trkpt lat="42.9824" lon="-0.16008">
        <ele>856.6</ele>
        <time>2009-08-18T09:46:51Z</time>
      </trkpt>
      <trkpt lat="42.98237" lon="-0.1601">
        <ele>856</ele>
        <time>2009-08-18T09:46:54Z</time>
      </trkpt>
      <trkpt lat="42.98235" lon="-0.16012">
        <ele>855.6</ele>
        <time>2009-08-18T09:46:57Z</time>
      </trkpt>
      <trkpt lat="42.98229" lon="-0.16022">
        <ele>855.1</ele>
        <time>2009-08-18T09:47:06Z</time>
      </trkpt>
      <trkpt lat="42.98221" lon="-0.16032">
        <ele>854</ele>
        <time>2009-08-18T09:47:12Z</time>
      </trkpt>
      <trkpt lat="42.9822" lon="-0.16035">
        <ele>854</ele>
        <time>2009-08-18T09:47:13Z</time>
      </trkpt>
      <trkpt lat="42.98211" lon="-0.16045">
        <ele>852.6</ele>
        <time>2009-08-18T09:47:19Z</time>
      </trkpt>
      <trkpt lat="42.9821" lon="-0.16048">
        <ele>852.4</ele>
        <time>2009-08-18T09:47:20Z</time>
      </trkpt>
      <trkpt lat="42.98192" lon="-0.16077">
        <ele>849.8</ele>
        <time>2009-08-18T09:47:26Z</time>
      </trkpt>
      <trkpt lat="42.98178" lon="-0.16099">
        <ele>847.8</ele>
        <time>2009-08-18T09:47:29Z</time>
      </trkpt>
      <trkpt lat="42.98163" lon="-0.16123">
        <ele>846.3</ele>
        <time>2009-08-18T09:47:32Z</time>
      </trkpt>
      <trkpt lat="42.9815" lon="-0.16144">
        <ele>845.8</ele>
        <time>2009-08-18T09:47:35Z</time>
      </trkpt>
      <trkpt lat="42.98137" lon="-0.16161">
        <ele>844.9</ele>
        <time>2009-08-18T09:47:38Z</time>
      </trkpt>
      <trkpt lat="42.98115" lon="-0.16179">
        <ele>842.8</ele>
        <time>2009-08-18T09:47:42Z</time>
      </trkpt>
      <trkpt lat="42.98094" lon="-0.16198">
        <ele>840.8</ele>
        <time>2009-08-18T09:47:47Z</time>
      </trkpt>
      <trkpt lat="42.98085" lon="-0.16204">
        <ele>840</ele>
        <time>2009-08-18T09:47:49Z</time>
      </trkpt>
      <trkpt lat="42.98068" lon="-0.1622">
        <ele>838.3</ele>
        <time>2009-08-18T09:47:54Z</time>
      </trkpt>
      <trkpt lat="42.98057" lon="-0.16229">
        <ele>837</ele>
        <time>2009-08-18T09:47:58Z</time>
      </trkpt>
      <trkpt lat="42.98045" lon="-0.16242">
        <ele>836</ele>
        <time>2009-08-18T09:48:02Z</time>
      </trkpt>
      <trkpt lat="42.98035" lon="-0.1625">
        <ele>834.8</ele>
        <time>2009-08-18T09:48:07Z</time>
      </trkpt>
      <trkpt lat="42.98025" lon="-0.16255">
        <ele>833.3</ele>
        <time>2009-08-18T09:48:12Z</time>
      </trkpt>
      <trkpt lat="42.98018" lon="-0.16259">
        <ele>832.2</ele>
        <time>2009-08-18T09:48:18Z</time>
      </trkpt>
      <trkpt lat="42.98016" lon="-0.16267">
        <ele>831.9</ele>
        <time>2009-08-18T09:48:23Z</time>
      </trkpt>
      <trkpt lat="42.98013" lon="-0.16265">
        <ele>831.4</ele>
        <time>2009-08-18T09:48:27Z</time>
      </trkpt>
      <trkpt lat="42.98013" lon="-0.16269">
        <ele>831.5</ele>
        <time>2009-08-18T09:48:38Z</time>
      </trkpt>
      <trkpt lat="42.98018" lon="-0.16265">
        <ele>832.3</ele>
        <time>2009-08-18T09:48:46Z</time>
      </trkpt>
      <trkpt lat="42.98019" lon="-0.16265">
        <ele>832.4</ele>
        <time>2009-08-18T09:48:47Z</time>
      </trkpt>
      <trkpt lat="42.98024" lon="-0.16258">
        <ele>833.1</ele>
        <time>2009-08-18T09:48:56Z</time>
      </trkpt>
      <trkpt lat="42.98025" lon="-0.16257">
        <ele>833.3</ele>
        <time>2009-08-18T09:49:09Z</time>
      </trkpt>
      <trkpt lat="42.98031" lon="-0.16251">
        <ele>834.3</ele>
        <time>2009-08-18T09:49:17Z</time>
      </trkpt>
      <trkpt lat="42.98038" lon="-0.16246">
        <ele>835.2</ele>
        <time>2009-08-18T09:49:23Z</time>
      </trkpt>
      <trkpt lat="42.9804" lon="-0.16245">
        <ele>835.4</ele>
        <time>2009-08-18T09:49:25Z</time>
      </trkpt>
      <trkpt lat="42.98046" lon="-0.16239">
        <ele>836</ele>
        <time>2009-08-18T09:49:30Z</time>
      </trkpt>
      <trkpt lat="42.98055" lon="-0.16232">
        <ele>837</ele>
        <time>2009-08-18T09:49:37Z</time>
      </trkpt>
      <trkpt lat="42.98063" lon="-0.16226">
        <ele>837.9</ele>
        <time>2009-08-18T09:49:43Z</time>
      </trkpt>
      <trkpt lat="42.98071" lon="-0.16218">
        <ele>838.6</ele>
        <time>2009-08-18T09:49:50Z</time>
      </trkpt>
      <trkpt lat="42.98077" lon="-0.16212">
        <ele>839.3</ele>
        <time>2009-08-18T09:49:56Z</time>
      </trkpt>
      <trkpt lat="42.98084" lon="-0.16206">
        <ele>839.9</ele>
        <time>2009-08-18T09:50:02Z</time>
      </trkpt>
      <trkpt lat="42.98093" lon="-0.162">
        <ele>840.9</ele>
        <time>2009-08-18T09:50:08Z</time>
      </trkpt>
      <trkpt lat="42.98473" lon="-0.15936">
        <ele>893.2</ele>
        <time>2009-08-18T09:57:51Z</time>
      </trkpt>
      <trkpt lat="42.98473" lon="-0.15933">
        <ele>893</ele>
        <time>2009-08-18T09:57:52Z</time>
      </trkpt>
      <trkpt lat="42.98478" lon="-0.15922">
        <ele>892.9</ele>
        <time>2009-08-18T09:58:00Z</time>
      </trkpt>
      <trkpt lat="42.98486" lon="-0.15911">
        <ele>893.6</ele>
        <time>2009-08-18T09:58:06Z</time>
      </trkpt>
      <trkpt lat="42.98492" lon="-0.15902">
        <ele>894.4</ele>
        <time>2009-08-18T09:58:11Z</time>
      </trkpt>
      <trkpt lat="42.98495" lon="-0.15896">
        <ele>894.7</ele>
        <time>2009-08-18T09:58:18Z</time>
      </trkpt>
      <trkpt lat="42.98494" lon="-0.15892">
        <ele>893.9</ele>
        <time>2009-08-18T09:58:40Z</time>
      </trkpt>
      <trkpt lat="42.98498" lon="-0.15894">
        <ele>895.3</ele>
        <time>2009-08-18T09:59:06Z</time>
      </trkpt>
      <trkpt lat="42.98499" lon="-0.15892">
        <ele>895.4</ele>
        <time>2009-08-18T09:59:08Z</time>
      </trkpt>
      <trkpt lat="42.98502" lon="-0.15889">
        <ele>895.8</ele>
        <time>2009-08-18T09:59:10Z</time>
      </trkpt>
      <trkpt lat="42.98505" lon="-0.15877">
        <ele>895.5</ele>
        <time>2009-08-18T09:59:14Z</time>
      </trkpt>
      <trkpt lat="42.98512" lon="-0.15861">
        <ele>896.1</ele>
        <time>2009-08-18T09:59:19Z</time>
      </trkpt>
      <trkpt lat="42.98519" lon="-0.15846">
        <ele>896.4</ele>
        <time>2009-08-18T09:59:24Z</time>
      </trkpt>
      <trkpt lat="42.98525" lon="-0.15832">
        <ele>896.7</ele>
        <time>2009-08-18T09:59:28Z</time>
      </trkpt>
      <trkpt lat="42.98532" lon="-0.1582">
        <ele>897.6</ele>
        <time>2009-08-18T09:59:32Z</time>
      </trkpt>
      <trkpt lat="42.9854" lon="-0.15808">
        <ele>898.6</ele>
        <time>2009-08-18T09:59:37Z</time>
      </trkpt>
      <trkpt lat="42.98549" lon="-0.15796">
        <ele>900</ele>
        <time>2009-08-18T09:59:42Z</time>
      </trkpt>
      <trkpt lat="42.98559" lon="-0.15783">
        <ele>901.7</ele>
        <time>2009-08-18T09:59:47Z</time>
      </trkpt>
      <trkpt lat="42.98566" lon="-0.1577">
        <ele>902.6</ele>
        <time>2009-08-18T09:59:52Z</time>
      </trkpt>
      <trkpt lat="42.98572" lon="-0.15755">
        <ele>902.9</ele>
        <time>2009-08-18T09:59:57Z</time>
      </trkpt>
      <trkpt lat="42.98578" lon="-0.15742">
        <ele>902.9</ele>
        <time>2009-08-18T10:00:01Z</time>
      </trkpt>
      <trkpt lat="42.98586" lon="-0.1573">
        <ele>903.4</ele>
        <time>2009-08-18T10:00:05Z</time>
      </trkpt>
      <trkpt lat="42.98596" lon="-0.15715">
        <ele>904.7</ele>
        <time>2009-08-18T10:00:09Z</time>
      </trkpt>
      <trkpt lat="42.98608" lon="-0.15696">
        <ele>906.2</ele>
        <time>2009-08-18T10:00:13Z</time>
      </trkpt>
      <trkpt lat="42.98621" lon="-0.15677">
        <ele>907.4</ele>
        <time>2009-08-18T10:00:17Z</time>
      </trkpt>
      <trkpt lat="42.98624" lon="-0.15672">
        <ele>907.9</ele>
        <time>2009-08-18T10:00:18Z</time>
      </trkpt>
      <trkpt lat="42.98646" lon="-0.15657">
        <ele>913</ele>
        <time>2009-08-18T10:00:23Z</time>
      </trkpt>
      <trkpt lat="42.98651" lon="-0.15653">
        <ele>914</ele>
        <time>2009-08-18T10:00:24Z</time>
      </trkpt>
      <trkpt lat="42.98661" lon="-0.15639">
        <ele>915.1</ele>
        <time>2009-08-18T10:00:27Z</time>
      </trkpt>
      <trkpt lat="42.98666" lon="-0.15624">
        <ele>914.1</ele>
        <time>2009-08-18T10:00:30Z</time>
      </trkpt>
      <trkpt lat="42.98669" lon="-0.15612">
        <ele>913.4</ele>
        <time>2009-08-18T10:00:32Z</time>
      </trkpt>
      <trkpt lat="42.98672" lon="-0.15599">
        <ele>912.2</ele>
        <time>2009-08-18T10:00:34Z</time>
      </trkpt>
      <trkpt lat="42.9868" lon="-0.15569">
        <ele>911.9</ele>
        <time>2009-08-18T10:00:38Z</time>
      </trkpt>
      <trkpt lat="42.98685" lon="-0.15545">
        <ele>911.3</ele>
        <time>2009-08-18T10:00:41Z</time>
      </trkpt>
      <trkpt lat="42.9869" lon="-0.15521">
        <ele>910.6</ele>
        <time>2009-08-18T10:00:45Z</time>
      </trkpt>
      <trkpt lat="42.98693" lon="-0.15505">
        <ele>909.8</ele>
        <time>2009-08-18T10:00:49Z</time>
      </trkpt>
      <trkpt lat="42.98697" lon="-0.1549">
        <ele>909</ele>
        <time>2009-08-18T10:00:54Z</time>
      </trkpt>
      <trkpt lat="42.98701" lon="-0.15474">
        <ele>907.9</ele>
        <time>2009-08-18T10:01:00Z</time>
      </trkpt>
      <trkpt lat="42.98703" lon="-0.15466">
        <ele>907.2</ele>
        <time>2009-08-18T10:01:03Z</time>
      </trkpt>
      <trkpt lat="42.98712" lon="-0.1545">
        <ele>907.4</ele>
        <time>2009-08-18T10:01:10Z</time>
      </trkpt>
      <trkpt lat="42.98718" lon="-0.15437">
        <ele>907.2</ele>
        <time>2009-08-18T10:01:16Z</time>
      </trkpt>
      <trkpt lat="42.98724" lon="-0.15427">
        <ele>907.4</ele>
        <time>2009-08-18T10:01:20Z</time>
      </trkpt>
      <trkpt lat="42.98738" lon="-0.1541">
        <ele>909.3</ele>
        <time>2009-08-18T10:01:27Z</time>
      </trkpt>
      <trkpt lat="42.98746" lon="-0.15399">
        <ele>910.8</ele>
        <time>2009-08-18T10:01:34Z</time>
      </trkpt>
      <trkpt lat="42.98753" lon="-0.1539">
        <ele>911.7</ele>
        <time>2009-08-18T10:01:42Z</time>
      </trkpt>
      <trkpt lat="42.98756" lon="-0.1538">
        <ele>910.8</ele>
        <time>2009-08-18T10:01:50Z</time>
      </trkpt>
      <trkpt lat="42.98759" lon="-0.15367">
        <ele>909.1</ele>
        <time>2009-08-18T10:02:09Z</time>
      </trkpt>
      <trkpt lat="42.98763" lon="-0.15363">
        <ele>910</ele>
        <time>2009-08-18T10:02:11Z</time>
      </trkpt>
      <trkpt lat="42.98776" lon="-0.15349">
        <ele>910.9</ele>
        <time>2009-08-18T10:02:18Z</time>
      </trkpt>
      <trkpt lat="42.98778" lon="-0.15346">
        <ele>911.1</ele>
        <time>2009-08-18T10:02:19Z</time>
      </trkpt>
      <trkpt lat="42.98789" lon="-0.15337">
        <ele>912</ele>
        <time>2009-08-18T10:02:25Z</time>
      </trkpt>
      <trkpt lat="42.98798" lon="-0.15325">
        <ele>912.4</ele>
        <time>2009-08-18T10:02:31Z</time>
      </trkpt>
      <trkpt lat="42.98803" lon="-0.1532">
        <ele>912.7</ele>
        <time>2009-08-18T10:02:34Z</time>
      </trkpt>
      <trkpt lat="42.98809" lon="-0.15309">
        <ele>912.2</ele>
        <time>2009-08-18T10:02:40Z</time>
      </trkpt>
      <trkpt lat="42.98817" lon="-0.15292">
        <ele>911</ele>
        <time>2009-08-18T10:02:47Z</time>
      </trkpt>
      <trkpt lat="42.98824" lon="-0.15278">
        <ele>910.1</ele>
        <time>2009-08-18T10:02:53Z</time>
      </trkpt>
      <trkpt lat="42.98831" lon="-0.15265">
        <ele>909.6</ele>
        <time>2009-08-18T10:02:59Z</time>
      </trkpt>
      <trkpt lat="42.98842" lon="-0.15256">
        <ele>910.4</ele>
        <time>2009-08-18T10:03:05Z</time>
      </trkpt>
      <trkpt lat="42.98853" lon="-0.1525">
        <ele>911.9</ele>
        <time>2009-08-18T10:03:10Z</time>
      </trkpt>
      <trkpt lat="42.98861" lon="-0.15243">
        <ele>913.2</ele>
        <time>2009-08-18T10:03:15Z</time>
      </trkpt>
      <trkpt lat="42.98871" lon="-0.1524">
        <ele>915.1</ele>
        <time>2009-08-18T10:03:21Z</time>
      </trkpt>
      <trkpt lat="42.98881" lon="-0.15237">
        <ele>917.4</ele>
        <time>2009-08-18T10:03:27Z</time>
      </trkpt>
      <trkpt lat="42.98892" lon="-0.15232">
        <ele>919.3</ele>
        <time>2009-08-18T10:03:33Z</time>
      </trkpt>
      <trkpt lat="42.98902" lon="-0.15227">
        <ele>921.4</ele>
        <time>2009-08-18T10:03:39Z</time>
      </trkpt>
      <trkpt lat="42.98912" lon="-0.15224">
        <ele>923.5</ele>
        <time>2009-08-18T10:03:45Z</time>
      </trkpt>
      <trkpt lat="42.98922" lon="-0.15219">
        <ele>925.2</ele>
        <time>2009-08-18T10:03:51Z</time>
      </trkpt>
      <trkpt lat="42.98931" lon="-0.15212">
        <ele>926.8</ele>
        <time>2009-08-18T10:03:57Z</time>
      </trkpt>
      <trkpt lat="42.98939" lon="-0.15202">
        <ele>927.5</ele>
        <time>2009-08-18T10:04:03Z</time>
      </trkpt>
      <trkpt lat="42.98944" lon="-0.15191">
        <ele>927.5</ele>
        <time>2009-08-18T10:04:08Z</time>
      </trkpt>
      <trkpt lat="42.98949" lon="-0.1518">
        <ele>927.2</ele>
        <time>2009-08-18T10:04:13Z</time>
      </trkpt>
      <trkpt lat="42.98953" lon="-0.15168">
        <ele>926.8</ele>
        <time>2009-08-18T10:04:18Z</time>
      </trkpt>
      <trkpt lat="42.98958" lon="-0.15154">
        <ele>925.9</ele>
        <time>2009-08-18T10:04:24Z</time>
      </trkpt>
      <trkpt lat="42.98962" lon="-0.1514">
        <ele>924.6</ele>
        <time>2009-08-18T10:04:30Z</time>
      </trkpt>
      <trkpt lat="42.98966" lon="-0.15125">
        <ele>923.2</ele>
        <time>2009-08-18T10:04:36Z</time>
      </trkpt>
      <trkpt lat="42.98973" lon="-0.15113">
        <ele>923</ele>
        <time>2009-08-18T10:04:41Z</time>
      </trkpt>
      <trkpt lat="42.98984" lon="-0.15099">
        <ele>923.7</ele>
        <time>2009-08-18T10:04:46Z</time>
      </trkpt>
      <trkpt lat="42.98995" lon="-0.15092">
        <ele>925.2</ele>
        <time>2009-08-18T10:04:50Z</time>
      </trkpt>
      <trkpt lat="42.99008" lon="-0.15089">
        <ele>926.6</ele>
        <time>2009-08-18T10:04:54Z</time>
      </trkpt>
      <trkpt lat="42.99018" lon="-0.15085">
        <ele>926.7</ele>
        <time>2009-08-18T10:04:57Z</time>
      </trkpt>
      <trkpt lat="42.99036" lon="-0.15071">
        <ele>925.6</ele>
        <time>2009-08-18T10:05:02Z</time>
      </trkpt>
      <trkpt lat="42.99049" lon="-0.15059">
        <ele>924.6</ele>
        <time>2009-08-18T10:05:06Z</time>
      </trkpt>
      <trkpt lat="42.9906" lon="-0.1505">
        <ele>923.9</ele>
        <time>2009-08-18T10:05:10Z</time>
      </trkpt>
      <trkpt lat="42.99069" lon="-0.15044">
        <ele>923.5</ele>
        <time>2009-08-18T10:05:15Z</time>
      </trkpt>
      <trkpt lat="42.99072" lon="-0.15042">
        <ele>923.5</ele>
        <time>2009-08-18T10:05:19Z</time>
      </trkpt>
      <trkpt lat="42.99078" lon="-0.1504">
        <ele>923.7</ele>
        <time>2009-08-18T10:05:34Z</time>
      </trkpt>
      <trkpt lat="42.9908" lon="-0.15039">
        <ele>923.6</ele>
        <time>2009-08-18T10:05:52Z</time>
      </trkpt>
      <trkpt lat="42.99092" lon="-0.15028">
        <ele>923.6</ele>
        <time>2009-08-18T10:05:58Z</time>
      </trkpt>
      <trkpt lat="42.99094" lon="-0.15028">
        <ele>924</ele>
        <time>2009-08-18T10:06:28Z</time>
      </trkpt>
      <trkpt lat="42.99103" lon="-0.15022">
        <ele>924.7</ele>
        <time>2009-08-18T10:07:06Z</time>
      </trkpt>
      <trkpt lat="42.99115" lon="-0.15014">
        <ele>925.7</ele>
        <time>2009-08-18T10:07:10Z</time>
      </trkpt>
      <trkpt lat="42.99127" lon="-0.14986">
        <ele>925.8</ele>
        <time>2009-08-18T10:07:15Z</time>
      </trkpt>
      <trkpt lat="42.9913" lon="-0.14966">
        <ele>926.2</ele>
        <time>2009-08-18T10:07:18Z</time>
      </trkpt>
      <trkpt lat="42.99135" lon="-0.14941">
        <ele>926.9</ele>
        <time>2009-08-18T10:07:23Z</time>
      </trkpt>
      <trkpt lat="42.99137" lon="-0.14923">
        <ele>927.1</ele>
        <time>2009-08-18T10:07:28Z</time>
      </trkpt>
      <trkpt lat="42.99142" lon="-0.14908">
        <ele>927.5</ele>
        <time>2009-08-18T10:07:32Z</time>
      </trkpt>
      <trkpt lat="42.99147" lon="-0.14894">
        <ele>927.6</ele>
        <time>2009-08-18T10:07:36Z</time>
      </trkpt>
      <trkpt lat="42.99154" lon="-0.1488">
        <ele>927.7</ele>
        <time>2009-08-18T10:07:40Z</time>
      </trkpt>
      <trkpt lat="42.99163" lon="-0.14868">
        <ele>928.1</ele>
        <time>2009-08-18T10:07:44Z</time>
      </trkpt>
      <trkpt lat="42.99178" lon="-0.14865">
        <ele>929.3</ele>
        <time>2009-08-18T10:07:49Z</time>
      </trkpt>
      <trkpt lat="42.9919" lon="-0.14867">
        <ele>930.6</ele>
        <time>2009-08-18T10:07:54Z</time>
      </trkpt>
      <trkpt lat="42.99201" lon="-0.14865">
        <ele>931.5</ele>
        <time>2009-08-18T10:07:58Z</time>
      </trkpt>
      <trkpt lat="42.99211" lon="-0.1486">
        <ele>931.8</ele>
        <time>2009-08-18T10:08:03Z</time>
      </trkpt>
      <trkpt lat="42.99213" lon="-0.14859">
        <ele>931.9</ele>
        <time>2009-08-18T10:08:28Z</time>
      </trkpt>
      <trkpt lat="42.99211" lon="-0.14856">
        <ele>931.3</ele>
        <time>2009-08-18T10:08:51Z</time>
      </trkpt>
      <trkpt lat="42.99227" lon="-0.14846">
        <ele>931.2</ele>
        <time>2009-08-18T10:08:57Z</time>
      </trkpt>
      <trkpt lat="42.99241" lon="-0.14837">
        <ele>931</ele>
        <time>2009-08-18T10:09:01Z</time>
      </trkpt>
      <trkpt lat="42.99255" lon="-0.14827">
        <ele>932.2</ele>
        <time>2009-08-18T10:09:06Z</time>
      </trkpt>
      <trkpt lat="42.99265" lon="-0.14819">
        <ele>935.6</ele>
        <time>2009-08-18T10:09:11Z</time>
      </trkpt>
      <trkpt lat="42.99275" lon="-0.14809">
        <ele>938.6</ele>
        <time>2009-08-18T10:09:16Z</time>
      </trkpt>
      <trkpt lat="42.99276" lon="-0.14805">
        <ele>938.7</ele>
        <time>2009-08-18T10:09:18Z</time>
      </trkpt>
      <trkpt lat="42.99278" lon="-0.14785">
        <ele>937.3</ele>
        <time>2009-08-18T10:09:24Z</time>
      </trkpt>
      <trkpt lat="42.99278" lon="-0.14764">
        <ele>935.2</ele>
        <time>2009-08-18T10:09:28Z</time>
      </trkpt>
      <trkpt lat="42.99274" lon="-0.14747">
        <ele>931.8</ele>
        <time>2009-08-18T10:09:31Z</time>
      </trkpt>
      <trkpt lat="42.99261" lon="-0.14723">
        <ele>925.7</ele>
        <time>2009-08-18T10:09:36Z</time>
      </trkpt>
      <trkpt lat="42.99256" lon="-0.14706">
        <ele>923.5</ele>
        <time>2009-08-18T10:09:40Z</time>
      </trkpt>
      <trkpt lat="42.99259" lon="-0.14686">
        <ele>925.2</ele>
        <time>2009-08-18T10:09:45Z</time>
      </trkpt>
      <trkpt lat="42.99269" lon="-0.14669">
        <ele>929.6</ele>
        <time>2009-08-18T10:09:49Z</time>
      </trkpt>
      <trkpt lat="42.99271" lon="-0.14652">
        <ele>930.5</ele>
        <time>2009-08-18T10:09:53Z</time>
      </trkpt>
      <trkpt lat="42.99273" lon="-0.14638">
        <ele>931.6</ele>
        <time>2009-08-18T10:09:58Z</time>
      </trkpt>
      <trkpt lat="42.99275" lon="-0.14629">
        <ele>932.5</ele>
        <time>2009-08-18T10:10:02Z</time>
      </trkpt>
      <trkpt lat="42.99278" lon="-0.14611">
        <ele>933.6</ele>
        <time>2009-08-18T10:10:09Z</time>
      </trkpt>
      <trkpt lat="42.99274" lon="-0.14599">
        <ele>932</ele>
        <time>2009-08-18T10:10:14Z</time>
      </trkpt>
      <trkpt lat="42.99274" lon="-0.14586">
        <ele>932</ele>
        <time>2009-08-18T10:10:19Z</time>
      </trkpt>
      <trkpt lat="42.99274" lon="-0.1458">
        <ele>931.8</ele>
        <time>2009-08-18T10:10:22Z</time>
      </trkpt>
      <trkpt lat="42.99267" lon="-0.14566">
        <ele>927.4</ele>
        <time>2009-08-18T10:10:29Z</time>
      </trkpt>
      <trkpt lat="42.99266" lon="-0.14561">
        <ele>926.8</ele>
        <time>2009-08-18T10:10:40Z</time>
      </trkpt>
      <trkpt lat="42.99265" lon="-0.14556">
        <ele>925.7</ele>
        <time>2009-08-18T10:10:53Z</time>
      </trkpt>
      <trkpt lat="42.99261" lon="-0.14542">
        <ele>922.7</ele>
        <time>2009-08-18T10:11:00Z</time>
      </trkpt>
      <trkpt lat="42.99257" lon="-0.14532">
        <ele>920.2</ele>
        <time>2009-08-18T10:11:05Z</time>
      </trkpt>
      <trkpt lat="42.99257" lon="-0.14512">
        <ele>918.6</ele>
        <time>2009-08-18T10:11:11Z</time>
      </trkpt>
      <trkpt lat="42.99258" lon="-0.1449">
        <ele>915.9</ele>
        <time>2009-08-18T10:11:15Z</time>
      </trkpt>
      <trkpt lat="42.99259" lon="-0.14477">
        <ele>913.8</ele>
        <time>2009-08-18T10:11:17Z</time>
      </trkpt>
      <trkpt lat="42.99262" lon="-0.14437">
        <ele>906.6</ele>
        <time>2009-08-18T10:11:22Z</time>
      </trkpt>
      <trkpt lat="42.99267" lon="-0.14405">
        <ele>903.1</ele>
        <time>2009-08-18T10:11:25Z</time>
      </trkpt>
      <trkpt lat="42.9927" lon="-0.14386">
        <ele>902.4</ele>
        <time>2009-08-18T10:11:29Z</time>
      </trkpt>
      <trkpt lat="42.99271" lon="-0.14379">
        <ele>901.4</ele>
        <time>2009-08-18T10:11:32Z</time>
      </trkpt>
      <trkpt lat="42.99272" lon="-0.14365">
        <ele>899.8</ele>
        <time>2009-08-18T10:11:37Z</time>
      </trkpt>
      <trkpt lat="42.99272" lon="-0.14345">
        <ele>897.2</ele>
        <time>2009-08-18T10:11:43Z</time>
      </trkpt>
      <trkpt lat="42.99269" lon="-0.14332">
        <ele>893.7</ele>
        <time>2009-08-18T10:11:49Z</time>
      </trkpt>
      <trkpt lat="42.99267" lon="-0.14328">
        <ele>892</ele>
        <time>2009-08-18T10:11:51Z</time>
      </trkpt>
      <trkpt lat="42.99267" lon="-0.14312">
        <ele>889.1</ele>
        <time>2009-08-18T10:11:57Z</time>
      </trkpt>
      <trkpt lat="42.99269" lon="-0.14297">
        <ele>887.2</ele>
        <time>2009-08-18T10:12:01Z</time>
      </trkpt>
      <trkpt lat="42.99268" lon="-0.14292">
        <ele>886.3</ele>
        <time>2009-08-18T10:12:02Z</time>
      </trkpt>
      <trkpt lat="42.9927" lon="-0.14265">
        <ele>882.5</ele>
        <time>2009-08-18T10:12:07Z</time>
      </trkpt>
      <trkpt lat="42.99278" lon="-0.14234">
        <ele>880.5</ele>
        <time>2009-08-18T10:12:11Z</time>
      </trkpt>
      <trkpt lat="42.99282" lon="-0.14228">
        <ele>880.6</ele>
        <time>2009-08-18T10:12:12Z</time>
      </trkpt>
      <trkpt lat="42.99289" lon="-0.14208">
        <ele>879.6</ele>
        <time>2009-08-18T10:12:18Z</time>
      </trkpt>
      <trkpt lat="42.99292" lon="-0.14197">
        <ele>878.4</ele>
        <time>2009-08-18T10:12:22Z</time>
      </trkpt>
      <trkpt lat="42.993" lon="-0.14187">
        <ele>879.3</ele>
        <time>2009-08-18T10:12:28Z</time>
      </trkpt>
      <trkpt lat="42.99309" lon="-0.14172">
        <ele>879.1</ele>
        <time>2009-08-18T10:12:34Z</time>
      </trkpt>
      <trkpt lat="42.99313" lon="-0.14159">
        <ele>877.2</ele>
        <time>2009-08-18T10:12:39Z</time>
      </trkpt>
      <trkpt lat="42.99313" lon="-0.14147">
        <ele>874.2</ele>
        <time>2009-08-18T10:12:43Z</time>
      </trkpt>
      <trkpt lat="42.99323" lon="-0.14125">
        <ele>871.2</ele>
        <time>2009-08-18T10:12:49Z</time>
      </trkpt>
      <trkpt lat="42.99335" lon="-0.14095">
        <ele>866.5</ele>
        <time>2009-08-18T10:12:54Z</time>
      </trkpt>
      <trkpt lat="42.99339" lon="-0.14069">
        <ele>863.4</ele>
        <time>2009-08-18T10:12:59Z</time>
      </trkpt>
      <trkpt lat="42.99343" lon="-0.14053">
        <ele>862.4</ele>
        <time>2009-08-18T10:13:03Z</time>
      </trkpt>
      <trkpt lat="42.99348" lon="-0.14034">
        <ele>862.1</ele>
        <time>2009-08-18T10:13:07Z</time>
      </trkpt>
      <trkpt lat="42.99353" lon="-0.14017">
        <ele>861</ele>
        <time>2009-08-18T10:13:11Z</time>
      </trkpt>
      <trkpt lat="42.99352" lon="-0.14013">
        <ele>859.9</ele>
        <time>2009-08-18T10:13:12Z</time>
      </trkpt>
      <trkpt lat="42.99359" lon="-0.13988">
        <ele>859.7</ele>
        <time>2009-08-18T10:13:17Z</time>
      </trkpt>
      <trkpt lat="42.99366" lon="-0.13974">
        <ele>861.2</ele>
        <time>2009-08-18T10:13:21Z</time>
      </trkpt>
      <trkpt lat="42.99351" lon="-0.13975">
        <ele>853.9</ele>
        <time>2009-08-18T10:13:27Z</time>
      </trkpt>
      <trkpt lat="42.99338" lon="-0.13979">
        <ele>848</ele>
        <time>2009-08-18T10:13:34Z</time>
      </trkpt>
      <trkpt lat="42.99333" lon="-0.13982">
        <ele>845.9</ele>
        <time>2009-08-18T10:13:37Z</time>
      </trkpt>
      <trkpt lat="42.99326" lon="-0.13983">
        <ele>844.7</ele>
        <time>2009-08-18T10:13:44Z</time>
      </trkpt>
      <trkpt lat="42.99331" lon="-0.13973">
        <ele>844.9</ele>
        <time>2009-08-18T10:13:50Z</time>
      </trkpt>
      <trkpt lat="42.99336" lon="-0.1397">
        <ele>846.5</ele>
        <time>2009-08-18T10:13:57Z</time>
      </trkpt>
      <trkpt lat="42.99338" lon="-0.13968">
        <ele>847.1</ele>
        <time>2009-08-18T10:14:04Z</time>
      </trkpt>
      <trkpt lat="42.99338" lon="-0.13971">
        <ele>847.3</ele>
        <time>2009-08-18T10:14:08Z</time>
      </trkpt>
      <trkpt lat="42.99327" lon="-0.13975">
        <ele>844.3</ele>
        <time>2009-08-18T10:14:17Z</time>
      </trkpt>
      <trkpt lat="42.99323" lon="-0.1398">
        <ele>843.8</ele>
        <time>2009-08-18T10:14:22Z</time>
      </trkpt>
      <trkpt lat="42.99324" lon="-0.13975">
        <ele>843.7</ele>
        <time>2009-08-18T10:14:31Z</time>
      </trkpt>
      <trkpt lat="42.99326" lon="-0.13977">
        <ele>844.2</ele>
        <time>2009-08-18T10:14:35Z</time>
      </trkpt>
      <trkpt lat="42.99328" lon="-0.13974">
        <ele>844.4</ele>
        <time>2009-08-18T10:14:39Z</time>
      </trkpt>
      <trkpt lat="42.99322" lon="-0.13978">
        <ele>843.5</ele>
        <time>2009-08-18T10:14:48Z</time>
      </trkpt>
      <trkpt lat="42.99324" lon="-0.13978">
        <ele>843.9</ele>
        <time>2009-08-18T10:14:57Z</time>
      </trkpt>
      <trkpt lat="42.99324" lon="-0.13976">
        <ele>843.8</ele>
        <time>2009-08-18T10:15:05Z</time>
      </trkpt>
      <trkpt lat="42.99329" lon="-0.13975">
        <ele>844.7</ele>
        <time>2009-08-18T10:15:11Z</time>
      </trkpt>
      <trkpt lat="42.99336" lon="-0.1397">
        <ele>846.3</ele>
        <time>2009-08-18T10:15:21Z</time>
      </trkpt>
      <trkpt lat="42.99331" lon="-0.13975">
        <ele>845</ele>
        <time>2009-08-18T10:15:29Z</time>
      </trkpt>
      <trkpt lat="42.99329" lon="-0.13975">
        <ele>844.7</ele>
        <time>2009-08-18T10:15:32Z</time>
      </trkpt>
      <trkpt lat="42.99333" lon="-0.1397">
        <ele>845.2</ele>
        <time>2009-08-18T10:15:38Z</time>
      </trkpt>
      <trkpt lat="42.99339" lon="-0.1397">
        <ele>848.1</ele>
        <time>2009-08-18T10:15:42Z</time>
      </trkpt>
      <trkpt lat="42.99349" lon="-0.13964">
        <ele>852</ele>
        <time>2009-08-18T10:15:49Z</time>
      </trkpt>
      <trkpt lat="42.99358" lon="-0.13956">
        <ele>855.5</ele>
        <time>2009-08-18T10:15:56Z</time>
      </trkpt>
      <trkpt lat="42.99364" lon="-0.13944">
        <ele>856.9</ele>
        <time>2009-08-18T10:16:02Z</time>
      </trkpt>
      <trkpt lat="42.99368" lon="-0.1393">
        <ele>856.8</ele>
        <time>2009-08-18T10:16:07Z</time>
      </trkpt>
      <trkpt lat="42.9937" lon="-0.13917">
        <ele>855.5</ele>
        <time>2009-08-18T10:16:12Z</time>
      </trkpt>
      <trkpt lat="42.99369" lon="-0.13914">
        <ele>855.2</ele>
        <time>2009-08-18T10:16:13Z</time>
      </trkpt>
      <trkpt lat="42.99371" lon="-0.13898">
        <ele>855.4</ele>
        <time>2009-08-18T10:16:20Z</time>
      </trkpt>
      <trkpt lat="42.99374" lon="-0.13885">
        <ele>855.8</ele>
        <time>2009-08-18T10:16:25Z</time>
      </trkpt>
      <trkpt lat="42.99375" lon="-0.13879">
        <ele>856</ele>
        <time>2009-08-18T10:16:27Z</time>
      </trkpt>
      <trkpt lat="42.9938" lon="-0.13866">
        <ele>857.1</ele>
        <time>2009-08-18T10:16:33Z</time>
      </trkpt>
      <trkpt lat="42.99386" lon="-0.1385">
        <ele>858.1</ele>
        <time>2009-08-18T10:16:40Z</time>
      </trkpt>
      <trkpt lat="42.99396" lon="-0.13841">
        <ele>860.5</ele>
        <time>2009-08-18T10:16:46Z</time>
      </trkpt>
      <trkpt lat="42.99404" lon="-0.13833">
        <ele>862.4</ele>
        <time>2009-08-18T10:16:51Z</time>
      </trkpt>
      <trkpt lat="42.99413" lon="-0.13828">
        <ele>865.3</ele>
        <time>2009-08-18T10:16:56Z</time>
      </trkpt>
      <trkpt lat="42.99422" lon="-0.1382">
        <ele>868.7</ele>
        <time>2009-08-18T10:17:01Z</time>
      </trkpt>
      <trkpt lat="42.99425" lon="-0.13807">
        <ele>870.8</ele>
        <time>2009-08-18T10:17:06Z</time>
      </trkpt>
      <trkpt lat="42.99422" lon="-0.13793">
        <ele>870.4</ele>
        <time>2009-08-18T10:17:11Z</time>
      </trkpt>
      <trkpt lat="42.99418" lon="-0.1378">
        <ele>869.1</ele>
        <time>2009-08-18T10:17:16Z</time>
      </trkpt>
      <trkpt lat="42.99414" lon="-0.13768">
        <ele>868.3</ele>
        <time>2009-08-18T10:17:21Z</time>
      </trkpt>
      <trkpt lat="42.99412" lon="-0.13755">
        <ele>868.1</ele>
        <time>2009-08-18T10:17:26Z</time>
      </trkpt>
      <trkpt lat="42.99411" lon="-0.13743">
        <ele>867.9</ele>
        <time>2009-08-18T10:17:31Z</time>
      </trkpt>
      <trkpt lat="42.99408" lon="-0.13729">
        <ele>867.1</ele>
        <time>2009-08-18T10:17:37Z</time>
      </trkpt>
      <trkpt lat="42.99408" lon="-0.13716">
        <ele>867</ele>
        <time>2009-08-18T10:17:42Z</time>
      </trkpt>
      <trkpt lat="42.99407" lon="-0.13703">
        <ele>867</ele>
        <time>2009-08-18T10:17:47Z</time>
      </trkpt>
      <trkpt lat="42.99408" lon="-0.1369">
        <ele>867.3</ele>
        <time>2009-08-18T10:17:52Z</time>
      </trkpt>
      <trkpt lat="42.99408" lon="-0.13677">
        <ele>867.5</ele>
        <time>2009-08-18T10:17:57Z</time>
      </trkpt>
      <trkpt lat="42.99408" lon="-0.13664">
        <ele>867.6</ele>
        <time>2009-08-18T10:18:02Z</time>
      </trkpt>
      <trkpt lat="42.99409" lon="-0.13651">
        <ele>867.5</ele>
        <time>2009-08-18T10:18:07Z</time>
      </trkpt>
      <trkpt lat="42.99411" lon="-0.13639">
        <ele>868.2</ele>
        <time>2009-08-18T10:18:12Z</time>
      </trkpt>
      <trkpt lat="42.99412" lon="-0.13626">
        <ele>868.7</ele>
        <time>2009-08-18T10:18:17Z</time>
      </trkpt>
      <trkpt lat="42.99416" lon="-0.13615">
        <ele>870.3</ele>
        <time>2009-08-18T10:18:22Z</time>
      </trkpt>
      <trkpt lat="42.99419" lon="-0.13603">
        <ele>871.2</ele>
        <time>2009-08-18T10:18:27Z</time>
      </trkpt>
      <trkpt lat="42.99422" lon="-0.13592">
        <ele>872.2</ele>
        <time>2009-08-18T10:18:32Z</time>
      </trkpt>
      <trkpt lat="42.99428" lon="-0.1358">
        <ele>873.8</ele>
        <time>2009-08-18T10:18:38Z</time>
      </trkpt>
      <trkpt lat="42.99434" lon="-0.13568">
        <ele>874</ele>
        <time>2009-08-18T10:18:44Z</time>
      </trkpt>
      <trkpt lat="42.99442" lon="-0.13559">
        <ele>875.4</ele>
        <time>2009-08-18T10:18:50Z</time>
      </trkpt>
      <trkpt lat="42.99452" lon="-0.1355">
        <ele>877.3</ele>
        <time>2009-08-18T10:18:56Z</time>
      </trkpt>
      <trkpt lat="42.99462" lon="-0.13544">
        <ele>880.4</ele>
        <time>2009-08-18T10:19:02Z</time>
      </trkpt>
      <trkpt lat="42.99471" lon="-0.13536">
        <ele>882.6</ele>
        <time>2009-08-18T10:19:07Z</time>
      </trkpt>
      <trkpt lat="42.99478" lon="-0.13528">
        <ele>883.9</ele>
        <time>2009-08-18T10:19:12Z</time>
      </trkpt>
      <trkpt lat="42.99485" lon="-0.1352">
        <ele>885.3</ele>
        <time>2009-08-18T10:19:17Z</time>
      </trkpt>
      <trkpt lat="42.99491" lon="-0.1351">
        <ele>885.9</ele>
        <time>2009-08-18T10:19:22Z</time>
      </trkpt>
      <trkpt lat="42.99498" lon="-0.13499">
        <ele>886.9</ele>
        <time>2009-08-18T10:19:28Z</time>
      </trkpt>
      <trkpt lat="42.99504" lon="-0.13488">
        <ele>886.5</ele>
        <time>2009-08-18T10:19:33Z</time>
      </trkpt>
      <trkpt lat="42.99512" lon="-0.13477">
        <ele>886.7</ele>
        <time>2009-08-18T10:19:39Z</time>
      </trkpt>
      <trkpt lat="42.99518" lon="-0.13468">
        <ele>886.9</ele>
        <time>2009-08-18T10:19:44Z</time>
      </trkpt>
      <trkpt lat="42.99525" lon="-0.13457">
        <ele>887.7</ele>
        <time>2009-08-18T10:19:50Z</time>
      </trkpt>
      <trkpt lat="42.99533" lon="-0.13449">
        <ele>889</ele>
        <time>2009-08-18T10:19:55Z</time>
      </trkpt>
      <trkpt lat="42.99539" lon="-0.13438">
        <ele>889.4</ele>
        <time>2009-08-18T10:20:00Z</time>
      </trkpt>
      <trkpt lat="42.99544" lon="-0.13427">
        <ele>888.7</ele>
        <time>2009-08-18T10:20:05Z</time>
      </trkpt>
      <trkpt lat="42.99547" lon="-0.13413">
        <ele>887.1</ele>
        <time>2009-08-18T10:20:10Z</time>
      </trkpt>
      <trkpt lat="42.9955" lon="-0.134">
        <ele>884.3</ele>
        <time>2009-08-18T10:20:15Z</time>
      </trkpt>
      <trkpt lat="42.99553" lon="-0.13387">
        <ele>882.1</ele>
        <time>2009-08-18T10:20:20Z</time>
      </trkpt>
      <trkpt lat="42.99558" lon="-0.13374">
        <ele>880.4</ele>
        <time>2009-08-18T10:20:25Z</time>
      </trkpt>
      <trkpt lat="42.99564" lon="-0.13364">
        <ele>880.4</ele>
        <time>2009-08-18T10:20:30Z</time>
      </trkpt>
      <trkpt lat="42.99574" lon="-0.1336">
        <ele>883.8</ele>
        <time>2009-08-18T10:20:35Z</time>
      </trkpt>
      <trkpt lat="42.99584" lon="-0.13363">
        <ele>889.4</ele>
        <time>2009-08-18T10:20:40Z</time>
      </trkpt>
      <trkpt lat="42.99594" lon="-0.13367">
        <ele>892.4</ele>
        <time>2009-08-18T10:20:45Z</time>
      </trkpt>
      <trkpt lat="42.99604" lon="-0.1337">
        <ele>895.2</ele>
        <time>2009-08-18T10:20:50Z</time>
      </trkpt>
      <trkpt lat="42.99615" lon="-0.13372">
        <ele>897.9</ele>
        <time>2009-08-18T10:20:55Z</time>
      </trkpt>
      <trkpt lat="42.99626" lon="-0.13375">
        <ele>900.7</ele>
        <time>2009-08-18T10:21:00Z</time>
      </trkpt>
      <trkpt lat="42.99636" lon="-0.13378">
        <ele>903.3</ele>
        <time>2009-08-18T10:21:05Z</time>
      </trkpt>
      <trkpt lat="42.99647" lon="-0.13379">
        <ele>905.6</ele>
        <time>2009-08-18T10:21:10Z</time>
      </trkpt>
      <trkpt lat="42.99658" lon="-0.13379">
        <ele>907.7</ele>
        <time>2009-08-18T10:21:15Z</time>
      </trkpt>
      <trkpt lat="42.99669" lon="-0.1338">
        <ele>909.6</ele>
        <time>2009-08-18T10:21:20Z</time>
      </trkpt>
      <trkpt lat="42.99679" lon="-0.13382">
        <ele>910.5</ele>
        <time>2009-08-18T10:21:25Z</time>
      </trkpt>
      <trkpt lat="42.9969" lon="-0.13384">
        <ele>911.5</ele>
        <time>2009-08-18T10:21:30Z</time>
      </trkpt>
      <trkpt lat="42.99701" lon="-0.13388">
        <ele>912.8</ele>
        <time>2009-08-18T10:21:36Z</time>
      </trkpt>
      <trkpt lat="42.99711" lon="-0.13391">
        <ele>914</ele>
        <time>2009-08-18T10:21:41Z</time>
      </trkpt>
      <trkpt lat="42.99722" lon="-0.13394">
        <ele>915.1</ele>
        <time>2009-08-18T10:21:46Z</time>
      </trkpt>
      <trkpt lat="42.99732" lon="-0.13396">
        <ele>915.7</ele>
        <time>2009-08-18T10:21:51Z</time>
      </trkpt>
      <trkpt lat="42.99744" lon="-0.13397">
        <ele>916.4</ele>
        <time>2009-08-18T10:21:56Z</time>
      </trkpt>
      <trkpt lat="42.99755" lon="-0.13397">
        <ele>917</ele>
        <time>2009-08-18T10:22:01Z</time>
      </trkpt>
      <trkpt lat="42.99766" lon="-0.13397">
        <ele>918.2</ele>
        <time>2009-08-18T10:22:06Z</time>
      </trkpt>
      <trkpt lat="42.99778" lon="-0.13396">
        <ele>919.4</ele>
        <time>2009-08-18T10:22:11Z</time>
      </trkpt>
      <trkpt lat="42.99788" lon="-0.13396">
        <ele>920.5</ele>
        <time>2009-08-18T10:22:16Z</time>
      </trkpt>
      <trkpt lat="42.99798" lon="-0.13395">
        <ele>921.5</ele>
        <time>2009-08-18T10:22:21Z</time>
      </trkpt>
      <trkpt lat="42.99808" lon="-0.13393">
        <ele>922.2</ele>
        <time>2009-08-18T10:22:26Z</time>
      </trkpt>
      <trkpt lat="42.99818" lon="-0.13391">
        <ele>923</ele>
        <time>2009-08-18T10:22:31Z</time>
      </trkpt>
      <trkpt lat="42.99828" lon="-0.1339">
        <ele>923.9</ele>
        <time>2009-08-18T10:22:36Z</time>
      </trkpt>
      <trkpt lat="42.99838" lon="-0.13385">
        <ele>924.7</ele>
        <time>2009-08-18T10:22:41Z</time>
      </trkpt>
      <trkpt lat="42.99848" lon="-0.13376">
        <ele>925.7</ele>
        <time>2009-08-18T10:22:46Z</time>
      </trkpt>
      <trkpt lat="42.99858" lon="-0.13364">
        <ele>926.2</ele>
        <time>2009-08-18T10:22:51Z</time>
      </trkpt>
      <trkpt lat="42.99866" lon="-0.13354">
        <ele>926.6</ele>
        <time>2009-08-18T10:22:56Z</time>
      </trkpt>
      <trkpt lat="42.99876" lon="-0.13345">
        <ele>928.3</ele>
        <time>2009-08-18T10:23:01Z</time>
      </trkpt>
      <trkpt lat="42.99886" lon="-0.13336">
        <ele>929.7</ele>
        <time>2009-08-18T10:23:06Z</time>
      </trkpt>
      <trkpt lat="42.99895" lon="-0.13327">
        <ele>931.1</ele>
        <time>2009-08-18T10:23:11Z</time>
      </trkpt>
      <trkpt lat="42.99905" lon="-0.13319">
        <ele>932.5</ele>
        <time>2009-08-18T10:23:16Z</time>
      </trkpt>
      <trkpt lat="42.99916" lon="-0.13311">
        <ele>933.8</ele>
        <time>2009-08-18T10:23:21Z</time>
      </trkpt>
      <trkpt lat="42.99926" lon="-0.13303">
        <ele>934.1</ele>
        <time>2009-08-18T10:23:26Z</time>
      </trkpt>
      <trkpt lat="42.99938" lon="-0.13297">
        <ele>935</ele>
        <time>2009-08-18T10:23:31Z</time>
      </trkpt>
      <trkpt lat="42.99949" lon="-0.13293">
        <ele>935.9</ele>
        <time>2009-08-18T10:23:36Z</time>
      </trkpt>
      <trkpt lat="42.99959" lon="-0.13284">
        <ele>935.8</ele>
        <time>2009-08-18T10:23:41Z</time>
      </trkpt>
      <trkpt lat="42.99966" lon="-0.13272">
        <ele>934.2</ele>
        <time>2009-08-18T10:23:46Z</time>
      </trkpt>
      <trkpt lat="42.99972" lon="-0.13258">
        <ele>932.1</ele>
        <time>2009-08-18T10:23:51Z</time>
      </trkpt>
      <trkpt lat="42.99977" lon="-0.13244">
        <ele>930.3</ele>
        <time>2009-08-18T10:23:56Z</time>
      </trkpt>
      <trkpt lat="42.99982" lon="-0.1323">
        <ele>929.6</ele>
        <time>2009-08-18T10:24:01Z</time>
      </trkpt>
      <trkpt lat="42.99992" lon="-0.13223">
        <ele>930.2</ele>
        <time>2009-08-18T10:24:06Z</time>
      </trkpt>
      <trkpt lat="43.00005" lon="-0.13223">
        <ele>931.6</ele>
        <time>2009-08-18T10:24:11Z</time>
      </trkpt>
      <trkpt lat="43.00018" lon="-0.13226">
        <ele>932.5</ele>
        <time>2009-08-18T10:24:16Z</time>
      </trkpt>
      <trkpt lat="43.00031" lon="-0.13228">
        <ele>933.3</ele>
        <time>2009-08-18T10:24:20Z</time>
      </trkpt>
      <trkpt lat="43.00046" lon="-0.13229">
        <ele>934.2</ele>
        <time>2009-08-18T10:24:24Z</time>
      </trkpt>
      <trkpt lat="43.00061" lon="-0.1323">
        <ele>935</ele>
        <time>2009-08-18T10:24:28Z</time>
      </trkpt>
      <trkpt lat="43.00078" lon="-0.13229">
        <ele>935.5</ele>
        <time>2009-08-18T10:24:32Z</time>
      </trkpt>
      <trkpt lat="43.00086" lon="-0.13229">
        <ele>935.8</ele>
        <time>2009-08-18T10:24:34Z</time>
      </trkpt>
      <trkpt lat="43.00107" lon="-0.1323">
        <ele>936.9</ele>
        <time>2009-08-18T10:24:39Z</time>
      </trkpt>
      <trkpt lat="43.00124" lon="-0.1323">
        <ele>937.5</ele>
        <time>2009-08-18T10:24:43Z</time>
      </trkpt>
      <trkpt lat="43.00141" lon="-0.13229">
        <ele>938</ele>
        <time>2009-08-18T10:24:47Z</time>
      </trkpt>
      <trkpt lat="43.00158" lon="-0.13227">
        <ele>938.3</ele>
        <time>2009-08-18T10:24:51Z</time>
      </trkpt>
      <trkpt lat="43.00162" lon="-0.13226">
        <ele>938.4</ele>
        <time>2009-08-18T10:24:52Z</time>
      </trkpt>
      <trkpt lat="43.00182" lon="-0.13225">
        <ele>939.4</ele>
        <time>2009-08-18T10:24:57Z</time>
      </trkpt>
      <trkpt lat="43.00197" lon="-0.13224">
        <ele>940</ele>
        <time>2009-08-18T10:25:01Z</time>
      </trkpt>
      <trkpt lat="43.00212" lon="-0.13223">
        <ele>940.8</ele>
        <time>2009-08-18T10:25:05Z</time>
      </trkpt>
      <trkpt lat="43.00224" lon="-0.13222">
        <ele>941.4</ele>
        <time>2009-08-18T10:25:08Z</time>
      </trkpt>
      <trkpt lat="43.00247" lon="-0.1322">
        <ele>942.7</ele>
        <time>2009-08-18T10:25:13Z</time>
      </trkpt>
      <trkpt lat="43.00251" lon="-0.1322">
        <ele>942.9</ele>
        <time>2009-08-18T10:25:14Z</time>
      </trkpt>
      <trkpt lat="43.00268" lon="-0.1324">
        <ele>944.8</ele>
        <time>2009-08-18T10:25:19Z</time>
      </trkpt>
      <trkpt lat="43.00274" lon="-0.13271">
        <ele>945.7</ele>
        <time>2009-08-18T10:25:24Z</time>
      </trkpt>
      <trkpt lat="43.00276" lon="-0.13277">
        <ele>945.8</ele>
        <time>2009-08-18T10:25:25Z</time>
      </trkpt>
      <trkpt lat="43.00286" lon="-0.13302">
        <ele>946</ele>
        <time>2009-08-18T10:25:29Z</time>
      </trkpt>
      <trkpt lat="43.00299" lon="-0.13324">
        <ele>945.6</ele>
        <time>2009-08-18T10:25:33Z</time>
      </trkpt>
      <trkpt lat="43.00309" lon="-0.13341">
        <ele>945.4</ele>
        <time>2009-08-18T10:25:36Z</time>
      </trkpt>
      <trkpt lat="43.00317" lon="-0.13361">
        <ele>945.5</ele>
        <time>2009-08-18T10:25:39Z</time>
      </trkpt>
      <trkpt lat="43.00323" lon="-0.13374">
        <ele>945.4</ele>
        <time>2009-08-18T10:25:41Z</time>
      </trkpt>
      <trkpt lat="43.00337" lon="-0.13393">
        <ele>944.6</ele>
        <time>2009-08-18T10:25:45Z</time>
      </trkpt>
      <trkpt lat="43.00353" lon="-0.13406">
        <ele>944.4</ele>
        <time>2009-08-18T10:25:50Z</time>
      </trkpt>
      <trkpt lat="43.00364" lon="-0.13417">
        <ele>944.3</ele>
        <time>2009-08-18T10:25:54Z</time>
      </trkpt>
      <trkpt lat="43.00374" lon="-0.13425">
        <ele>946.1</ele>
        <time>2009-08-18T10:25:59Z</time>
      </trkpt>
      <trkpt lat="43.00377" lon="-0.13427">
        <ele>946.5</ele>
        <time>2009-08-18T10:26:01Z</time>
      </trkpt>
      <trkpt lat="43.00381" lon="-0.13424">
        <ele>945.7</ele>
        <time>2009-08-18T10:26:12Z</time>
      </trkpt>
      <trkpt lat="43.00381" lon="-0.13424">
        <ele>945.7</ele>
        <time>2009-08-18T10:26:16Z</time>
      </trkpt>
    </trkseg>
  </trk>
</gpx>